Provisional Data: Loyalsock Creek near Ringdale, PA


Please select a monitoring station.
Please select start date.
Please select start date.

Toggle Unit: C/F Toggle Unit: C/F
Sample Time Temperature (C) Temperature (F) Specific Conductivity (mS/cm) pH   Turbidity (NTU+) DO (mg/L)
3/23/2021 12:00:00 AM 4.43 39.974 0.02 5.15 4.17 12.31
3/23/2021 12:15:00 AM 4.35 39.83 0.02 5.13 4.13 12.33
3/23/2021 12:30:00 AM 4.27 39.686 0.02 5.12 4.09 12.36
3/23/2021 12:45:00 AM 4.19 39.542 0.02 5.14 4.19 12.4
3/23/2021 1:00:00 AM 4.1 39.38 0.02 5.11 4.09 12.42
3/23/2021 1:15:00 AM 4.02 39.236 0.02 5.12 4.22 12.45
3/23/2021 1:30:00 AM 3.94 39.092 0.02 5.12 4.51 12.48
3/23/2021 1:45:00 AM 3.85 38.93 0.02 5.11 4.78 12.51
3/23/2021 2:00:00 AM 3.77 38.786 0.021 5.1 4.66 12.54
3/23/2021 2:15:00 AM 3.68 38.624 0.02 5.11 4.29 12.56
3/23/2021 2:30:00 AM 3.6 38.48 0.02 5.11 4.25 12.6
3/23/2021 2:45:00 AM 3.53 38.354 0.02 5.1 4.16 12.62
3/23/2021 3:00:00 AM 3.46 38.228 0.02 5.1 4.12 12.64
3/23/2021 3:15:00 AM 3.38 38.084 0.02 5.09 4.26 12.67
3/23/2021 3:30:00 AM 3.31 37.958 0.02 5.12 4.18 12.69
3/23/2021 3:45:00 AM 3.24 37.832 0.021 5.07 4.12 12.73
3/23/2021 4:00:00 AM 3.16 37.688 0.021 5.1 4.19 12.75
3/23/2021 4:15:00 AM 3.1 37.58 0.02 5.09 4.03 12.77
3/23/2021 4:30:00 AM 3.03 37.454 0.02 5.1 4.13 12.79
3/23/2021 4:45:00 AM 2.96 37.328 0.02 5.09 3.97 12.82
3/23/2021 5:00:00 AM 2.9 37.22 0.02 5.09 4.12 12.83
3/23/2021 5:15:00 AM 2.84 37.112 0.02 5.08 4.03 12.86
3/23/2021 5:30:00 AM 2.78 37.004 0.02 5.08 4.05 12.87
3/23/2021 5:45:00 AM 2.72 36.896 0.02 5.08 4.02 12.9
3/23/2021 6:00:00 AM 2.66 36.788 0.021 5.09 4.1 12.92
3/23/2021 6:15:00 AM 2.6 36.68 0.021 5.09 4.14 12.95
3/23/2021 6:30:00 AM 2.54 36.572 0.021 5.08 4.04 12.97
3/23/2021 6:45:00 AM 2.49 36.482 0.02 5.06 4.17 12.98
3/23/2021 7:00:00 AM 2.43 36.374 0.02 5.07 4.04 13
3/23/2021 7:15:00 AM 2.38 36.284 0.02 5.05 3.96 13.03
3/23/2021 7:30:00 AM 2.33 36.194 0.02 5.08 3.97 13.05
3/23/2021 7:45:00 AM 2.29 36.122 0.02 5.06 4.02 13.08
3/23/2021 8:00:00 AM 2.26 36.068 0.02 5.09 4.11 13.1
3/23/2021 8:15:00 AM 2.24 36.032 0.02 5.08 3.98 13.13
3/23/2021 8:30:00 AM 2.23 36.014 0.02 5.09 3.89 13.15
3/23/2021 8:45:00 AM 2.25 36.05 0.02 5.07 3.92 13.16
3/23/2021 9:00:00 AM 2.28 36.104 0.02 5.08 3.97 13.17
3/23/2021 9:15:00 AM 2.33 36.194 0.021 5.09 3.98 13.18
3/23/2021 9:30:00 AM 2.41 36.338 0.02 5.09 3.9 13.18
3/23/2021 9:45:00 AM 2.51 36.518 0.021 5.11 3.94 13.17
3/23/2021 10:00:00 AM 2.64 36.752 0.021 5.12 3.95 13.15
3/23/2021 10:15:00 AM 2.77 36.986 0.021 5.12 3.88 13.13
3/23/2021 10:30:00 AM 2.93 37.274 0.02 5.12 3.84 13.1
3/23/2021 10:45:00 AM 3.09 37.562 0.02 5.14 4.01 13.07
3/23/2021 11:00:00 AM 3.28 37.904 0.021 5.15 3.83 13.03
3/23/2021 11:15:00 AM 3.48 38.264 0.02 5.16 3.8 12.97
3/23/2021 11:30:00 AM 3.69 38.642 0.02 5.16 3.96 12.93
3/23/2021 11:45:00 AM 3.9 39.02 0.021 5.16 3.82 12.87
3/23/2021 12:00:00 PM 4.11 39.398 0.02 5.19 3.88 12.81
3/23/2021 12:15:00 PM 4.33 39.794 0.02 5.18 3.93 12.75
3/23/2021 12:30:00 PM 4.55 40.19 0.02 5.21 3.71 12.69
3/23/2021 12:45:00 PM 4.77 40.586 0.02 5.2 3.79 12.62
3/23/2021 1:00:00 PM 4.95 40.91 0.02 5.22 3.85 12.56
3/23/2021 1:15:00 PM 5.1 41.18 0.021 5.23 3.83 12.5
3/23/2021 1:30:00 PM 5.26 41.468 0.02 5.23 3.85 12.45
3/23/2021 1:45:00 PM 5.43 41.774 0.02 5.25 3.93 12.4
3/23/2021 2:00:00 PM 5.58 42.044 0.02 5.24 3.88 12.35
3/23/2021 2:15:00 PM 5.72 42.296 0.02 5.24 3.88 12.3
3/23/2021 2:30:00 PM 5.84 42.512 0.02 5.26 3.88 12.26
3/23/2021 2:45:00 PM 5.95 42.71 0.02 5.26 3.94 12.22
3/23/2021 3:00:00 PM 6.03 42.854 0.02 5.27 3.93 12.18
3/23/2021 3:15:00 PM 6.06 42.908 0.021 5.26 3.85 12.15
3/23/2021 3:30:00 PM 6.07 42.926 0.021 5.26 3.91 12.13
3/23/2021 3:45:00 PM 6.11 42.998 0.02 5.26 4.1 12.1
3/23/2021 4:00:00 PM 6.16 43.088 0.02 5.26 3.88 12.08
3/23/2021 4:15:00 PM 6.2 43.16 0.02 5.26 4.03 12.05
3/23/2021 4:30:00 PM 6.2 43.16 0.02 5.28 4.01 12.03
3/23/2021 4:45:00 PM 6.2 43.16 0.02 5.28 4.07 12.02
3/23/2021 5:00:00 PM 6.19 43.142 0.02 5.26 3.98 12
3/23/2021 5:15:00 PM 6.2 43.16 0.02 5.27 4.09 11.98
3/23/2021 5:30:00 PM 6.19 43.142 0.02 5.28 4.13 11.96
3/23/2021 5:45:00 PM 6.16 43.088 0.02 5.27 4.15 11.94
3/23/2021 6:00:00 PM 6.13 43.034 0.02 5.27 4.1 11.93
3/23/2021 6:15:00 PM 6.11 42.998 0.021 5.27 4.28 11.92
3/23/2021 6:30:00 PM 6.1 42.98 0.02 5.26 4.16 11.91
3/23/2021 6:45:00 PM 6.08 42.944 0.021 5.26 4.35 11.89
3/23/2021 7:00:00 PM 6.07 42.926 0.021 5.26 4.36 11.88
3/23/2021 7:15:00 PM 6.05 42.89 0.02 5.25 4.53 11.87
3/23/2021 7:30:00 PM 6.03 42.854 0.021 5.26 4.63 11.85
3/23/2021 7:45:00 PM 6.01 42.818 0.021 5.23 4.44 11.84
3/23/2021 8:00:00 PM 5.99 42.782 0.021 5.24 4.53 11.83
3/23/2021 8:15:00 PM 5.97 42.746 0.02 5.25 4.4 11.82
3/23/2021 8:30:00 PM 5.95 42.71 0.02 5.24 4.58 11.82
3/23/2021 8:45:00 PM 5.93 42.674 0.021 5.23 4.58 11.82
3/23/2021 9:00:00 PM 5.91 42.638 0.02 5.23 4.6 11.82
3/23/2021 9:15:00 PM 5.89 42.602 0.021 5.22 4.56 11.83
3/23/2021 9:30:00 PM 5.86 42.548 0.021 5.24 4.49 11.84
3/23/2021 9:45:00 PM 5.84 42.512 0.021 5.23 4.61 11.84
3/23/2021 10:00:00 PM 5.81 42.458 0.02 5.23 4.34 11.85
3/23/2021 10:15:00 PM 5.78 42.404 0.02 5.23 4.77 11.86
3/23/2021 10:30:00 PM 5.74 42.332 0.021 5.23 4.41 11.87
3/23/2021 10:45:00 PM 5.7 42.26 0.021 5.23 4.48 11.88
3/23/2021 11:00:00 PM 5.66 42.188 0.02 5.22 4.47 11.89
3/23/2021 11:15:00 PM 5.61 42.098 0.02 5.23 4.4 11.91
3/23/2021 11:30:00 PM 5.56 42.008 0.021 5.23 4.42 11.92
3/23/2021 11:45:00 PM 5.51 41.918 0.02 5.22 4.54 11.94
3/24/2021 12:00:00 AM 5.46 41.828 0.021 5.23 4.4 11.95
3/24/2021 12:15:00 AM 5.42 41.756 0.02 5.21 4.45 11.97
3/24/2021 12:30:00 AM 5.37 41.666 0.021 5.21 4.46 11.99
3/24/2021 12:45:00 AM 5.33 41.594 0.02 5.22 4.48 12
3/24/2021 1:00:00 AM 5.29 41.522 0.021 5.22 4.41 12.01
3/24/2021 1:15:00 AM 5.27 41.486 0.021 5.22 4.33 12.03
3/24/2021 1:30:00 AM 5.26 41.468 0.021 5.23 4.3 12.03
3/24/2021 1:45:00 AM 5.25 41.45 0.021 5.22 4.3 12.05
3/24/2021 2:00:00 AM 5.23 41.414 0.021 5.21 4.2 12.06
3/24/2021 2:15:00 AM 5.2 41.36 0.021 5.22 4.23 12.06
3/24/2021 2:30:00 AM 5.19 41.342 0.021 5.22 4.25 12.07
3/24/2021 2:45:00 AM 5.17 41.306 0.021 5.22 4.31 12.08
3/24/2021 3:00:00 AM 5.15 41.27 0.021 5.24 4.29 12.09
3/24/2021 3:15:00 AM 5.12 41.216 0.021 5.23 4.36 12.09
3/24/2021 3:30:00 AM 5.09 41.162 0.021 5.22 4.21 12.1
3/24/2021 3:45:00 AM 5.07 41.126 0.02 5.21 4.36 12.11
3/24/2021 4:00:00 AM 5.04 41.072 0.02 5.22 4.22 12.11
3/24/2021 4:15:00 AM 5.01 41.018 0.021 5.21 4.39 12.12
3/24/2021 4:30:00 AM 4.98 40.964 0.021 5.22 4.28 12.13
3/24/2021 4:45:00 AM 4.95 40.91 0.02 5.21 4.22 12.13
3/24/2021 5:00:00 AM 4.92 40.856 0.02 5.21 4.22 12.14
3/24/2021 5:15:00 AM 4.9 40.82 0.021 5.23 4.15 12.15
3/24/2021 5:30:00 AM 4.89 40.802 0.02 5.2 4.32 12.16
3/24/2021 5:45:00 AM 4.88 40.784 0.02 5.21 4.31 12.16
3/24/2021 6:00:00 AM 4.87 40.766 0.02 5.21 4.27 12.17
3/24/2021 6:15:00 AM 4.87 40.766 0.02 5.22 4.24 12.17
3/24/2021 6:30:00 AM 4.87 40.766 0.021 5.2 4.31 12.18
3/24/2021 6:45:00 AM 4.86 40.748 0.021 5.23 4.39 12.17
3/24/2021 7:00:00 AM 4.86 40.748 0.02 5.22 4.38 12.17
3/24/2021 7:15:00 AM 4.86 40.748 0.021 5.23 4.48 12.18
3/24/2021 7:30:00 AM 4.86 40.748 0.021 5.23 4.29 12.18
3/24/2021 7:45:00 AM 4.87 40.766 0.021 5.22 4.36 12.17
3/24/2021 8:00:00 AM 4.87 40.766 0.02 5.21 4.36 12.18
3/24/2021 8:15:00 AM 4.89 40.802 0.021 5.23 4.33 12.18
3/24/2021 8:30:00 AM 4.91 40.838 0.021 5.23 4.43 12.19
3/24/2021 8:45:00 AM 4.94 40.892 0.02 5.23 4.2 12.19
3/24/2021 9:00:00 AM 4.97 40.946 0.02 5.23 4.44 12.19
3/24/2021 9:15:00 AM 5 41 0.021 5.25 4.37 12.2
3/24/2021 9:30:00 AM 5.02 41.036 0.021 5.24 4.43 12.2
3/24/2021 9:45:00 AM 5.05 41.09 0.021 5.24 4.45 12.2
3/24/2021 10:00:00 AM 5.08 41.144 0.021 5.26 4.53 12.19
3/24/2021 10:15:00 AM 5.12 41.216 0.021 5.26 4.62 12.19
3/24/2021 10:30:00 AM 5.16 41.288 0.021 5.25 4.65 12.19
3/24/2021 10:45:00 AM 5.22 41.396 0.021 5.28 4.82 12.18
3/24/2021 11:00:00 AM 5.27 41.486 0.021 5.3 4.85 12.17
3/24/2021 11:15:00 AM 5.31 41.558 0.021 5.27 5.04 12.16
3/24/2021 11:30:00 AM 5.35 41.63 0.021 5.29 5.25 12.15
3/24/2021 11:45:00 AM 5.4 41.72 0.021 5.3 5.73 12.13
3/24/2021 12:00:00 PM 5.45 41.81 0.021 5.3 5.94 12.12
3/24/2021 12:15:00 PM 5.49 41.882 0.021 5.31 5.55 12.11
3/24/2021 12:30:00 PM 5.55 41.99 0.021 5.32 5.65 12.1
3/24/2021 12:45:00 PM 5.63 42.134 0.021 5.33 5.93 12.08
3/24/2021 1:00:00 PM 5.68 42.224 0.021 5.33 6.29 12.07
3/24/2021 1:15:00 PM 5.72 42.296 0.021 5.34 6.8 12.05
3/24/2021 1:30:00 PM 5.75 42.35 0.021 5.36 6.82 12.03
3/24/2021 1:45:00 PM 5.77 42.386 0.021 5.34 8 12.02
3/24/2021 2:00:00 PM 5.8 42.44 0.022 5.34 8.71 12.01
3/24/2021 2:15:00 PM 5.82 42.476 0.022 5.35 8.59 12.01
3/24/2021 2:30:00 PM 5.85 42.53 0.022 5.35 8.42 11.99
3/24/2021 2:45:00 PM 5.85 42.53 0.022 5.33 9.03 11.98
3/24/2021 3:00:00 PM 5.86 42.548 0.022 5.33 10.18 11.98
3/24/2021 3:15:00 PM 5.85 42.53 0.022 5.32 9.78 11.97
3/24/2021 3:30:00 PM 5.85 42.53 0.022 5.34 12.39 11.97
3/24/2021 3:45:00 PM 5.83 42.494 0.022 5.38 11.63 11.96
3/24/2021 4:00:00 PM 5.82 42.476 0.022 5.34 15.13 11.95
3/24/2021 4:15:00 PM 5.81 42.458 0.022 5.33 16.75 11.95
3/24/2021 4:30:00 PM 5.81 42.458 0.022 5.32 15.2 11.94
3/24/2021 4:45:00 PM 5.8 42.44 0.022 5.32 13.68 11.94
3/24/2021 5:00:00 PM 5.79 42.422 0.021 5.29 14 11.93
3/24/2021 5:15:00 PM 5.79 42.422 0.021 5.3 13.34 11.93
3/24/2021 5:30:00 PM 5.78 42.404 0.021 5.28 12.81 11.93
3/24/2021 5:45:00 PM 5.78 42.404 0.021 5.26 11.49 11.93
3/24/2021 6:00:00 PM 5.79 42.422 0.021 5.28 11.49 11.93
3/24/2021 6:15:00 PM 5.79 42.422 0.021 5.27 11.66 11.92
3/24/2021 6:30:00 PM 5.79 42.422 0.021 5.27 11 11.91
3/24/2021 6:45:00 PM 5.79 42.422 0.02 5.24 10.52 11.91
3/24/2021 7:00:00 PM 5.79 42.422 0.02 5.24 10.27 11.9
3/24/2021 7:15:00 PM 5.78 42.404 0.02 5.23 10.39 11.9
3/24/2021 7:30:00 PM 5.77 42.386 0.02 5.23 11.17 11.9
3/24/2021 7:45:00 PM 5.76 42.368 0.02 5.23 11.68 11.89
3/24/2021 8:00:00 PM 5.75 42.35 0.02 5.23 12.2 11.89
3/24/2021 8:15:00 PM 5.74 42.332 0.02 5.23 11.82 11.89
3/24/2021 8:30:00 PM 5.73 42.314 0.02 5.23 12.12 11.89
3/24/2021 8:45:00 PM 5.72 42.296 0.02 5.21 11.43 11.89
3/24/2021 9:00:00 PM 5.7 42.26 0.02 5.21 11.57 11.89
3/24/2021 9:15:00 PM 5.7 42.26 0.02 5.21 11.46 11.9
3/24/2021 9:30:00 PM 5.68 42.224 0.02 5.2 10.7 11.9
3/24/2021 9:45:00 PM 5.67 42.206 0.02 5.19 10.51 11.91
3/24/2021 10:00:00 PM 5.66 42.188 0.02 5.19 10.23 11.91
3/24/2021 10:15:00 PM 5.65 42.17 0.02 5.2 9.94 11.91
3/24/2021 10:30:00 PM 5.65 42.17 0.019 5.17 9.89 11.91
3/24/2021 10:45:00 PM 5.63 42.134 0.019 5.19 9.56 11.91
3/24/2021 11:00:00 PM 5.62 42.116 0.019 5.16 9.29 11.92
3/24/2021 11:15:00 PM 5.6 42.08 0.019 5.18 9.54 11.93
3/24/2021 11:30:00 PM 5.57 42.026 0.019 5.14 10.77 11.94
3/24/2021 11:45:00 PM 5.56 42.008 0.019 5.16 9.54 11.94
3/25/2021 12:00:00 AM 5.54 41.972 0.019 5.13 9.31 11.94
3/25/2021 12:15:00 AM 5.52 41.936 0.019 5.14 8.61 11.95
3/25/2021 12:30:00 AM 5.5 41.9 0.019 5.13 8.2 11.96
3/25/2021 12:45:00 AM 5.49 41.882 0.019 5.11 8.14 11.96
3/25/2021 1:00:00 AM 5.47 41.846 0.019 5.12 7.97 11.96
3/25/2021 1:15:00 AM 5.45 41.81 0.019 5.12 7.49 11.97
3/25/2021 1:30:00 AM 5.43 41.774 0.019 5.11 7.58 11.97
3/25/2021 1:45:00 AM 5.42 41.756 0.019 5.1 7.55 11.98
3/25/2021 2:00:00 AM 5.41 41.738 0.019 5.08 7.84 11.98
3/25/2021 2:15:00 AM 5.4 41.72 0.019 5.1 7.54 11.98
3/25/2021 2:30:00 AM 5.39 41.702 0.019 5.09 8.85 11.98
3/25/2021 2:45:00 AM 5.38 41.684 0.019 5.06 7.16 11.98
3/25/2021 3:00:00 AM 5.37 41.666 0.019 5.06 7.25 11.98
3/25/2021 3:15:00 AM 5.36 41.648 0.019 5.08 6.95 11.99
3/25/2021 3:30:00 AM 5.36 41.648 0.019 5.09 7.13 11.99
3/25/2021 3:45:00 AM 5.35 41.63 0.019 5.09 6.69 11.99
3/25/2021 4:00:00 AM 5.34 41.612 0.019 5.12 6.7 11.99
3/25/2021 4:15:00 AM 5.34 41.612 0.019 5.08 6.68 11.99
3/25/2021 4:30:00 AM 5.33 41.594 0.019 5.11 6.66 11.99
3/25/2021 4:45:00 AM 5.33 41.594 0.019 5.1 6.64 11.99
3/25/2021 5:00:00 AM 5.32 41.576 0.019 5.08 6.56 11.99
3/25/2021 5:15:00 AM 5.32 41.576 0.019 5.11 6.5 12
3/25/2021 5:30:00 AM 5.31 41.558 0.019 5.08 6.25 12
3/25/2021 5:45:00 AM 5.31 41.558 0.019 5.1 6.47 12
3/25/2021 6:00:00 AM 5.3 41.54 0.019 5.09 6.51 12.01
3/25/2021 6:15:00 AM 5.29 41.522 0.019 5.08 6.86 12.01
3/25/2021 6:30:00 AM 5.28 41.504 0.019 5.1 6.28 12.01
3/25/2021 6:45:00 AM 5.28 41.504 0.019 5.1 6.16 12.01
3/25/2021 7:00:00 AM 5.28 41.504 0.019 5.11 6.32 12.02
3/25/2021 7:15:00 AM 5.28 41.504 0.019 5.09 6.18 12.02
3/25/2021 7:30:00 AM 5.28 41.504 0.019 5.09 6.38 12.02
3/25/2021 7:45:00 AM 5.29 41.522 0.019 5.1 6.38 12.03
3/25/2021 8:00:00 AM 5.3 41.54 0.019 5.14 6.18 12.04
3/25/2021 8:15:00 AM 5.33 41.594 0.019 5.13 5.87 12.05
3/25/2021 8:30:00 AM 5.36 41.648 0.019 5.12 5.96 12.06
3/25/2021 8:45:00 AM 5.4 41.72 0.019 5.11 5.69 12.06
3/25/2021 9:00:00 AM 5.43 41.774 0.019 5.14 5.71 12.06
3/25/2021 9:15:00 AM 5.5 41.9 0.019 5.14 5.74 12.06
3/25/2021 9:30:00 AM 5.54 41.972 0.019 5.12 5.72 12.06
3/25/2021 9:45:00 AM 5.61 42.098 0.019 5.16 5.63 12.05
3/25/2021 10:00:00 AM 5.68 42.224 0.019 5.17 5.84 12.05
3/25/2021 10:15:00 AM 5.78 42.404 0.019 5.18 5.74 12.03
3/25/2021 10:30:00 AM 5.9 42.62 0.019 5.21 5.57 12.01
3/25/2021 10:45:00 AM 5.99 42.782 0.019 5.17 5.73 12
3/25/2021 11:00:00 AM 6.1 42.98 0.019 5.19 5.64 11.97
3/25/2021 11:15:00 AM 6.25 43.25 0.019 5.18 5.71 11.94
3/25/2021 11:30:00 AM 6.4 43.52 0.019 5.21 5.72 11.91
3/25/2021 11:45:00 AM 6.55 43.79 0.019 5.24 5.67 11.88
3/25/2021 12:00:00 PM 6.72 44.096 0.019 5.24 5.7 11.83
3/25/2021 12:15:00 PM 6.88 44.384 0.019 5.23 6.04 11.79
3/25/2021 12:30:00 PM 7.03 44.654 0.019 5.23 5.9 11.76
3/25/2021 12:45:00 PM 7.18 44.924 0.019 5.28 5.95 11.72
3/25/2021 1:00:00 PM 7.34 45.212 0.019 5.25 5.94 11.68
3/25/2021 1:15:00 PM 7.5 45.5 0.019 5.29 5.9 11.63
3/25/2021 1:30:00 PM 7.62 45.716 0.019 5.29 6.01 11.6
3/25/2021 1:45:00 PM 7.75 45.95 0.019 5.28 6.05 11.56
3/25/2021 2:00:00 PM 7.9 46.22 0.019 5.31 6.1 11.51
3/25/2021 2:15:00 PM 8.03 46.454 0.019 5.28 5.7 11.47
3/25/2021 2:30:00 PM 8.14 46.652 0.019 5.28 6.08 11.43
3/25/2021 2:45:00 PM 8.24 46.832 0.019 5.32 6.03 11.4
3/25/2021 3:00:00 PM 8.35 47.03 0.019 5.31 6.02 11.35
3/25/2021 3:15:00 PM 8.45 47.21 0.019 5.34 5.94 11.32
3/25/2021 3:30:00 PM 8.51 47.318 0.019 5.35 6.23 11.29
3/25/2021 3:45:00 PM 8.55 47.39 0.019 5.36 6.49 11.25
3/25/2021 4:00:00 PM 8.59 47.462 0.019 5.35 6.33 11.23
3/25/2021 4:15:00 PM 8.63 47.534 0.019 5.37 6.18 11.2
3/25/2021 4:30:00 PM 8.66 47.588 0.019 5.35 6.35 11.18
3/25/2021 4:45:00 PM 8.69 47.642 0.019 5.37 6.37 11.16
3/25/2021 5:00:00 PM 8.74 47.732 0.019 5.36 6.62 11.14
3/25/2021 5:15:00 PM 8.77 47.786 0.019 5.38 6.44 11.12
3/25/2021 5:30:00 PM 8.8 47.84 0.019 5.39 6.45 11.09
3/25/2021 5:45:00 PM 8.82 47.876 0.019 5.4 6.28 11.07
3/25/2021 6:00:00 PM 8.83 47.894 0.019 5.4 6.27 11.06
3/25/2021 6:15:00 PM 8.83 47.894 0.019 5.38 6.4 11.05
3/25/2021 6:30:00 PM 8.83 47.894 0.019 5.36 6.62 11.03
3/25/2021 6:45:00 PM 8.82 47.876 0.019 5.36 6.5 11.01
3/25/2021 7:00:00 PM 8.81 47.858 0.019 5.39 6.51 10.99
3/25/2021 7:15:00 PM 8.79 47.822 0.019 5.36 6.47 10.99
3/25/2021 7:30:00 PM 8.77 47.786 0.019 5.35 6.37 10.97
3/25/2021 7:45:00 PM 8.74 47.732 0.019 5.34 6.48 10.97
3/25/2021 8:00:00 PM 8.71 47.678 0.019 5.34 6.42 10.96
3/25/2021 8:15:00 PM 8.69 47.642 0.019 5.34 6.41 10.96
3/25/2021 8:30:00 PM 8.66 47.588 0.019 5.34 6.39 10.97
3/25/2021 8:45:00 PM 8.63 47.534 0.019 5.33 6.35 10.97
3/25/2021 9:00:00 PM 8.61 47.498 0.019 5.33 7.41 10.98
3/25/2021 9:15:00 PM 8.6 47.48 0.019 5.33 6.1 10.98
3/25/2021 9:30:00 PM 8.57 47.426 0.019 5.35 5.82 10.99
3/25/2021 9:45:00 PM 8.55 47.39 0.018 5.34 6.03 11
3/25/2021 10:00:00 PM 8.51 47.318 0.019 5.34 5.77 11
3/25/2021 10:15:00 PM 8.47 47.246 0.019 5.34 6.01 11.02
3/25/2021 10:30:00 PM 8.42 47.156 0.019 5.38 5.97 11.03
3/25/2021 10:45:00 PM 8.38 47.084 0.019 5.34 5.96 11.04
3/25/2021 11:00:00 PM 8.33 46.994 0.019 5.33 5.73 11.05
3/25/2021 11:15:00 PM 8.29 46.922 0.019 5.34 5.82 11.06
3/25/2021 11:30:00 PM 8.25 46.85 0.019 5.37 6 11.07
3/25/2021 11:45:00 PM 8.21 46.778 0.019 5.37 5.83 11.08
3/26/2021 12:00:00 AM 8.17 46.706 0.019 5.37 6.16 11.09
3/26/2021 12:15:00 AM 8.15 46.67 0.019 5.37 6.39 11.1
3/26/2021 12:30:00 AM 8.13 46.634 0.019 5.4 6.19 11.1
3/26/2021 12:45:00 AM 8.11 46.598 0.019 5.38 6.18 11.11
3/26/2021 1:00:00 AM 8.09 46.562 0.019 5.41 5.97 11.12
3/26/2021 1:15:00 AM 8.09 46.562 0.019 5.41 5.94 11.12
3/26/2021 1:30:00 AM 8.08 46.544 0.019 5.41 6.22 11.12
3/26/2021 1:45:00 AM 8.06 46.508 0.019 5.42 6.26 11.12
3/26/2021 2:00:00 AM 8.06 46.508 0.019 5.39 6.74 11.1
3/26/2021 2:15:00 AM 8.06 46.508 0.019 5.42 6.64 11.11
3/26/2021 2:30:00 AM 8.05 46.49 0.019 5.4 6.4 11.1
3/26/2021 2:45:00 AM 8.06 46.508 0.019 5.42 6.53 11.1
3/26/2021 3:00:00 AM 8.05 46.49 0.019 5.44 6.66 11.1
3/26/2021 3:15:00 AM 8.06 46.508 0.019 5.42 6.61 11.09
3/26/2021 3:30:00 AM 8.06 46.508 0.019 5.43 6.5 11.1
3/26/2021 3:45:00 AM 8.06 46.508 0.019 5.43 6.46 11.1
3/26/2021 4:00:00 AM 8.07 46.526 0.019 5.43 6.38 11.08
3/26/2021 4:15:00 AM 8.08 46.544 0.02 5.44 6.37 11.08
3/26/2021 4:30:00 AM 8.11 46.598 0.019 5.44 6.21 11.07
3/26/2021 4:45:00 AM 8.12 46.616 0.019 5.45 6.15 11.06
3/26/2021 5:00:00 AM 8.11 46.598 0.019 5.44 6.22 11.06
3/26/2021 5:15:00 AM 8.09 46.562 0.02 5.42 6.37 11.05
3/26/2021 5:30:00 AM 8.1 46.58 0.02 5.43 6.25 11.04
3/26/2021 5:45:00 AM 8.1 46.58 0.02 5.47 6.13 11.04
3/26/2021 6:00:00 AM 8.1 46.58 0.02 5.46 5.93 11.04
3/26/2021 6:15:00 AM 8.1 46.58 0.019 5.45 5.96 11.03
3/26/2021 6:30:00 AM 8.11 46.598 0.02 5.46 6.12 11.03
3/26/2021 6:45:00 AM 8.12 46.616 0.02 5.45 6.17 11.03
3/26/2021 7:00:00 AM 8.14 46.652 0.019 5.46 6.27 11.02
3/26/2021 7:15:00 AM 8.16 46.688 0.019 5.48 6.36 11.02
3/26/2021 7:30:00 AM 8.18 46.724 0.02 5.49 6.4 11.02
3/26/2021 7:45:00 AM 8.21 46.778 0.02 5.51 6.43 11.01
3/26/2021 8:00:00 AM 8.26 46.868 0.02 5.5 6.78 11.03
3/26/2021 8:15:00 AM 8.32 46.976 0.02 5.5 6.24 11.01
3/26/2021 8:30:00 AM 8.37 47.066 0.02 5.52 6.06 11.02
3/26/2021 8:45:00 AM 8.43 47.174 0.02 5.53 6.32 11.01
3/26/2021 9:00:00 AM 8.49 47.282 0.02 5.55 6.19 11
3/26/2021 9:15:00 AM 8.57 47.426 0.02 5.56 6.08 10.99
3/26/2021 9:30:00 AM 8.68 47.624 0.02 5.57 6.05 10.98
3/26/2021 9:45:00 AM 8.8 47.84 0.02 5.59 5.72 10.97
3/26/2021 10:00:00 AM 8.93 48.074 0.02 5.61 5.94 10.95
3/26/2021 10:15:00 AM 9.05 48.29 0.02 5.61 6.05 10.93
3/26/2021 10:30:00 AM 9.17 48.506 0.02 5.62 5.99 10.91
3/26/2021 10:45:00 AM 9.29 48.722 0.02 5.64 6.36 10.89
3/26/2021 11:00:00 AM 9.45 49.01 0.02 5.66 6.28 10.86
3/26/2021 11:15:00 AM 9.63 49.334 0.02 5.67 6.14 10.83
3/26/2021 11:30:00 AM 9.78 49.604 0.02 5.67 6.26 10.8
3/26/2021 11:45:00 AM 9.84 49.712 0.02 5.68 6.12 10.77
3/26/2021 12:00:00 PM 9.94 49.892 0.02 5.69 6.55 10.74
3/26/2021 12:15:00 PM 10.01 50.018 0.02 5.7 6.37 10.72
3/26/2021 12:30:00 PM 10.11 50.198 0.02 5.71 6.15 10.7
3/26/2021 12:45:00 PM 10.19 50.342 0.02 5.7 6.18 10.69
3/26/2021 1:00:00 PM 10.27 50.486 0.02 5.72 5.97 10.67
3/26/2021 1:15:00 PM 10.32 50.576 0.02 5.72 6.46 10.66
3/26/2021 1:30:00 PM 10.34 50.612 0.02 5.71 6.21 10.64
3/26/2021 1:45:00 PM 10.34 50.612 0.02 5.7 6.33 10.63
3/26/2021 2:00:00 PM 10.45 50.81 0.02 5.74 6.5 10.61
3/26/2021 2:15:00 PM 10.6 51.08 0.02 5.73 6.82 10.59
3/26/2021 2:30:00 PM 10.73 51.314 0.02 5.75 6.87 10.56
3/26/2021 2:45:00 PM 10.78 51.404 0.02 5.77 7.22 10.55
3/26/2021 3:00:00 PM 10.82 51.476 0.02 5.77 6.4 10.53
3/26/2021 3:15:00 PM 10.86 51.548 0.02 5.75 6.75 10.51
3/26/2021 3:30:00 PM 10.87 51.566 0.02 5.76 6.6 10.5
3/26/2021 3:45:00 PM 10.87 51.566 0.02 5.74 6.93 10.49
3/26/2021 4:00:00 PM 10.93 51.674 0.02 5.76 6.7 10.49
3/26/2021 4:15:00 PM 10.95 51.71 0.02 5.77 6.95 10.47
3/26/2021 4:30:00 PM 10.94 51.692 0.02 5.76 6.62 10.48
3/26/2021 4:45:00 PM 10.9 51.62 0.02 5.76 6.73 10.47
3/26/2021 5:00:00 PM 10.86 51.548 0.02 5.76 6.51 10.46
3/26/2021 5:15:00 PM 10.8 51.44 0.02 5.76 6.79 10.47
3/26/2021 5:30:00 PM 10.75 51.35 0.02 5.76 6.46 10.48
3/26/2021 5:45:00 PM 10.67 51.206 0.02 5.74 7.1 10.48
3/26/2021 6:00:00 PM 10.59 51.062 0.02 5.74 6.45 10.5
3/26/2021 6:15:00 PM 10.54 50.972 0.02 5.74 6.3 10.51
3/26/2021 6:30:00 PM 10.48 50.864 0.021 5.74 6.4 10.5
3/26/2021 6:45:00 PM 10.42 50.756 0.02 5.73 6.11 10.5
3/26/2021 7:00:00 PM 10.36 50.648 0.02 5.72 6.23 10.51
3/26/2021 7:15:00 PM 10.29 50.522 0.02 5.71 6.21 10.5
3/26/2021 7:30:00 PM 10.23 50.414 0.02 5.72 6.05 10.51
3/26/2021 7:45:00 PM 10.18 50.324 0.021 5.73 6.06 10.51
3/26/2021 8:00:00 PM 10.13 50.234 0.02 5.73 6.45 10.52
3/26/2021 8:15:00 PM 10.09 50.162 0.02 5.74 6.31 10.52
3/26/2021 8:30:00 PM 10.06 50.108 0.02 5.71 6.05 10.53
3/26/2021 8:45:00 PM 10.04 50.072 0.021 5.71 6.05 10.54
3/26/2021 9:00:00 PM 10.02 50.036 0.02 5.72 5.95 10.54
3/26/2021 9:15:00 PM 9.99 49.982 0.02 5.71 5.88 10.55
3/26/2021 9:30:00 PM 9.95 49.91 0.02 5.71 6.02 10.56
3/26/2021 9:45:00 PM 9.91 49.838 0.02 5.71 6.23 10.57
3/26/2021 10:00:00 PM 9.87 49.766 0.021 5.71 6.15 10.59
3/26/2021 10:15:00 PM 9.82 49.676 0.021 5.71 6.03 10.6
3/26/2021 10:30:00 PM 9.77 49.586 0.021 5.69 5.79 10.61
3/26/2021 10:45:00 PM 9.72 49.496 0.021 5.7 5.82 10.63
3/26/2021 11:00:00 PM 9.66 49.388 0.021 5.67 6.16 10.64
3/26/2021 11:15:00 PM 9.58 49.244 0.021 5.68 6.12 10.66
3/26/2021 11:30:00 PM 9.5 49.1 0.021 5.66 5.88 10.68
3/26/2021 11:45:00 PM 9.43 48.974 0.021 5.66 6.16 10.7
3/27/2021 12:00:00 AM 9.37 48.866 0.021 5.66 5.76 10.72
3/27/2021 12:15:00 AM 9.31 48.758 0.02 5.66 5.96 10.74
3/27/2021 12:30:00 AM 9.26 48.668 0.021 5.66 6.41 10.76
3/27/2021 12:45:00 AM 9.2 48.56 0.021 5.66 6.16 10.77
3/27/2021 1:00:00 AM 9.15 48.47 0.021 5.65 6.32 10.79
3/27/2021 1:15:00 AM 9.1 48.38 0.021 5.65 6.21 10.8
3/27/2021 1:30:00 AM 9.05 48.29 0.021 5.65 6.35 10.82
3/27/2021 1:45:00 AM 9.01 48.218 0.021 5.66 6.23 10.83
3/27/2021 2:00:00 AM 8.96 48.128 0.021 5.66 6.26 10.85
3/27/2021 2:15:00 AM 8.92 48.056 0.021 5.68 9.86 10.86
3/27/2021 2:30:00 AM 8.88 47.984 0.021 5.68 6.54 10.87
3/27/2021 2:45:00 AM 8.84 47.912 0.021 5.66 6.98 10.88
3/27/2021 3:00:00 AM 8.8 47.84 0.021 5.65 6.98 10.89
3/27/2021 3:15:00 AM 8.77 47.786 0.021 5.64 6.69 10.9
3/27/2021 3:30:00 AM 8.74 47.732 0.021 5.66 6.51 10.91
3/27/2021 3:45:00 AM 8.7 47.66 0.021 5.67 6.13 10.92
3/27/2021 4:00:00 AM 8.67 47.606 0.021 5.66 6.42 10.94
3/27/2021 4:15:00 AM 8.63 47.534 0.021 5.65 5.91 10.94
3/27/2021 4:30:00 AM 8.6 47.48 0.021 5.65 6.54 10.95
3/27/2021 4:45:00 AM 8.57 47.426 0.021 5.64 6.35 10.96
3/27/2021 5:00:00 AM 8.54 47.372 0.021 5.62 6.32 10.97
3/27/2021 5:15:00 AM 8.51 47.318 0.021 5.62 6.46 10.98
3/27/2021 5:30:00 AM 8.48 47.264 0.021 5.62 6.21 11
3/27/2021 5:45:00 AM 8.45 47.21 0.021 5.63 7.55 10.99
3/27/2021 6:00:00 AM 8.42 47.156 0.021 5.63 7.9 11
3/27/2021 6:15:00 AM 8.4 47.12 0.021 5.6 6.3 11.01
3/27/2021 6:30:00 AM 8.36 47.048 0.021 5.6 6.2 11.02
3/27/2021 6:45:00 AM 8.33 46.994 0.021 5.6 6.3 11.04
3/27/2021 7:00:00 AM 8.29 46.922 0.021 5.6 6.22 11.05
3/27/2021 7:15:00 AM 8.26 46.868 0.021 5.59 6.61 11.06
3/27/2021 7:30:00 AM 8.22 46.796 0.022 5.58 6.3 11.07
3/27/2021 7:45:00 AM 8.18 46.724 0.021 5.6 6.2 11.1
3/27/2021 8:00:00 AM 8.14 46.652 0.021 5.61 6.47 11.13
3/27/2021 8:15:00 AM 8.14 46.652 0.021 5.62 6.16 11.15
3/27/2021 8:30:00 AM 8.14 46.652 0.021 5.61 5.93 11.17
3/27/2021 8:45:00 AM 8.15 46.67 0.021 5.61 6.19 11.19
3/27/2021 9:00:00 AM 8.16 46.688 0.021 5.63 6.09 11.21
3/27/2021 9:15:00 AM 8.19 46.742 0.021 5.63 6.26 11.22
3/27/2021 9:30:00 AM 8.24 46.832 0.021 5.65 5.89 11.23
3/27/2021 9:45:00 AM 8.31 46.958 0.021 5.65 5.9 11.23
3/27/2021 10:00:00 AM 8.41 47.138 0.021 5.68 6.24 11.23
3/27/2021 10:15:00 AM 8.5 47.3 0.022 5.68 5.96 11.22
3/27/2021 10:30:00 AM 8.6 47.48 0.021 5.69 6.14 11.21
3/27/2021 10:45:00 AM 8.67 47.606 0.021 5.71 6.19 11.2
3/27/2021 11:00:00 AM 8.74 47.732 0.021 5.72 6.14 11.19
3/27/2021 11:15:00 AM 8.84 47.912 0.021 5.71 6.11 11.17
3/27/2021 11:30:00 AM 8.89 48.002 0.021 5.71 6.02 11.15
3/27/2021 11:45:00 AM 8.93 48.074 0.021 5.7 6.25 11.14
3/27/2021 12:00:00 PM 8.94 48.092 0.021 5.72 6.25 11.13
3/27/2021 12:15:00 PM 9.02 48.236 0.022 5.71 6.21 11.11
3/27/2021 12:30:00 PM 9.3 48.74 0.021 5.76 6.05 11.08
3/27/2021 12:45:00 PM 9.57 49.226 0.022 5.8 6.16 11.03
3/27/2021 1:00:00 PM 9.77 49.586 0.022 5.8 5.9 11
3/27/2021 1:15:00 PM 9.95 49.91 0.021 5.82 5.94 10.97
3/27/2021 1:30:00 PM 10.11 50.198 0.021 5.82 5.93 10.92
3/27/2021 1:45:00 PM 10.23 50.414 0.022 5.81 5.9 10.89
3/27/2021 2:00:00 PM 10.34 50.612 0.022 5.81 5.69 10.86
3/27/2021 2:15:00 PM 10.45 50.81 0.022 5.83 5.59 10.83
3/27/2021 2:30:00 PM 10.57 51.026 0.021 5.84 5.9 10.8
3/27/2021 2:45:00 PM 10.65 51.17 0.021 5.83 5.92 10.78
3/27/2021 3:00:00 PM 10.71 51.278 0.021 5.84 5.58 10.75
3/27/2021 3:15:00 PM 10.73 51.314 0.021 5.83 5.95 10.73
3/27/2021 3:30:00 PM 10.75 51.35 0.021 5.84 6 10.72
3/27/2021 3:45:00 PM 10.77 51.386 0.021 5.83 6 10.71
3/27/2021 4:00:00 PM 10.75 51.35 0.021 5.84 5.89 10.69
3/27/2021 4:15:00 PM 10.73 51.314 0.021 5.86 5.83 10.68
3/27/2021 4:30:00 PM 10.69 51.242 0.021 5.83 6.15 10.68
3/27/2021 4:45:00 PM 10.65 51.17 0.021 5.82 7.1 10.66
3/27/2021 5:00:00 PM 10.62 51.116 0.021 5.83 6.81 10.65
3/27/2021 5:15:00 PM 10.59 51.062 0.021 5.82 6.83 10.66
3/27/2021 5:30:00 PM 10.56 51.008 0.021 5.8 6.52 10.65
3/27/2021 5:45:00 PM 10.54 50.972 0.021 5.81 6.17 10.64
3/27/2021 6:00:00 PM 10.52 50.936 0.021 5.82 9.66 10.64
3/27/2021 6:15:00 PM 10.5 50.9 0.021 5.83 6.22 10.63
3/27/2021 6:30:00 PM 10.46 50.828 0.021 5.85 6.37 10.63
3/27/2021 6:45:00 PM 10.43 50.774 0.021 5.83 6.4 10.61
3/27/2021 7:00:00 PM 10.4 50.72 0.021 5.83 6.31 10.6
3/27/2021 7:15:00 PM 10.36 50.648 0.021 5.8 6.2 10.58
3/27/2021 7:30:00 PM 10.32 50.576 0.021 5.78 6.32 10.56
3/27/2021 7:45:00 PM 10.29 50.522 0.021 5.78 6.02 10.54
3/27/2021 8:00:00 PM 10.26 50.468 0.022 5.77 6.33 10.53
3/27/2021 8:15:00 PM 10.23 50.414 0.022 5.75 6.14 10.52
3/27/2021 8:30:00 PM 10.19 50.342 0.022 5.73 6.39 10.52
3/27/2021 8:45:00 PM 10.15 50.27 0.022 5.73 5.99 10.52
3/27/2021 9:00:00 PM 10.1 50.18 0.022 5.71 5.95 10.52
3/27/2021 9:15:00 PM 10.05 50.09 0.022 5.72 5.92 10.53
3/27/2021 9:30:00 PM 10 50 0.021 5.72 6.08 10.54
3/27/2021 9:45:00 PM 9.94 49.892 0.021 5.73 6.04 10.55
3/27/2021 10:00:00 PM 9.89 49.802 0.022 5.71 5.98 10.56
3/27/2021 10:15:00 PM 9.83 49.694 0.022 5.72 5.9 10.57
3/27/2021 10:30:00 PM 9.78 49.604 0.022 5.72 5.88 10.59
3/27/2021 10:45:00 PM 9.72 49.496 0.022 5.74 5.72 10.6
3/27/2021 11:00:00 PM 9.67 49.406 0.022 5.71 5.81 10.61
3/27/2021 11:15:00 PM 9.61 49.298 0.022 5.71 5.69 10.62
3/27/2021 11:30:00 PM 9.55 49.19 0.022 5.71 5.72 10.64
3/27/2021 11:45:00 PM 9.49 49.082 0.022 5.71 6.24 10.64
3/28/2021 12:00:00 AM 9.43 48.974 0.022 5.73 6.21 10.67
3/28/2021 12:15:00 AM 9.38 48.884 0.022 5.7 5.83 10.68
3/28/2021 12:30:00 AM 9.33 48.794 0.022 5.71 5.85 10.69
3/28/2021 12:45:00 AM 9.28 48.704 0.022 5.7 5.89 10.7
3/28/2021 1:00:00 AM 9.24 48.632 0.021 5.71 5.66 10.72
3/28/2021 1:15:00 AM 9.2 48.56 0.022 5.72 5.49 10.72
3/28/2021 1:30:00 AM 9.16 48.488 0.022 5.69 5.48 10.73
3/28/2021 1:45:00 AM 9.11 48.398 0.022 5.71 5.46 10.74
3/28/2021 2:00:00 AM 9.07 48.326 0.022 5.71 5.84 10.75
3/28/2021 2:15:00 AM 9.02 48.236 0.022 5.7 5.75 10.76
3/28/2021 2:30:00 AM 8.98 48.164 0.022 5.7 5.54 10.77
3/28/2021 2:45:00 AM 8.94 48.092 0.022 5.72 5.52 10.78
3/28/2021 3:00:00 AM 8.9 48.02 0.022 5.69 5.75 10.79
3/28/2021 3:15:00 AM 8.85 47.93 0.022 5.69 5.55 10.8
3/28/2021 3:30:00 AM 8.8 47.84 0.022 5.69 5.55 10.81
3/28/2021 3:45:00 AM 8.75 47.75 0.022 5.7 5.65 10.82
3/28/2021 4:00:00 AM 8.7 47.66 0.022 5.68 5.51 10.83
3/28/2021 4:15:00 AM 8.65 47.57 0.022 5.68 5.46 10.84
3/28/2021 4:30:00 AM 8.62 47.516 0.022 5.68 8.6 10.85
3/28/2021 4:45:00 AM 8.59 47.462 0.022 5.69 5.89 10.86
3/28/2021 5:00:00 AM 8.59 47.462 0.022 5.69 5.67 10.87
3/28/2021 5:15:00 AM 8.59 47.462 0.022 5.69 5.59 10.87
3/28/2021 5:30:00 AM 8.59 47.462 0.022 5.69 5.32 10.87
3/28/2021 5:45:00 AM 8.59 47.462 0.022 5.7 5.38 10.87
3/28/2021 6:00:00 AM 8.59 47.462 0.022 5.7 5.45 10.87
3/28/2021 6:15:00 AM 8.59 47.462 0.022 5.71 5.41 10.87
3/28/2021 6:30:00 AM 8.58 47.444 0.022 5.69 5.47 10.87
3/28/2021 6:45:00 AM 8.58 47.444 0.022 5.7 5.64 10.87
3/28/2021 7:00:00 AM 8.57 47.426 0.022 5.69 5.34 10.87
3/28/2021 7:15:00 AM 8.56 47.408 0.022 5.69 5.33 10.87
3/28/2021 7:30:00 AM 8.56 47.408 0.022 5.7 5.34 10.87
3/28/2021 7:45:00 AM 8.55 47.39 0.022 5.69 5.73 10.88
3/28/2021 8:00:00 AM 8.55 47.39 0.022 5.71 5.54 10.88
3/28/2021 8:15:00 AM 8.54 47.372 0.022 5.7 5.16 10.9
3/28/2021 8:30:00 AM 8.54 47.372 0.022 5.71 5.41 10.9
3/28/2021 8:45:00 AM 8.54 47.372 0.022 5.71 5.56 10.92
3/28/2021 9:00:00 AM 8.54 47.372 0.022 5.68 5.51 10.94
3/28/2021 9:15:00 AM 8.55 47.39 0.022 5.72 5.55 10.95
3/28/2021 9:30:00 AM 8.56 47.408 0.022 5.72 5.49 10.96
3/28/2021 9:45:00 AM 8.57 47.426 0.022 5.73 5.77 10.97
3/28/2021 10:00:00 AM 8.57 47.426 0.022 5.72 5.56 10.97
3/28/2021 10:15:00 AM 8.58 47.444 0.023 5.74 5.83 10.97
3/28/2021 10:30:00 AM 8.6 47.48 0.022 5.74 5.74 10.98
3/28/2021 10:45:00 AM 8.63 47.534 0.022 5.76 5.47 10.99
3/28/2021 11:00:00 AM 8.67 47.606 0.022 5.75 5.38 10.99
3/28/2021 11:15:00 AM 8.71 47.678 0.022 5.76 5.46 10.99
3/28/2021 11:30:00 AM 8.76 47.768 0.022 5.78 5.81 10.98
3/28/2021 11:45:00 AM 8.82 47.876 0.022 5.77 5.54 10.98
3/28/2021 12:00:00 PM 8.87 47.966 0.022 5.76 5.51 10.97
3/28/2021 12:15:00 PM 8.9 48.02 0.022 5.79 5.75 10.96
3/28/2021 12:30:00 PM 8.94 48.092 0.022 5.78 5.41 10.94
3/28/2021 12:45:00 PM 9.02 48.236 0.022 5.78 5.85 10.94
3/28/2021 1:00:00 PM 9.14 48.452 0.022 5.82 5.76 10.92
3/28/2021 1:15:00 PM 9.23 48.614 0.022 5.8 6.13 10.9
3/28/2021 1:30:00 PM 9.32 48.776 0.022 5.82 5.73 10.89
3/28/2021 1:45:00 PM 9.38 48.884 0.022 5.81 5.85 10.87
3/28/2021 2:00:00 PM 9.4 48.92 0.022 5.82 6.5 10.84
3/28/2021 2:15:00 PM 9.41 48.938 0.022 5.82 5.91 10.82
3/28/2021 2:30:00 PM 9.43 48.974 0.022 5.82 6.33 10.81
3/28/2021 2:45:00 PM 9.46 49.028 0.022 5.83 6.1 10.79
3/28/2021 3:00:00 PM 9.49 49.082 0.022 5.84 6.11 10.78
3/28/2021 3:15:00 PM 9.52 49.136 0.022 5.83 6.07 10.76
3/28/2021 3:30:00 PM 9.58 49.244 0.022 5.84 6.24 10.75
3/28/2021 3:45:00 PM 9.65 49.37 0.022 5.85 6 10.75
3/28/2021 4:00:00 PM 9.68 49.424 0.022 5.84 5.9 10.71
3/28/2021 4:15:00 PM 9.68 49.424 0.022 5.84 5.77 10.7
3/28/2021 4:30:00 PM 9.66 49.388 0.022 5.84 5.9 10.68
3/28/2021 4:45:00 PM 9.64 49.352 0.022 5.84 5.95 10.67
3/28/2021 5:00:00 PM 9.62 49.316 0.022 5.83 6.1 10.65
3/28/2021 5:15:00 PM 9.6 49.28 0.022 5.83 6.15 10.65
3/28/2021 5:30:00 PM 9.58 49.244 0.023 5.83 6.37 10.65
3/28/2021 5:45:00 PM 9.54 49.172 0.023 5.84 6.21 10.65
3/28/2021 6:00:00 PM 9.49 49.082 0.023 5.83 6 10.65
3/28/2021 6:15:00 PM 9.45 49.01 0.023 5.82 6.58 10.63
3/28/2021 6:30:00 PM 9.39 48.902 0.024 5.81 6.2 10.64
3/28/2021 6:45:00 PM 9.34 48.812 0.023 5.81 6.57 10.65
3/28/2021 7:00:00 PM 9.28 48.704 0.023 5.81 6.49 10.66
3/28/2021 7:15:00 PM 9.22 48.596 0.023 5.79 6.29 10.66
3/28/2021 7:30:00 PM 9.16 48.488 0.023 5.79 6.24 10.67
3/28/2021 7:45:00 PM 9.09 48.362 0.023 5.78 6.2 10.67
3/28/2021 8:00:00 PM 9.02 48.236 0.023 5.8 6.72 10.68
3/28/2021 8:15:00 PM 8.95 48.11 0.023 5.77 6.74 10.69
3/28/2021 8:30:00 PM 8.88 47.984 0.023 5.76 7.12 10.7
3/28/2021 8:45:00 PM 8.82 47.876 0.023 5.79 7.4 10.71
3/28/2021 9:00:00 PM 8.76 47.768 0.023 5.77 6.99 10.72
3/28/2021 9:15:00 PM 8.7 47.66 0.023 5.77 7.16 10.74
3/28/2021 9:30:00 PM 8.64 47.552 0.023 5.75 7.17 10.76
3/28/2021 9:45:00 PM 8.59 47.462 0.023 5.74 7.06 10.77
3/28/2021 10:00:00 PM 8.53 47.354 0.022 5.75 7.01 10.79
3/28/2021 10:15:00 PM 8.45 47.21 0.022 5.73 6.79 10.82
3/28/2021 10:30:00 PM 8.36 47.048 0.023 5.75 6.61 10.82
3/28/2021 10:45:00 PM 8.28 46.904 0.022 5.74 6.64 10.85
3/28/2021 11:00:00 PM 8.21 46.778 0.023 5.73 6.68 10.87
3/28/2021 11:15:00 PM 8.14 46.652 0.023 5.73 6.27 10.89
3/28/2021 11:30:00 PM 8.08 46.544 0.023 5.71 6.47 10.9
3/28/2021 11:45:00 PM 8 46.4 0.023 5.7 6.42 10.93
3/29/2021 12:00:00 AM 7.93 46.274 0.023 5.7 6.23 10.95
3/29/2021 12:15:00 AM 7.87 46.166 0.023 5.71 6.37 10.97
3/29/2021 12:30:00 AM 7.79 46.022 0.023 5.69 6.22 11
3/29/2021 12:45:00 AM 7.72 45.896 0.023 5.69 6.31 11.01
3/29/2021 1:00:00 AM 7.66 45.788 0.023 5.68 6.55 11.04
3/29/2021 1:15:00 AM 7.6 45.68 0.022 5.69 6.23 11.06
3/29/2021 1:30:00 AM 7.55 45.59 0.022 5.67 6.35 11.08
3/29/2021 1:45:00 AM 7.47 45.446 0.022 5.68 6.27 11.1
3/29/2021 2:00:00 AM 7.39 45.302 0.023 5.66 6.3 11.12
3/29/2021 2:15:00 AM 7.33 45.194 0.023 5.64 5.97 11.14
3/29/2021 2:30:00 AM 7.26 45.068 0.022 5.66 5.96 11.17
3/29/2021 2:45:00 AM 7.18 44.924 0.023 5.66 5.96 11.18
3/29/2021 3:00:00 AM 7.1 44.78 0.023 5.65 6.05 11.21
3/29/2021 3:15:00 AM 7.03 44.654 0.023 5.63 5.66 11.24
3/29/2021 3:30:00 AM 6.95 44.51 0.023 5.63 5.94 11.26
3/29/2021 3:45:00 AM 6.87 44.366 0.022 5.64 5.92 11.27
3/29/2021 4:00:00 AM 6.82 44.276 0.022 5.63 6.05 11.3
3/29/2021 4:15:00 AM 6.76 44.168 0.023 5.63 6.17 11.32
3/29/2021 4:30:00 AM 6.7 44.06 0.023 5.61 6.37 11.34
3/29/2021 4:45:00 AM 6.66 43.988 0.023 5.63 5.89 11.36
3/29/2021 5:00:00 AM 6.6 43.88 0.023 5.62 6 11.37
3/29/2021 5:15:00 AM 6.54 43.772 0.022 5.62 6.01 11.4
3/29/2021 5:30:00 AM 6.48 43.664 0.023 5.61 5.93 11.42
3/29/2021 5:45:00 AM 6.42 43.556 0.023 5.6 5.89 11.44
3/29/2021 6:00:00 AM 6.36 43.448 0.023 5.61 5.73 11.46
3/29/2021 6:15:00 AM 6.31 43.358 0.023 5.59 6.07 11.48
3/29/2021 6:30:00 AM 6.26 43.268 0.023 5.58 5.83 11.5
3/29/2021 6:45:00 AM 6.2 43.16 0.023 5.57 5.96 11.52
3/29/2021 7:00:00 AM 6.15 43.07 0.023 5.58 5.59 11.54
3/29/2021 7:15:00 AM 6.1 42.98 0.023 5.58 5.67 11.56
3/29/2021 7:30:00 AM 6.06 42.908 0.023 5.58 5.76 11.59
3/29/2021 7:45:00 AM 6.01 42.818 0.023 5.58 5.71 11.62
3/29/2021 8:00:00 AM 5.98 42.764 0.023 5.59 5.64 11.64
3/29/2021 8:15:00 AM 5.95 42.71 0.023 5.58 5.39 11.68
3/29/2021 8:30:00 AM 5.93 42.674 0.023 5.59 5.31 11.7
3/29/2021 8:45:00 AM 5.91 42.638 0.022 5.59 5.52 11.74
3/29/2021 9:00:00 AM 5.89 42.602 0.023 5.59 5.37 11.76
3/29/2021 9:15:00 AM 5.86 42.548 0.023 5.58 5.43 11.78
3/29/2021 9:30:00 AM 5.83 42.494 0.023 5.6 5.35 11.79
3/29/2021 9:45:00 AM 5.79 42.422 0.023 5.57 5.29 11.82
3/29/2021 10:00:00 AM 5.79 42.422 0.022 5.59 5.41 11.85
3/29/2021 10:15:00 AM 5.82 42.476 0.023 5.6 5.23 11.86
3/29/2021 10:30:00 AM 5.88 42.584 0.022 5.6 5.22 11.88
3/29/2021 10:45:00 AM 5.92 42.656 0.023 5.61 5.18 11.89
3/29/2021 11:00:00 AM 5.96 42.728 0.022 5.62 5.33 11.91
3/29/2021 11:15:00 AM 6.05 42.89 0.023 5.62 5.12 11.91
3/29/2021 11:30:00 AM 6.16 43.088 0.022 5.64 5.19 11.9
3/29/2021 11:45:00 AM 6.31 43.358 0.022 5.65 5.19 11.89
3/29/2021 12:00:00 PM 6.51 43.718 0.022 5.65 5.13 11.86
3/29/2021 12:15:00 PM 6.7 44.06 0.023 5.66 4.96 11.83
3/29/2021 12:30:00 PM 6.77 44.186 0.022 5.67 5.01 11.8
3/29/2021 12:45:00 PM 6.82 44.276 0.023 5.66 5 11.78
3/29/2021 1:00:00 PM 6.97 44.546 0.022 5.69 4.93 11.77
3/29/2021 1:15:00 PM 7.18 44.924 0.022 5.7 5.08 11.72
3/29/2021 1:30:00 PM 7.32 45.176 0.023 5.7 4.88 11.68
3/29/2021 1:45:00 PM 7.47 45.446 0.022 5.71 4.98 11.65
3/29/2021 2:00:00 PM 7.61 45.698 0.022 5.7 4.81 11.61
3/29/2021 2:15:00 PM 7.74 45.932 0.023 5.71 4.88 11.57
3/29/2021 2:30:00 PM 7.85 46.13 0.022 5.74 5.03 11.54
3/29/2021 2:45:00 PM 7.92 46.256 0.022 5.74 4.91 11.51
3/29/2021 3:00:00 PM 8 46.4 0.022 5.75 4.88 11.49
3/29/2021 3:15:00 PM 8.07 46.526 0.022 5.73 4.83 11.47
3/29/2021 3:30:00 PM 8.11 46.598 0.022 5.73 4.9 11.45
3/29/2021 3:45:00 PM 8.14 46.652 0.022 5.74 5.03 11.44
3/29/2021 4:00:00 PM 8.15 46.67 0.022 5.76 4.93 11.42
3/29/2021 4:15:00 PM 8.13 46.634 0.022 5.75 4.96 11.41
3/29/2021 4:30:00 PM 8.11 46.598 0.022 5.75 4.91 11.4
3/29/2021 4:45:00 PM 8.06 46.508 0.023 5.73 5 11.41
3/29/2021 5:00:00 PM 7.99 46.382 0.023 5.73 4.79 11.41
3/29/2021 5:15:00 PM 7.92 46.256 0.022 5.74 4.94 11.4
3/29/2021 5:30:00 PM 7.84 46.112 0.022 5.73 4.84 11.42
3/29/2021 5:45:00 PM 7.74 45.932 0.022 5.72 4.88 11.43
3/29/2021 6:00:00 PM 7.65 45.77 0.023 5.69 4.71 11.43
3/29/2021 6:15:00 PM 7.55 45.59 0.022 5.7 4.97 11.45
3/29/2021 6:30:00 PM 7.45 45.41 0.022 5.69 4.91 11.46
3/29/2021 6:45:00 PM 7.35 45.23 0.023 5.7 4.87 11.47
3/29/2021 7:00:00 PM 7.26 45.068 0.022 5.67 4.6 11.46
3/29/2021 7:15:00 PM 7.18 44.924 0.022 5.66 4.82 11.45
3/29/2021 7:30:00 PM 7.13 44.834 0.022 5.67 4.95 11.44
3/29/2021 7:45:00 PM 7.08 44.744 0.022 5.66 4.81 11.43
3/29/2021 8:00:00 PM 7.04 44.672 0.022 5.67 4.9 11.43
3/29/2021 8:15:00 PM 6.99 44.582 0.022 5.65 4.8 11.43
3/29/2021 8:30:00 PM 6.95 44.51 0.022 5.66 4.95 11.44
3/29/2021 8:45:00 PM 6.91 44.438 0.022 5.65 4.98 11.43
3/29/2021 9:00:00 PM 6.87 44.366 0.022 5.65 4.93 11.45
3/29/2021 9:15:00 PM 6.82 44.276 0.023 5.64 5.1 11.46
3/29/2021 9:30:00 PM 6.77 44.186 0.023 5.64 5.04 11.47
3/29/2021 9:45:00 PM 6.73 44.114 0.023 5.63 4.83 11.48
3/29/2021 10:00:00 PM 6.68 44.024 0.023 5.62 4.82 11.49
3/29/2021 10:15:00 PM 6.63 43.934 0.023 5.62 4.91 11.51
3/29/2021 10:30:00 PM 6.58 43.844 0.023 5.61 4.94 11.52
3/29/2021 10:45:00 PM 6.53 43.754 0.022 5.62 4.86 11.53
3/29/2021 11:00:00 PM 6.48 43.664 0.023 5.62 5.21 11.55
3/29/2021 11:15:00 PM 6.43 43.574 0.022 5.61 4.88 11.57
3/29/2021 11:30:00 PM 6.37 43.466 0.022 5.6 4.81 11.58
3/29/2021 11:45:00 PM 6.32 43.376 0.023 5.59 5.07 11.6
3/30/2021 12:00:00 AM 6.25 43.25 0.022 5.59 5 11.62
3/30/2021 12:15:00 AM 6.19 43.142 0.023 5.58 4.94 11.64
3/30/2021 12:30:00 AM 6.12 43.016 0.022 5.58 4.99 11.67
3/30/2021 12:45:00 AM 6.05 42.89 0.023 5.59 4.84 11.69
3/30/2021 1:00:00 AM 5.98 42.764 0.023 5.58 5 11.71
3/30/2021 1:15:00 AM 5.91 42.638 0.022 5.58 4.91 11.73
3/30/2021 1:30:00 AM 5.84 42.512 0.023 5.57 5.24 11.75
3/30/2021 1:45:00 AM 5.76 42.368 0.023 5.55 4.82 11.77
3/30/2021 2:00:00 AM 5.69 42.242 0.023 5.57 4.87 11.79
3/30/2021 2:15:00 AM 5.62 42.116 0.023 5.57 4.81 11.82
3/30/2021 2:30:00 AM 5.54 41.972 0.023 5.55 4.8 11.84
3/30/2021 2:45:00 AM 5.47 41.846 0.023 5.57 4.83 11.88
3/30/2021 3:00:00 AM 5.4 41.72 0.023 5.55 4.86 11.9
3/30/2021 3:15:00 AM 5.33 41.594 0.023 5.55 5.01 11.91
3/30/2021 3:30:00 AM 5.26 41.468 0.023 5.54 4.9 11.94
3/30/2021 3:45:00 AM 5.19 41.342 0.023 5.53 4.97 11.96
3/30/2021 4:00:00 AM 5.12 41.216 0.023 5.53 4.88 11.98
3/30/2021 4:15:00 AM 5.05 41.09 0.023 5.54 4.9 12
3/30/2021 4:30:00 AM 4.99 40.982 0.023 5.54 4.88 12.03
3/30/2021 4:45:00 AM 4.92 40.856 0.023 5.52 5.08 12.05
3/30/2021 5:00:00 AM 4.86 40.748 0.023 5.51 4.86 12.07
3/30/2021 5:15:00 AM 4.79 40.622 0.023 5.53 4.78 12.09
3/30/2021 5:30:00 AM 4.73 40.514 0.023 5.52 4.88 12.11
3/30/2021 5:45:00 AM 4.67 40.406 0.023 5.51 4.87 12.13
3/30/2021 6:00:00 AM 4.61 40.298 0.023 5.51 4.76 12.16
3/30/2021 6:15:00 AM 4.55 40.19 0.023 5.49 4.8 12.18
3/30/2021 6:30:00 AM 4.49 40.082 0.023 5.5 4.88 12.2
3/30/2021 6:45:00 AM 4.44 39.992 0.023 5.5 4.96 12.22
3/30/2021 7:00:00 AM 4.38 39.884 0.023 5.51 4.96 12.24
3/30/2021 7:15:00 AM 4.33 39.794 0.022 5.49 4.86 12.27
3/30/2021 7:30:00 AM 4.29 39.722 0.023 5.49 4.82 12.29
3/30/2021 7:45:00 AM 4.25 39.65 0.023 5.48 4.84 12.33
3/30/2021 8:00:00 AM 4.23 39.614 0.023 5.51 4.58 12.36
3/30/2021 8:15:00 AM 4.22 39.596 0.023 5.5 4.74 12.38
3/30/2021 8:30:00 AM 4.23 39.614 0.023 5.51 4.8 12.41
3/30/2021 8:45:00 AM 4.27 39.686 0.023 5.52 4.76 12.43
3/30/2021 9:00:00 AM 4.33 39.794 0.023 5.51 4.76 12.44
3/30/2021 9:15:00 AM 4.41 39.938 0.023 5.53 4.58 12.44
3/30/2021 9:30:00 AM 4.51 40.118 0.023 5.56 4.65 12.44
3/30/2021 9:45:00 AM 4.63 40.334 0.023 5.55 4.74 12.43
3/30/2021 10:00:00 AM 4.77 40.586 0.023 5.58 4.58 12.41
3/30/2021 10:15:00 AM 4.93 40.874 0.023 5.58 4.79 12.39
3/30/2021 10:30:00 AM 5.11 41.198 0.024 5.59 4.7 12.35
3/30/2021 10:45:00 AM 5.29 41.522 0.023 5.61 4.63 12.32
3/30/2021 11:00:00 AM 5.49 41.882 0.023 5.61 4.55 12.28
3/30/2021 11:15:00 AM 5.7 42.26 0.023 5.63 4.65 12.24
3/30/2021 11:30:00 AM 5.91 42.638 0.024 5.64 4.66 12.19
3/30/2021 11:45:00 AM 6.13 43.034 0.023 5.65 4.43 12.15
3/30/2021 12:00:00 PM 6.35 43.43 0.023 5.66 4.59 12.09
3/30/2021 12:15:00 PM 6.58 43.844 0.023 5.67 4.61 12.03
3/30/2021 12:30:00 PM 6.83 44.294 0.023 5.71 4.6 11.97
3/30/2021 12:45:00 PM 7.04 44.672 0.023 5.71 4.55 11.91
3/30/2021 1:00:00 PM 7.28 45.104 0.023 5.74 4.57 11.85
3/30/2021 1:15:00 PM 7.5 45.5 0.023 5.75 4.53 11.78
3/30/2021 1:30:00 PM 7.73 45.914 0.023 5.77 4.55 11.71
3/30/2021 1:45:00 PM 7.93 46.274 0.023 5.77 4.56 11.66
3/30/2021 2:00:00 PM 8.14 46.652 0.023 5.79 4.57 11.6
3/30/2021 2:15:00 PM 8.3 46.94 0.023 5.79 4.6 11.54
3/30/2021 2:30:00 PM 8.46 47.228 0.023 5.83 4.61 11.5
3/30/2021 2:45:00 PM 8.59 47.462 0.023 5.8 4.5 11.45
3/30/2021 3:00:00 PM 8.72 47.696 0.023 5.83 4.45 11.41
3/30/2021 3:15:00 PM 8.82 47.876 0.023 5.82 4.54 11.37
3/30/2021 3:30:00 PM 8.91 48.038 0.023 5.84 4.61 11.33
3/30/2021 3:45:00 PM 8.98 48.164 0.023 5.85 4.63 11.31
3/30/2021 4:00:00 PM 9.03 48.254 0.023 5.86 4.62 11.28
3/30/2021 4:15:00 PM 9.06 48.308 0.023 5.85 4.55 11.26
3/30/2021 4:30:00 PM 9.07 48.326 0.022 5.85 4.53 11.24
3/30/2021 4:45:00 PM 9.05 48.29 0.023 5.84 4.47 11.23
3/30/2021 5:00:00 PM 9.02 48.236 0.023 5.84 4.66 11.2
3/30/2021 5:15:00 PM 8.96 48.128 0.023 5.82 4.71 11.2
3/30/2021 5:30:00 PM 8.87 47.966 0.023 5.84 4.63 11.2
3/30/2021 5:45:00 PM 8.79 47.822 0.023 5.83 4.52 11.21
3/30/2021 6:00:00 PM 8.72 47.696 0.023 5.83 4.69 11.2
3/30/2021 6:15:00 PM 8.64 47.552 0.023 5.85 4.92 11.2
3/30/2021 6:30:00 PM 8.55 47.39 0.023 5.81 4.96 11.2
3/30/2021 6:45:00 PM 8.46 47.228 0.023 5.82 4.96 11.2
3/30/2021 7:00:00 PM 8.38 47.084 0.023 5.8 4.81 11.19
3/30/2021 7:15:00 PM 8.28 46.904 0.023 5.77 4.65 11.18
3/30/2021 7:30:00 PM 8.21 46.778 0.023 5.78 4.63 11.16
3/30/2021 7:45:00 PM 8.14 46.652 0.023 5.8 4.78 11.15
3/30/2021 8:00:00 PM 8.09 46.562 0.023 5.79 4.6 11.14
3/30/2021 8:15:00 PM 8.04 46.472 0.023 5.77 4.6 11.13
3/30/2021 8:30:00 PM 8 46.4 0.023 5.76 4.66 11.13
3/30/2021 8:45:00 PM 7.97 46.346 0.023 5.76 4.65 11.12
3/30/2021 9:00:00 PM 7.93 46.274 0.024 5.77 4.75 11.13
3/30/2021 9:15:00 PM 7.91 46.238 0.023 5.77 4.64 11.12
3/30/2021 9:30:00 PM 7.88 46.184 0.023 5.76 4.77 11.13
3/30/2021 9:45:00 PM 7.86 46.148 0.023 5.77 5 11.14
3/30/2021 10:00:00 PM 7.83 46.094 0.023 5.76 4.67 11.14
3/30/2021 10:15:00 PM 7.82 46.076 0.023 5.74 4.77 11.15
3/30/2021 10:30:00 PM 7.8 46.04 0.023 5.75 4.89 11.15
3/30/2021 10:45:00 PM 7.78 46.004 0.023 5.75 4.57 11.15
3/30/2021 11:00:00 PM 7.77 45.986 0.024 5.74 4.69 11.15
3/30/2021 11:15:00 PM 7.76 45.968 0.023 5.74 4.75 11.16
3/30/2021 11:30:00 PM 7.75 45.95 0.023 5.76 4.6 11.16
3/30/2021 11:45:00 PM 7.74 45.932 0.024 5.75 4.64 11.16
3/31/2021 12:00:00 AM 7.74 45.932 0.023 5.74 4.82 11.16
3/31/2021 12:15:00 AM 7.73 45.914 0.024 5.75 4.62 11.16
3/31/2021 12:30:00 AM 7.73 45.914 0.024 5.76 4.71 11.16
3/31/2021 12:45:00 AM 7.71 45.878 0.024 5.74 4.63 11.16
3/31/2021 1:00:00 AM 7.7 45.86 0.024 5.73 4.49 11.18
3/31/2021 1:15:00 AM 7.68 45.824 0.023 5.73 4.61 11.18
3/31/2021 1:30:00 AM 7.67 45.806 0.023 5.74 4.5 11.18
3/31/2021 1:45:00 AM 7.65 45.77 0.023 5.74 4.61 11.18
3/31/2021 2:00:00 AM 7.63 45.734 0.023 5.74 4.64 11.19
3/31/2021 2:15:00 AM 7.61 45.698 0.023 5.72 4.6 11.2
3/31/2021 2:30:00 AM 7.58 45.644 0.023 5.72 4.54 11.19
3/31/2021 2:45:00 AM 7.55 45.59 0.023 5.73 4.64 11.2
3/31/2021 3:00:00 AM 7.52 45.536 0.024 5.71 4.64 11.21
3/31/2021 3:15:00 AM 7.5 45.5 0.023 5.72 4.42 11.22
3/31/2021 3:30:00 AM 7.48 45.464 0.024 5.71 4.5 11.23
3/31/2021 3:45:00 AM 7.45 45.41 0.023 5.72 4.53 11.22
3/31/2021 4:00:00 AM 7.44 45.392 0.023 5.72 4.64 11.24
3/31/2021 4:15:00 AM 7.41 45.338 0.024 5.72 4.54 11.23
3/31/2021 4:30:00 AM 7.39 45.302 0.023 5.73 4.53 11.24
3/31/2021 4:45:00 AM 7.37 45.266 0.023 5.71 4.53 11.25
3/31/2021 5:00:00 AM 7.34 45.212 0.023 5.71 4.54 11.26
3/31/2021 5:15:00 AM 7.31 45.158 0.024 5.72 4.63 11.26
3/31/2021 5:30:00 AM 7.28 45.104 0.023 5.72 4.52 11.27
3/31/2021 5:45:00 AM 7.26 45.068 0.024 5.72 4.61 11.28
3/31/2021 6:00:00 AM 7.24 45.032 0.023 5.71 4.61 11.29
3/31/2021 6:15:00 AM 7.23 45.014 0.023 5.71 4.68 11.29
3/31/2021 6:30:00 AM 7.21 44.978 0.024 5.72 4.62 11.3
3/31/2021 6:45:00 AM 7.2 44.96 0.024 5.7 4.4 11.3
3/31/2021 7:00:00 AM 7.19 44.942 0.023 5.73 4.58 11.31
3/31/2021 7:15:00 AM 7.19 44.942 0.023 5.71 4.73 11.32
3/31/2021 7:30:00 AM 7.18 44.924 0.023 5.71 4.56 11.33
3/31/2021 7:45:00 AM 7.19 44.942 0.023 5.73 4.54 11.35
3/31/2021 8:00:00 AM 7.2 44.96 0.023 5.73 4.66 11.38
3/31/2021 8:15:00 AM 7.21 44.978 0.024 5.74 4.53 11.39
3/31/2021 8:30:00 AM 7.24 45.032 0.024 5.76 4.58 11.41
3/31/2021 8:45:00 AM 7.28 45.104 0.025 5.76 4.39 11.43
3/31/2021 9:00:00 AM 7.33 45.194 0.024 5.77 4.55 11.45
3/31/2021 9:15:00 AM 7.38 45.284 0.024 5.8 4.46 11.46
3/31/2021 9:30:00 AM 7.44 45.392 0.024 5.78 4.33 11.47
3/31/2021 9:45:00 AM 7.49 45.482 0.024 5.79 4.52 11.46
3/31/2021 10:00:00 AM 7.56 45.608 0.023 5.81 4.4 11.47
3/31/2021 10:15:00 AM 7.65 45.77 0.024 5.8 4.58 11.46
3/31/2021 10:30:00 AM 7.73 45.914 0.024 5.82 4.44 11.45
3/31/2021 10:45:00 AM 7.79 46.022 0.024 5.83 4.52 11.43
3/31/2021 11:00:00 AM 7.84 46.112 0.024 5.82 4.62 11.42
3/31/2021 11:15:00 AM 7.87 46.166 0.023 5.82 4.48 11.41
3/31/2021 11:30:00 AM 7.89 46.202 0.023 5.83 4.59 11.4
3/31/2021 11:45:00 AM 7.92 46.256 0.023 5.83 4.5 11.39
3/31/2021 12:00:00 PM 7.95 46.31 0.023 5.81 4.47 11.36
3/31/2021 12:15:00 PM 7.99 46.382 0.024 5.83 4.45 11.36
3/31/2021 12:30:00 PM 8.02 46.436 0.024 5.84 4.44 11.35
3/31/2021 12:45:00 PM 8.04 46.472 0.024 5.85 4.43 11.33
3/31/2021 1:00:00 PM 8.08 46.544 0.023 5.83 4.66 11.32
3/31/2021 1:15:00 PM 8.14 46.652 0.024 5.85 4.56 11.31
3/31/2021 1:30:00 PM 8.21 46.778 0.023 5.86 4.63 11.31
3/31/2021 1:45:00 PM 8.26 46.868 0.024 5.88 4.51 11.28
3/31/2021 2:00:00 PM 8.28 46.904 0.024 5.86 4.48 11.26
3/31/2021 2:15:00 PM 8.29 46.922 0.023 5.86 4.42 11.24
3/31/2021 2:30:00 PM 8.29 46.922 0.024 5.85 4.62 11.23
3/31/2021 2:45:00 PM 8.3 46.94 0.024 5.86 4.49 11.23
3/31/2021 3:00:00 PM 8.31 46.958 0.024 5.87 4.66 11.21
3/31/2021 3:15:00 PM 8.31 46.958 0.024 5.86 4.39 11.18
3/31/2021 3:30:00 PM 8.31 46.958 0.023 5.87 4.44 11.19
3/31/2021 3:45:00 PM 8.29 46.922 0.024 5.84 4.4 11.17
3/31/2021 4:00:00 PM 8.27 46.886 0.024 5.84 4.54 11.16
3/31/2021 4:15:00 PM 8.26 46.868 0.024 5.85 4.47 11.15
3/31/2021 4:30:00 PM 8.25 46.85 0.024 5.83 4.6 11.14
3/31/2021 4:45:00 PM 8.25 46.85 0.023 5.84 4.63 11.12
3/31/2021 5:00:00 PM 8.25 46.85 0.024 5.84 4.51 11.13
3/31/2021 5:15:00 PM 8.25 46.85 0.024 5.85 4.78 11.12
3/31/2021 5:30:00 PM 8.26 46.868 0.024 5.85 4.65 11.13
3/31/2021 5:45:00 PM 8.26 46.868 0.024 5.85 4.66 11.13
3/31/2021 6:00:00 PM 8.24 46.832 0.024 5.84 4.63 11.13
3/31/2021 6:15:00 PM 8.23 46.814 0.024 5.84 4.69 11.11
3/31/2021 6:30:00 PM 8.22 46.796 0.023 5.83 4.66 11.09
3/31/2021 6:45:00 PM 8.21 46.778 0.024 5.83 4.59 11.08
3/31/2021 7:00:00 PM 8.21 46.778 0.024 5.84 4.89 11.07
3/31/2021 7:15:00 PM 8.2 46.76 0.024 5.84 4.74 11.05
3/31/2021 7:30:00 PM 8.19 46.742 0.024 5.83 4.87 11.04
3/31/2021 7:45:00 PM 8.18 46.724 0.024 5.81 5.14 11.02
3/31/2021 8:00:00 PM 8.17 46.706 0.024 5.8 5.99 11.01
3/31/2021 8:15:00 PM 8.16 46.688 0.024 5.8 5.53 11.01
3/31/2021 8:30:00 PM 8.14 46.652 0.024 5.81 5.18 11.01
3/31/2021 8:45:00 PM 8.12 46.616 0.024 5.81 5.06 11.01
3/31/2021 9:00:00 PM 8.1 46.58 0.024 5.82 5.3 11.01
3/31/2021 9:15:00 PM 8.07 46.526 0.024 5.82 5.13 11.02
3/31/2021 9:30:00 PM 8.03 46.454 0.024 5.81 5.08 11.03
3/31/2021 9:45:00 PM 7.99 46.382 0.024 5.82 5.04 11.04
3/31/2021 10:00:00 PM 7.96 46.328 0.024 5.82 5 11.04
3/31/2021 10:15:00 PM 7.93 46.274 0.024 5.81 5.09 11.06
3/31/2021 10:30:00 PM 7.89 46.202 0.024 5.83 4.79 11.06
3/31/2021 10:45:00 PM 7.85 46.13 0.024 5.82 4.96 11.07
3/31/2021 11:00:00 PM 7.82 46.076 0.024 5.82 5.23 11.08
3/31/2021 11:15:00 PM 7.77 45.986 0.024 5.8 4.88 11.1
3/31/2021 11:30:00 PM 7.73 45.914 0.024 5.8 4.84 11.1
3/31/2021 11:45:00 PM 7.68 45.824 0.024 5.81 4.96 11.12
4/1/2021 12:00:00 AM 7.64 45.752 0.024 5.79 5 11.13
4/1/2021 12:15:00 AM 7.6 45.68 0.024 5.8 4.9 11.13
4/1/2021 12:30:00 AM 7.56 45.608 0.024 5.8 4.9 11.15
4/1/2021 12:45:00 AM 7.51 45.518 0.024 5.8 5.04 11.16
4/1/2021 1:00:00 AM 7.47 45.446 0.024 5.8 5.15 11.18
4/1/2021 1:15:00 AM 7.44 45.392 0.024 5.8 5.18 11.19
4/1/2021 1:30:00 AM 7.4 45.32 0.024 5.8 4.77 11.19
4/1/2021 1:45:00 AM 7.35 45.23 0.024 5.77 4.78 11.2
4/1/2021 2:00:00 AM 7.3 45.14 0.024 5.77 5.02 11.22
4/1/2021 2:15:00 AM 7.25 45.05 0.024 5.75 4.88 11.24
4/1/2021 2:30:00 AM 7.18 44.924 0.024 5.75 4.88 11.25
4/1/2021 2:45:00 AM 7.11 44.798 0.024 5.76 4.93 11.26
4/1/2021 3:00:00 AM 7.03 44.654 0.025 5.76 5.24 11.28
4/1/2021 3:15:00 AM 6.94 44.492 0.024 5.75 4.97 11.29
4/1/2021 3:30:00 AM 6.82 44.276 0.024 5.74 4.85 11.31
4/1/2021 3:45:00 AM 6.72 44.096 0.025 5.75 4.97 11.33
4/1/2021 4:00:00 AM 6.58 43.844 0.025 5.73 5.19 11.35
4/1/2021 4:15:00 AM 6.41 43.538 0.024 5.73 5.1 11.37
4/1/2021 4:30:00 AM 6.26 43.268 0.024 5.73 5.37 11.41
4/1/2021 4:45:00 AM 6.12 43.016 0.024 5.7 5.15 11.44
4/1/2021 5:00:00 AM 5.93 42.674 0.024 5.69 4.85 11.48
4/1/2021 5:15:00 AM 5.75 42.35 0.024 5.7 4.84 11.53
4/1/2021 5:30:00 AM 5.65 42.17 0.024 5.67 5.21 11.58
4/1/2021 5:45:00 AM 5.53 41.954 0.024 5.68 5.13 11.62
4/1/2021 6:00:00 AM 5.37 41.666 0.024 5.68 4.94 11.65
4/1/2021 6:15:00 AM 5.2 41.36 0.024 5.64 4.87 11.7
4/1/2021 6:30:00 AM 5.06 41.108 0.024 5.64 4.99 11.75
4/1/2021 6:45:00 AM 5 41 0.024 5.64 5.05 11.79
4/1/2021 7:00:00 AM 4.99 40.982 0.024 5.64 5 11.82
4/1/2021 7:15:00 AM 4.99 40.982 0.024 5.64 5.23 11.86
4/1/2021 7:30:00 AM 4.97 40.946 0.024 5.65 5.19 11.89
4/1/2021 7:45:00 AM 4.95 40.91 0.025 5.66 5.55 11.93
4/1/2021 8:00:00 AM 4.94 40.892 0.025 5.67 5.54 11.97
4/1/2021 8:15:00 AM 4.94 40.892 0.025 5.66 5.21 12
4/1/2021 8:30:00 AM 4.95 40.91 0.025 5.66 5.3 12.02
4/1/2021 8:45:00 AM 4.96 40.928 0.025 5.69 5.1 12.05
4/1/2021 9:00:00 AM 4.97 40.946 0.026 5.69 5.18 12.07
4/1/2021 9:15:00 AM 4.97 40.946 0.026 5.68 5.45 12.08
4/1/2021 9:30:00 AM 4.99 40.982 0.026 5.69 5.31 12.09
4/1/2021 9:45:00 AM 5.02 41.036 0.026 5.69 5.69 12.11
4/1/2021 10:00:00 AM 5.09 41.162 0.025 5.7 5.4 12.11
4/1/2021 10:15:00 AM 5.19 41.342 0.025 5.7 5.52 12.11
4/1/2021 10:30:00 AM 5.29 41.522 0.025 5.71 5.4 12.1
4/1/2021 10:45:00 AM 5.43 41.774 0.025 5.73 5.26 12.09
4/1/2021 11:00:00 AM 5.58 42.044 0.025 5.72 5.32 12.07
4/1/2021 11:15:00 AM 5.7 42.26 0.024 5.72 5.18 12.04
4/1/2021 11:30:00 AM 5.83 42.494 0.025 5.74 5.02 12.03
4/1/2021 11:45:00 AM 5.97 42.746 0.025 5.73 4.96 12
4/1/2021 12:00:00 PM 6.12 43.016 0.024 5.73 4.9 11.97
4/1/2021 12:15:00 PM 6.23 43.214 0.024 5.77 5.02 11.94
4/1/2021 12:30:00 PM 6.33 43.394 0.024 5.77 4.94 11.91
4/1/2021 12:45:00 PM 6.36 43.448 0.025 5.75 4.84 11.88
4/1/2021 1:00:00 PM 6.43 43.574 0.024 5.76 4.91 11.86
4/1/2021 1:15:00 PM 6.47 43.646 0.024 5.77 4.85 11.84
4/1/2021 1:30:00 PM 6.48 43.664 0.024 5.78 4.77 11.83
4/1/2021 1:45:00 PM 6.53 43.754 0.024 5.77 4.65 11.82
4/1/2021 2:00:00 PM 6.54 43.772 0.024 5.75 4.72 11.82
4/1/2021 2:15:00 PM 6.5 43.7 0.024 5.76 4.77 11.81
4/1/2021 2:30:00 PM 6.48 43.664 0.024 5.74 5 11.82
4/1/2021 2:45:00 PM 6.47 43.646 0.024 5.76 4.69 11.82
4/1/2021 3:00:00 PM 6.46 43.628 0.024 5.76 4.68 11.82
4/1/2021 3:15:00 PM 6.49 43.682 0.024 5.79 4.73 11.83
4/1/2021 3:30:00 PM 6.48 43.664 0.024 5.75 4.69 11.83
4/1/2021 3:45:00 PM 6.42 43.556 0.024 5.78 4.84 11.83
4/1/2021 4:00:00 PM 6.37 43.466 0.024 5.76 4.66 11.84
4/1/2021 4:15:00 PM 6.32 43.376 0.025 5.75 4.89 11.85
4/1/2021 4:30:00 PM 6.28 43.304 0.024 5.74 4.9 11.85
4/1/2021 4:45:00 PM 6.21 43.178 0.024 5.75 5.05 11.86
4/1/2021 5:00:00 PM 6.12 43.016 0.025 5.72 4.87 11.87
4/1/2021 5:15:00 PM 6.07 42.926 0.024 5.73 4.96 11.88
4/1/2021 5:30:00 PM 6.02 42.836 0.024 5.72 5.16 11.89
4/1/2021 5:45:00 PM 5.93 42.674 0.024 5.71 4.68 11.9
4/1/2021 6:00:00 PM 5.8 42.44 0.024 5.72 4.84 11.9
4/1/2021 6:15:00 PM 5.69 42.242 0.024 5.71 4.86 11.93
4/1/2021 6:30:00 PM 5.63 42.134 0.024 5.71 4.85 11.93
4/1/2021 6:45:00 PM 5.54 41.972 0.024 5.69 4.87 11.94
4/1/2021 7:00:00 PM 5.45 41.81 0.025 5.67 4.9 11.95
4/1/2021 7:15:00 PM 5.36 41.648 0.024 5.66 4.8 11.95
4/1/2021 7:30:00 PM 5.29 41.522 0.024 5.67 4.67 11.95
4/1/2021 7:45:00 PM 5.21 41.378 0.025 5.65 4.68 11.95
4/1/2021 8:00:00 PM 5.15 41.27 0.024 5.65 4.68 11.94
4/1/2021 8:15:00 PM 5.09 41.162 0.025 5.64 4.73 11.95
4/1/2021 8:30:00 PM 5.01 41.018 0.024 5.61 4.69 11.97
4/1/2021 8:45:00 PM 4.95 40.91 0.025 5.63 4.65 11.97
4/1/2021 9:00:00 PM 4.88 40.784 0.025 5.64 4.71 11.99
4/1/2021 9:15:00 PM 4.82 40.676 0.024 5.63 4.75 12.01
4/1/2021 9:30:00 PM 4.77 40.586 0.024 5.61 4.73 12.02
4/1/2021 9:45:00 PM 4.71 40.478 0.024 5.61 4.62 12.04
4/1/2021 10:00:00 PM 4.66 40.388 0.024 5.63 5.12 12.06
4/1/2021 10:15:00 PM 4.6 40.28 0.024 5.6 4.82 12.09
4/1/2021 10:30:00 PM 4.55 40.19 0.025 5.6 4.79 12.1
4/1/2021 10:45:00 PM 4.51 40.118 0.025 5.59 4.85 12.11
4/1/2021 11:00:00 PM 4.46 40.028 0.024 5.58 4.87 12.14
4/1/2021 11:15:00 PM 4.43 39.974 0.024 5.6 4.9 12.14
4/1/2021 11:30:00 PM 4.39 39.902 0.024 5.6 4.77 12.15
4/1/2021 11:45:00 PM 4.34 39.812 0.025 5.58 5.02 12.17
4/2/2021 12:00:00 AM 4.29 39.722 0.024 5.57 4.96 12.19
4/2/2021 12:15:00 AM 4.22 39.596 0.024 5.56 4.84 12.2
4/2/2021 12:30:00 AM 4.15 39.47 0.024 5.57 4.71 12.22
4/2/2021 12:45:00 AM 4.09 39.362 0.024 5.58 4.84 12.24
4/2/2021 1:00:00 AM 4.03 39.254 0.024 5.56 4.74 12.27
4/2/2021 1:15:00 AM 3.97 39.146 0.025 5.56 4.73 12.29
4/2/2021 1:30:00 AM 3.88 38.984 0.024 5.56 4.76 12.31
4/2/2021 1:45:00 AM 3.77 38.786 0.025 5.54 4.57 12.33
4/2/2021 2:00:00 AM 3.66 38.588 0.024 5.54 4.73 12.35
4/2/2021 2:15:00 AM 3.58 38.444 0.025 5.54 4.54 12.38
4/2/2021 2:30:00 AM 3.52 38.336 0.024 5.53 4.75 12.41
4/2/2021 2:45:00 AM 3.44 38.192 0.024 5.52 4.51 12.45
4/2/2021 3:00:00 AM 3.35 38.03 0.025 5.52 4.62 12.48
4/2/2021 3:15:00 AM 3.27 37.886 0.024 5.52 4.53 12.52
4/2/2021 3:30:00 AM 3.19 37.742 0.024 5.53 4.52 12.54
4/2/2021 3:45:00 AM 3.11 37.598 0.024 5.5 4.56 12.58
4/2/2021 4:00:00 AM 3.05 37.49 0.024 5.5 4.59 12.6
4/2/2021 4:15:00 AM 2.98 37.364 0.024 5.52 4.53 12.63
4/2/2021 4:30:00 AM 2.91 37.238 0.024 5.5 4.34 12.65
4/2/2021 4:45:00 AM 2.85 37.13 0.024 5.51 4.45 12.68
4/2/2021 5:00:00 AM 2.78 37.004 0.024 5.49 4.36 12.71
4/2/2021 5:15:00 AM 2.73 36.914 0.024 5.5 4.43 12.73
4/2/2021 5:30:00 AM 2.66 36.788 0.024 5.51 4.4 12.75
4/2/2021 5:45:00 AM 2.59 36.662 0.024 5.5 4.4 12.78
4/2/2021 6:00:00 AM 2.52 36.536 0.024 5.5 4.34 12.81
4/2/2021 6:15:00 AM 2.45 36.41 0.024 5.48 4.29 12.84
4/2/2021 6:30:00 AM 2.39 36.302 0.024 5.49 4.44 12.85
4/2/2021 6:45:00 AM 2.34 36.212 0.024 5.47 4.37 12.89
4/2/2021 7:00:00 AM 2.28 36.104 0.024 5.49 4.39 12.91
4/2/2021 7:15:00 AM 2.24 36.032 0.024 5.47 4.41 12.93
4/2/2021 7:30:00 AM 2.2 35.96 0.024 5.47 4.3 12.98
4/2/2021 7:45:00 AM 2.18 35.924 0.024 5.49 4.28 13.01
4/2/2021 8:00:00 AM 2.15 35.87 0.024 5.48 4.4 13.04
4/2/2021 8:15:00 AM 2.14 35.852 0.024 5.5 4.46 13.07
4/2/2021 8:30:00 AM 2.12 35.816 0.024 5.48 4.3 13.09
4/2/2021 8:45:00 AM 2.13 35.834 0.024 5.49 4.33 13.11
4/2/2021 9:00:00 AM 2.16 35.888 0.025 5.5 4.29 13.12
4/2/2021 9:15:00 AM 2.2 35.96 0.024 5.51 4.37 13.14
4/2/2021 9:30:00 AM 2.24 36.032 0.024 5.51 4.48 13.15
4/2/2021 9:45:00 AM 2.32 36.176 0.024 5.5 4.38 13.15
4/2/2021 10:00:00 AM 2.43 36.374 0.024 5.51 4.36 13.14
4/2/2021 10:15:00 AM 2.54 36.572 0.024 5.53 4.35 13.13
4/2/2021 10:30:00 AM 2.65 36.77 0.024 5.52 4.26 13.11
4/2/2021 10:45:00 AM 2.78 37.004 0.024 5.53 4.19 13.09
4/2/2021 11:00:00 AM 2.94 37.292 0.025 5.53 4.21 13.07
4/2/2021 11:15:00 AM 3.1 37.58 0.024 5.56 4.25 13.05
4/2/2021 11:30:00 AM 3.24 37.832 0.024 5.56 4.2 13
4/2/2021 11:45:00 AM 3.41 38.138 0.024 5.56 4.2 12.96
4/2/2021 12:00:00 PM 3.57 38.426 0.024 5.56 4.22 12.92
4/2/2021 12:15:00 PM 3.74 38.732 0.024 5.57 4.25 12.87
4/2/2021 12:30:00 PM 3.9 39.02 0.024 5.58 4.28 12.83
4/2/2021 12:45:00 PM 4.09 39.362 0.024 5.59 4.19 12.78
4/2/2021 1:00:00 PM 4.29 39.722 0.024 5.63 4.16 12.72
4/2/2021 1:15:00 PM 4.49 40.082 0.025 5.62 4.14 12.66
4/2/2021 1:30:00 PM 4.66 40.388 0.024 5.62 4.22 12.61
4/2/2021 1:45:00 PM 4.81 40.658 0.024 5.63 4.24 12.56
4/2/2021 2:00:00 PM 4.94 40.892 0.024 5.65 4.17 12.52
4/2/2021 2:15:00 PM 5.06 41.108 0.024 5.65 4.17 12.47
4/2/2021 2:30:00 PM 5.18 41.324 0.024 5.65 4.19 12.44
4/2/2021 2:45:00 PM 5.25 41.45 0.024 5.65 4.24 12.4
4/2/2021 3:00:00 PM 5.31 41.558 0.024 5.67 4.3 12.38
4/2/2021 3:15:00 PM 5.39 41.702 0.024 5.69 4.2 12.34
4/2/2021 3:30:00 PM 5.44 41.792 0.024 5.67 4.29 12.32
4/2/2021 3:45:00 PM 5.47 41.846 0.024 5.69 4.22 12.31
4/2/2021 4:00:00 PM 5.45 41.81 0.024 5.67 4.25 12.29
4/2/2021 4:15:00 PM 5.44 41.792 0.024 5.67 4.31 12.28
4/2/2021 4:30:00 PM 5.35 41.63 0.024 5.66 4.3 12.27
4/2/2021 4:45:00 PM 5.27 41.486 0.024 5.64 4.15 12.28
4/2/2021 5:00:00 PM 5.19 41.342 0.024 5.66 4.26 12.29
4/2/2021 5:15:00 PM 5.09 41.162 0.024 5.63 4.24 12.3
4/2/2021 5:30:00 PM 4.97 40.946 0.024 5.65 4.2 12.33
4/2/2021 5:45:00 PM 4.84 40.712 0.024 5.62 4.17 12.34
4/2/2021 6:00:00 PM 4.7 40.46 0.024 5.61 4.48 12.37
4/2/2021 6:15:00 PM 4.57 40.226 0.024 5.61 4.27 12.39
4/2/2021 6:30:00 PM 4.41 39.938 0.024 5.6 4.27 12.42
4/2/2021 6:45:00 PM 4.27 39.686 0.024 5.61 4.23 12.44
4/2/2021 7:00:00 PM 4.11 39.398 0.024 5.59 4.28 12.46
4/2/2021 7:15:00 PM 3.99 39.182 0.024 5.58 4.37 12.48
4/2/2021 7:30:00 PM 3.87 38.966 0.024 5.58 4.25 12.48
4/2/2021 7:45:00 PM 3.78 38.804 0.024 5.57 4.31 12.49
4/2/2021 8:00:00 PM 3.68 38.624 0.024 5.55 4.19 12.5
4/2/2021 8:15:00 PM 3.63 38.534 0.024 5.56 4.29 12.5
4/2/2021 8:30:00 PM 3.58 38.444 0.024 5.55 4.21 12.51
4/2/2021 8:45:00 PM 3.53 38.354 0.024 5.56 4.24 12.53
4/2/2021 9:00:00 PM 3.49 38.282 0.024 5.55 4.25 12.53
4/2/2021 9:15:00 PM 3.46 38.228 0.024 5.53 4.2 12.54
4/2/2021 9:30:00 PM 3.42 38.156 0.024 5.56 4.39 12.55
4/2/2021 9:45:00 PM 3.4 38.12 0.024 5.54 4.25 12.56
4/2/2021 10:00:00 PM 3.36 38.048 0.024 5.53 4.25 12.57
4/2/2021 10:15:00 PM 3.33 37.994 0.024 5.53 4.18 12.58
4/2/2021 10:30:00 PM 3.29 37.922 0.024 5.53 4.22 12.59
4/2/2021 10:45:00 PM 3.26 37.868 0.024 5.52 4.19 12.61
4/2/2021 11:00:00 PM 3.23 37.814 0.024 5.53 4.16 12.61
4/2/2021 11:15:00 PM 3.2 37.76 0.024 5.53 4.22 12.62
4/2/2021 11:30:00 PM 3.17 37.706 0.024 5.54 4.23 12.63
4/2/2021 11:45:00 PM 3.13 37.634 0.024 5.52 4.12 12.64
4/3/2021 12:00:00 AM 3.1 37.58 0.024 5.53 4.05 12.65
4/3/2021 12:15:00 AM 3.06 37.508 0.024 5.52 4.16 12.67
4/3/2021 12:30:00 AM 3.02 37.436 0.024 5.52 4.15 12.68
4/3/2021 12:45:00 AM 2.97 37.346 0.024 5.52 4.27 12.7
4/3/2021 1:00:00 AM 2.92 37.256 0.024 5.51 4.36 12.72
4/3/2021 1:15:00 AM 2.87 37.166 0.024 5.49 4.25 12.73
4/3/2021 1:30:00 AM 2.82 37.076 0.024 5.49 4.34 12.75
4/3/2021 1:45:00 AM 2.76 36.968 0.024 5.47 4.3 12.77
4/3/2021 2:00:00 AM 2.69 36.842 0.024 5.48 4.28 12.79
4/3/2021 2:15:00 AM 2.63 36.734 0.024 5.48 4.3 12.82
4/3/2021 2:30:00 AM 2.56 36.608 0.024 5.48 4.14 12.84
4/3/2021 2:45:00 AM 2.49 36.482 0.024 5.47 4.22 12.88
4/3/2021 3:00:00 AM 2.42 36.356 0.024 5.47 4.18 12.89
4/3/2021 3:15:00 AM 2.35 36.23 0.024 5.46 4.2 12.92
4/3/2021 3:30:00 AM 2.27 36.086 0.024 5.47 4.21 12.95
4/3/2021 3:45:00 AM 2.2 35.96 0.024 5.45 4.09 12.98
4/3/2021 4:00:00 AM 2.12 35.816 0.024 5.46 4.15 13.01
4/3/2021 4:15:00 AM 2.06 35.708 0.025 5.44 4.03 13.03
4/3/2021 4:30:00 AM 1.98 35.564 0.024 5.45 4.17 13.07
4/3/2021 4:45:00 AM 1.9 35.42 0.024 5.46 4.21 13.09
4/3/2021 5:00:00 AM 1.82 35.276 0.024 5.43 4.19 13.13
4/3/2021 5:15:00 AM 1.75 35.15 0.024 5.44 4.19 13.16
4/3/2021 5:30:00 AM 1.68 35.024 0.024 5.44 4.27 13.18
4/3/2021 5:45:00 AM 1.61 34.898 0.024 5.44 4.06 13.21
4/3/2021 6:00:00 AM 1.55 34.79 0.025 5.43 4.17 13.24
4/3/2021 6:15:00 AM 1.47 34.646 0.024 5.41 4.12 13.27
4/3/2021 6:30:00 AM 1.41 34.538 0.025 5.42 4.27 13.3
4/3/2021 6:45:00 AM 1.34 34.412 0.024 5.42 4.1 13.34
4/3/2021 7:00:00 AM 1.28 34.304 0.024 5.43 4.11 13.36
4/3/2021 7:15:00 AM 1.22 34.196 0.024 5.42 4.18 13.4
4/3/2021 7:30:00 AM 1.17 34.106 0.024 5.41 4.18 13.44
4/3/2021 7:45:00 AM 1.13 34.034 0.024 5.42 4.18 13.48
4/3/2021 8:00:00 AM 1.1 33.98 0.024 5.44 4.29 13.51
4/3/2021 8:15:00 AM 1.1 33.98 0.025 5.41 4.14 13.54
4/3/2021 8:30:00 AM 1.11 33.998 0.024 5.43 4.12 13.58
4/3/2021 8:45:00 AM 1.15 34.07 0.024 5.44 4.19 13.59
4/3/2021 9:00:00 AM 1.2 34.16 0.024 5.46 4.27 13.59
4/3/2021 9:15:00 AM 1.28 34.304 0.025 5.45 4.31 13.6
4/3/2021 9:30:00 AM 1.38 34.484 0.024 5.44 4.29 13.59
4/3/2021 9:45:00 AM 1.5 34.7 0.024 5.47 4.12 13.58
4/3/2021 10:00:00 AM 1.64 34.952 0.024 5.46 4.21 13.56
4/3/2021 10:15:00 AM 1.81 35.258 0.024 5.47 4.22 13.53
4/3/2021 10:30:00 AM 1.98 35.564 0.024 5.48 4.24 13.49
4/3/2021 10:45:00 AM 2.17 35.906 0.025 5.48 4.19 13.45
4/3/2021 11:00:00 AM 2.38 36.284 0.024 5.51 4.2 13.4
4/3/2021 11:15:00 AM 2.58 36.644 0.024 5.51 4.08 13.35
4/3/2021 11:30:00 AM 2.8 37.04 0.024 5.52 4.06 13.3
4/3/2021 11:45:00 AM 3.01 37.418 0.024 5.54 4.11 13.23
4/3/2021 12:00:00 PM 3.24 37.832 0.024 5.56 4.2 13.18
4/3/2021 12:15:00 PM 3.48 38.264 0.024 5.56 4.09 13.11
4/3/2021 12:30:00 PM 3.71 38.678 0.024 5.56 4.06 13.03
4/3/2021 12:45:00 PM 3.96 39.128 0.024 5.61 4.11 12.96
4/3/2021 1:00:00 PM 4.19 39.542 0.025 5.6 4.08 12.88
4/3/2021 1:15:00 PM 4.42 39.956 0.024 5.63 4.03 12.8
4/3/2021 1:30:00 PM 4.66 40.388 0.024 5.64 4.05 12.74
4/3/2021 1:45:00 PM 4.88 40.784 0.024 5.65 4.1 12.66
4/3/2021 2:00:00 PM 5.09 41.162 0.024 5.65 4.14 12.59
4/3/2021 2:15:00 PM 5.29 41.522 0.024 5.68 4.28 12.53
4/3/2021 2:30:00 PM 5.47 41.846 0.024 5.69 4.07 12.46
4/3/2021 2:45:00 PM 5.58 42.044 0.024 5.68 4.18 12.41
4/3/2021 3:00:00 PM 5.67 42.206 0.024 5.69 4.26 12.37
4/3/2021 3:15:00 PM 5.73 42.314 0.024 5.7 4.38 12.33
4/3/2021 3:30:00 PM 5.76 42.368 0.024 5.73 4.28 12.31
4/3/2021 3:45:00 PM 5.78 42.404 0.023 5.72 4.32 12.29
4/3/2021 4:00:00 PM 5.78 42.404 0.024 5.72 4.28 12.26
4/3/2021 4:15:00 PM 5.75 42.35 0.024 5.72 4.29 12.25
4/3/2021 4:30:00 PM 5.69 42.242 0.024 5.69 4.33 12.24
4/3/2021 4:45:00 PM 5.61 42.098 0.024 5.68 4.49 12.24
4/3/2021 5:00:00 PM 5.5 41.9 0.024 5.68 4.41 12.25
4/3/2021 5:15:00 PM 5.4 41.72 0.024 5.69 4.4 12.26
4/3/2021 5:30:00 PM 5.32 41.576 0.024 5.67 4.35 12.26
4/3/2021 5:45:00 PM 5.28 41.504 0.024 5.68 4.22 12.26
4/3/2021 6:00:00 PM 5.26 41.468 0.024 5.69 4.31 12.27
4/3/2021 6:15:00 PM 5.24 41.432 0.024 5.68 4.2 12.27
4/3/2021 6:30:00 PM 5.2 41.36 0.024 5.69 4.19 12.26
4/3/2021 6:45:00 PM 5.15 41.27 0.024 5.67 4.17 12.26
4/3/2021 7:00:00 PM 5.07 41.126 0.024 5.67 4.19 12.26
4/3/2021 7:15:00 PM 4.97 40.946 0.024 5.66 4.27 12.25
4/3/2021 7:30:00 PM 4.89 40.802 0.024 5.65 4.19 12.23
4/3/2021 7:45:00 PM 4.82 40.676 0.024 5.63 4.19 12.21
4/3/2021 8:00:00 PM 4.76 40.568 0.024 5.63 4.3 12.2
4/3/2021 8:15:00 PM 4.71 40.478 0.024 5.62 4.23 12.2
4/3/2021 8:30:00 PM 4.67 40.406 0.024 5.64 4.2 12.19
4/3/2021 8:45:00 PM 4.64 40.352 0.024 5.63 4.25 12.2
4/3/2021 9:00:00 PM 4.61 40.298 0.024 5.61 4.13 12.2
4/3/2021 9:15:00 PM 4.6 40.28 0.024 5.6 4.34 12.2
4/3/2021 9:30:00 PM 4.58 40.244 0.024 5.61 4.28 12.2
4/3/2021 9:45:00 PM 4.57 40.226 0.024 5.61 4.27 12.2
4/3/2021 10:00:00 PM 4.57 40.226 0.024 5.63 4.25 12.2
4/3/2021 10:15:00 PM 4.57 40.226 0.024 5.61 4.2 12.2
4/3/2021 10:30:00 PM 4.57 40.226 0.024 5.61 4.15 12.2
4/3/2021 10:45:00 PM 4.58 40.244 0.024 5.59 4.27 12.2
4/3/2021 11:00:00 PM 4.59 40.262 0.024 5.61 4.5 12.2
4/3/2021 11:15:00 PM 4.6 40.28 0.024 5.62 4.22 12.2
4/3/2021 11:30:00 PM 4.61 40.298 0.024 5.62 4.29 12.19
4/3/2021 11:45:00 PM 4.62 40.316 0.024 5.62 4.25 12.18
4/4/2021 12:00:00 AM 4.63 40.334 0.024 5.6 4.17 12.18
4/4/2021 12:15:00 AM 4.63 40.334 0.024 5.6 4.29 12.18
4/4/2021 12:30:00 AM 4.64 40.352 0.024 5.62 4.22 12.17
4/4/2021 12:45:00 AM 4.64 40.352 0.024 5.63 4.22 12.17
4/4/2021 1:00:00 AM 4.64 40.352 0.023 5.61 4.21 12.17
4/4/2021 1:15:00 AM 4.63 40.334 0.024 5.6 4.31 12.17
4/4/2021 1:30:00 AM 4.63 40.334 0.024 5.61 4.18 12.17
4/4/2021 1:45:00 AM 4.62 40.316 0.024 5.61 4.25 12.17
4/4/2021 2:00:00 AM 4.61 40.298 0.024 5.6 4.22 12.18
4/4/2021 2:15:00 AM 4.6 40.28 0.024 5.59 4.25 12.17
4/4/2021 2:30:00 AM 4.59 40.262 0.024 5.62 4.22 12.17
4/4/2021 2:45:00 AM 4.57 40.226 0.024 5.62 4.15 12.18
4/4/2021 3:00:00 AM 4.55 40.19 0.024 5.61 4.21 12.18
4/4/2021 3:15:00 AM 4.54 40.172 0.024 5.61 4.19 12.19
4/4/2021 3:30:00 AM 4.52 40.136 0.024 5.59 4.19 12.19
4/4/2021 3:45:00 AM 4.49 40.082 0.024 5.61 4.15 12.19
4/4/2021 4:00:00 AM 4.47 40.046 0.024 5.59 4.21 12.21
4/4/2021 4:15:00 AM 4.45 40.01 0.023 5.6 4.15 12.22
4/4/2021 4:30:00 AM 4.42 39.956 0.024 5.59 4.27 12.21
4/4/2021 4:45:00 AM 4.39 39.902 0.024 5.57 4.16 12.23
4/4/2021 5:00:00 AM 4.37 39.866 0.024 5.57 4.22 12.24
4/4/2021 5:15:00 AM 4.34 39.812 0.023 5.58 4.19 12.24
4/4/2021 5:30:00 AM 4.3 39.74 0.023 5.58 4.24 12.25
4/4/2021 5:45:00 AM 4.26 39.668 0.024 5.58 4.06 12.25
4/4/2021 6:00:00 AM 4.2 39.56 0.024 5.54 4.02 12.27
4/4/2021 6:15:00 AM 4.15 39.47 0.024 5.56 4.17 12.29
4/4/2021 6:30:00 AM 4.12 39.416 0.024 5.54 4.24 12.3
4/4/2021 6:45:00 AM 4.09 39.362 0.024 5.57 4.27 12.31
4/4/2021 7:00:00 AM 4.06 39.308 0.024 5.56 4.1 12.32
4/4/2021 7:15:00 AM 4.04 39.272 0.024 5.56 4.09 12.34
4/4/2021 7:30:00 AM 4.02 39.236 0.024 5.55 4.08 12.37
4/4/2021 7:45:00 AM 4.01 39.218 0.024 5.56 4.14 12.39
4/4/2021 8:00:00 AM 4 39.2 0.024 5.56 4.17 12.43
4/4/2021 8:15:00 AM 4 39.2 0.024 5.58 4.07 12.45
4/4/2021 8:30:00 AM 4.01 39.218 0.024 5.57 4.09 12.48
4/4/2021 8:45:00 AM 4.05 39.29 0.024 5.59 4.2 12.5
4/4/2021 9:00:00 AM 4.1 39.38 0.024 5.59 4.15 12.5
4/4/2021 9:15:00 AM 4.17 39.506 0.024 5.61 4.09 12.5
4/4/2021 9:30:00 AM 4.25 39.65 0.024 5.62 4.1 12.5
4/4/2021 9:45:00 AM 4.36 39.848 0.024 5.63 4.19 12.49
4/4/2021 10:00:00 AM 4.48 40.064 0.024 5.64 4.17 12.48
4/4/2021 10:15:00 AM 4.64 40.352 0.024 5.65 4.25 12.45
4/4/2021 10:30:00 AM 4.81 40.658 0.024 5.68 4.09 12.41
4/4/2021 10:45:00 AM 5.01 41.018 0.024 5.68 4.05 12.39
4/4/2021 11:00:00 AM 5.19 41.342 0.024 5.7 4.14 12.35
4/4/2021 11:15:00 AM 5.41 41.738 0.024 5.7 4.35 12.3
4/4/2021 11:30:00 AM 5.63 42.134 0.024 5.71 4.07 12.26
4/4/2021 11:45:00 AM 5.85 42.53 0.023 5.74 4.05 12.21
4/4/2021 12:00:00 PM 6.07 42.926 0.024 5.75 4.05 12.15
4/4/2021 12:15:00 PM 6.29 43.322 0.024 5.76 3.99 12.09
4/4/2021 12:30:00 PM 6.53 43.754 0.024 5.77 3.96 12.04
4/4/2021 12:45:00 PM 6.75 44.15 0.024 5.79 4.04 11.97
4/4/2021 1:00:00 PM 7 44.6 0.023 5.82 4.08 11.91
4/4/2021 1:15:00 PM 7.21 44.978 0.023 5.83 3.95 11.84
4/4/2021 1:30:00 PM 7.45 45.41 0.024 5.82 4.15 11.78
4/4/2021 1:45:00 PM 7.68 45.824 0.024 5.86 3.96 11.72
4/4/2021 2:00:00 PM 7.83 46.094 0.023 5.86 3.97 11.66
4/4/2021 2:15:00 PM 7.95 46.31 0.024 5.86 3.97 11.6
4/4/2021 2:30:00 PM 8.1 46.58 0.024 5.89 4.08 11.56
4/4/2021 2:45:00 PM 8.17 46.706 0.023 5.89 4.04 11.53
4/4/2021 3:00:00 PM 8.25 46.85 0.023 5.89 3.99 11.5
4/4/2021 3:15:00 PM 8.33 46.994 0.024 5.91 3.98 11.47
4/4/2021 3:30:00 PM 8.43 47.174 0.023 5.92 3.95 11.46
4/4/2021 3:45:00 PM 8.46 47.228 0.023 5.91 4.09 11.43
4/4/2021 4:00:00 PM 8.44 47.192 0.023 5.92 4.04 11.41
4/4/2021 4:15:00 PM 8.44 47.192 0.024 5.91 4.1 11.4
4/4/2021 4:30:00 PM 8.44 47.192 0.023 5.92 4.1 11.38
4/4/2021 4:45:00 PM 8.43 47.174 0.023 5.94 4.09 11.37
4/4/2021 5:00:00 PM 8.38 47.084 0.024 5.93 4.07 11.36
4/4/2021 5:15:00 PM 8.32 46.976 0.023 5.9 4.24 11.36
4/4/2021 5:30:00 PM 8.23 46.814 0.023 5.89 4.13 11.36
4/4/2021 5:45:00 PM 8.12 46.616 0.023 5.9 4.26 11.37
4/4/2021 6:00:00 PM 8.01 46.418 0.024 5.87 4.27 11.38
4/4/2021 6:15:00 PM 7.9 46.22 0.023 5.86 4.33 11.39
4/4/2021 6:30:00 PM 7.78 46.004 0.023 5.87 4.37 11.4
4/4/2021 6:45:00 PM 7.66 45.788 0.024 5.86 4.43 11.41
4/4/2021 7:00:00 PM 7.53 45.554 0.023 5.86 4.4 11.41
4/4/2021 7:15:00 PM 7.41 45.338 0.023 5.84 4.5 11.41
4/4/2021 7:30:00 PM 7.3 45.14 0.023 5.84 4.52 11.4
4/4/2021 7:45:00 PM 7.2 44.96 0.023 5.84 4.41 11.39
4/4/2021 8:00:00 PM 7.12 44.816 0.023 5.8 4.4 11.4
4/4/2021 8:15:00 PM 7.04 44.672 0.023 5.8 4.5 11.39
4/4/2021 8:30:00 PM 6.98 44.564 0.023 5.8 4.32 11.4
4/4/2021 8:45:00 PM 6.92 44.456 0.023 5.8 4.51 11.39
4/4/2021 9:00:00 PM 6.87 44.366 0.024 5.8 4.36 11.4
4/4/2021 9:15:00 PM 6.83 44.294 0.023 5.8 4.52 11.41
4/4/2021 9:30:00 PM 6.79 44.222 0.024 5.78 4.43 11.42
4/4/2021 9:45:00 PM 6.74 44.132 0.024 5.76 4.57 11.43
4/4/2021 10:00:00 PM 6.71 44.078 0.024 5.77 4.44 11.43
4/4/2021 10:15:00 PM 6.67 44.006 0.024 5.77 4.42 11.44
4/4/2021 10:30:00 PM 6.63 43.934 0.024 5.76 4.72 11.45
4/4/2021 10:45:00 PM 6.59 43.862 0.023 5.75 4.44 11.46
4/4/2021 11:00:00 PM 6.55 43.79 0.024 5.75 4.64 11.47
4/4/2021 11:15:00 PM 6.51 43.718 0.024 5.75 4.46 11.48
4/4/2021 11:30:00 PM 6.47 43.646 0.024 5.74 4.58 11.5
4/4/2021 11:45:00 PM 6.42 43.556 0.024 5.73 4.44 11.5
4/5/2021 12:00:00 AM 6.38 43.484 0.024 5.74 4.53 11.51
4/5/2021 12:15:00 AM 6.32 43.376 0.024 5.74 4.76 11.53
4/5/2021 12:30:00 AM 6.27 43.286 0.024 5.74 4.3 11.53
4/5/2021 12:45:00 AM 6.22 43.196 0.024 5.74 4.14 11.56
4/5/2021 1:00:00 AM 6.17 43.106 0.024 5.72 4.18 11.57
4/5/2021 1:15:00 AM 6.11 42.998 0.024 5.72 4.14 11.59
4/5/2021 1:30:00 AM 6.05 42.89 0.024 5.72 4.21 11.61
4/5/2021 1:45:00 AM 5.99 42.782 0.024 5.72 4.31 11.61
4/5/2021 2:00:00 AM 5.93 42.674 0.024 5.71 4.28 11.64
4/5/2021 2:15:00 AM 5.86 42.548 0.024 5.7 4.29 11.66
4/5/2021 2:30:00 AM 5.8 42.44 0.024 5.7 4.22 11.67
4/5/2021 2:45:00 AM 5.73 42.314 0.024 5.71 4.29 11.69
4/5/2021 3:00:00 AM 5.67 42.206 0.024 5.7 4.33 11.72
4/5/2021 3:15:00 AM 5.6 42.08 0.024 5.72 4.09 11.73
4/5/2021 3:30:00 AM 5.53 41.954 0.024 5.7 4.24 11.75
4/5/2021 3:45:00 AM 5.46 41.828 0.024 5.7 4.09 11.78
4/5/2021 4:00:00 AM 5.39 41.702 0.024 5.68 4.22 11.8
4/5/2021 4:15:00 AM 5.32 41.576 0.024 5.68 4.26 11.83
4/5/2021 4:30:00 AM 5.25 41.45 0.024 5.66 4.21 11.84
4/5/2021 4:45:00 AM 5.18 41.324 0.024 5.67 4.15 11.87
4/5/2021 5:00:00 AM 5.11 41.198 0.024 5.66 4.21 11.88
4/5/2021 5:15:00 AM 5.03 41.054 0.024 5.66 4.3 11.91
4/5/2021 5:30:00 AM 4.96 40.928 0.024 5.65 4.08 11.94
4/5/2021 5:45:00 AM 4.89 40.802 0.025 5.64 4.19 11.97
4/5/2021 6:00:00 AM 4.82 40.676 0.024 5.64 4.17 11.99
4/5/2021 6:15:00 AM 4.74 40.532 0.024 5.63 4.24 12.01
4/5/2021 6:30:00 AM 4.67 40.406 0.024 5.64 4.15 12.03
4/5/2021 6:45:00 AM 4.6 40.28 0.024 5.63 4.06 12.06
4/5/2021 7:00:00 AM 4.54 40.172 0.024 5.63 4.16 12.1
4/5/2021 7:15:00 AM 4.49 40.082 0.024 5.62 4.11 12.13
4/5/2021 7:30:00 AM 4.44 39.992 0.024 5.63 4.18 12.16
4/5/2021 7:45:00 AM 4.4 39.92 0.024 5.64 4.17 12.21
4/5/2021 8:00:00 AM 4.38 39.884 0.024 5.64 4.15 12.24
4/5/2021 8:15:00 AM 4.39 39.902 0.024 5.65 4.12 12.27
4/5/2021 8:30:00 AM 4.42 39.956 0.024 5.65 4.08 12.3
4/5/2021 8:45:00 AM 4.48 40.064 0.024 5.64 4.13 12.32
4/5/2021 9:00:00 AM 4.54 40.172 0.024 5.67 4.06 12.33
4/5/2021 9:15:00 AM 4.63 40.334 0.024 5.69 4.19 12.33
4/5/2021 9:30:00 AM 4.74 40.532 0.024 5.7 4.07 12.33
4/5/2021 9:45:00 AM 4.87 40.766 0.024 5.71 3.96 12.31
4/5/2021 10:00:00 AM 5.03 41.054 0.024 5.71 4.1 12.3
4/5/2021 10:15:00 AM 5.18 41.324 0.024 5.73 3.98 12.27
4/5/2021 10:30:00 AM 5.38 41.684 0.024 5.74 4.06 12.24
4/5/2021 10:45:00 AM 5.57 42.026 0.024 5.75 3.98 12.2
4/5/2021 11:00:00 AM 5.79 42.422 0.024 5.78 4.12 12.16
4/5/2021 11:15:00 AM 6 42.8 0.024 5.79 3.99 12.11
4/5/2021 11:30:00 AM 6.22 43.196 0.024 5.79 3.96 12.06
4/5/2021 11:45:00 AM 6.45 43.61 0.024 5.81 4.07 12.01
4/5/2021 12:00:00 PM 6.7 44.06 0.023 5.84 3.98 11.96
4/5/2021 12:15:00 PM 6.93 44.474 0.024 5.85 3.87 11.9
4/5/2021 12:30:00 PM 7.15 44.87 0.024 5.85 4 11.84
4/5/2021 12:45:00 PM 7.4 45.32 0.024 5.87 3.98 11.77
4/5/2021 1:00:00 PM 7.65 45.77 0.024 5.9 4.01 11.71
4/5/2021 1:15:00 PM 7.87 46.166 0.023 5.93 3.94 11.64
4/5/2021 1:30:00 PM 8.12 46.616 0.024 5.94 3.97 11.58
4/5/2021 1:45:00 PM 8.33 46.994 0.024 5.95 3.88 11.51
4/5/2021 2:00:00 PM 8.53 47.354 0.024 5.98 3.83 11.45
4/5/2021 2:15:00 PM 8.7 47.66 0.024 5.97 3.89 11.4
4/5/2021 2:30:00 PM 8.88 47.984 0.023 6 4.02 11.35
4/5/2021 2:45:00 PM 9.02 48.236 0.024 6 3.93 11.3
4/5/2021 3:00:00 PM 9.14 48.452 0.024 6.01 3.96 11.27
4/5/2021 3:15:00 PM 9.24 48.632 0.023 6.03 3.94 11.23
4/5/2021 3:30:00 PM 9.33 48.794 0.023 6.05 4 11.2
4/5/2021 3:45:00 PM 9.39 48.902 0.023 6.05 4.03 11.17
4/5/2021 4:00:00 PM 9.41 48.938 0.023 6.05 3.89 11.15
4/5/2021 4:15:00 PM 9.41 48.938 0.023 6.03 4.01 11.13
4/5/2021 4:30:00 PM 9.39 48.902 0.023 6.04 3.98 11.12
4/5/2021 4:45:00 PM 9.34 48.812 0.023 6.04 3.92 11.11
4/5/2021 5:00:00 PM 9.26 48.668 0.023 6.03 4.03 11.12
4/5/2021 5:15:00 PM 9.14 48.452 0.023 6.04 4.02 11.11
4/5/2021 5:30:00 PM 9 48.2 0.024 6 4.07 11.13
4/5/2021 5:45:00 PM 8.86 47.948 0.024 5.99 3.96 11.12
4/5/2021 6:00:00 PM 8.73 47.714 0.023 5.98 4.07 11.15
4/5/2021 6:15:00 PM 8.6 47.48 0.024 5.97 4.15 11.15
4/5/2021 6:30:00 PM 8.48 47.264 0.024 5.99 4.04 11.16
4/5/2021 6:45:00 PM 8.37 47.066 0.024 5.96 4.3 11.16
4/5/2021 7:00:00 PM 8.27 46.886 0.024 5.96 4.19 11.17
4/5/2021 7:15:00 PM 8.18 46.724 0.024 5.96 4.08 11.16
4/5/2021 7:30:00 PM 8.09 46.562 0.024 5.96 4.06 11.16
4/5/2021 7:45:00 PM 8 46.4 0.024 5.95 4.15 11.16
4/5/2021 8:00:00 PM 7.94 46.292 0.024 5.94 4.04 11.14
4/5/2021 8:15:00 PM 7.86 46.148 0.024 5.95 4.1 11.13
4/5/2021 8:30:00 PM 7.79 46.022 0.024 5.92 4.06 11.14
4/5/2021 8:45:00 PM 7.74 45.932 0.024 5.89 4.08 11.14
4/5/2021 9:00:00 PM 7.68 45.824 0.024 5.92 4.11 11.14
4/5/2021 9:15:00 PM 7.63 45.734 0.024 5.91 4.19 11.14
4/5/2021 9:30:00 PM 7.58 45.644 0.024 5.9 4.14 11.15
4/5/2021 9:45:00 PM 7.53 45.554 0.024 5.9 4.2 11.16
4/5/2021 10:00:00 PM 7.49 45.482 0.024 5.91 4.11 11.18
4/5/2021 10:15:00 PM 7.45 45.41 0.024 5.89 4.07 11.19
4/5/2021 10:30:00 PM 7.42 45.356 0.024 5.87 4.25 11.2
4/5/2021 10:45:00 PM 7.4 45.32 0.024 5.89 6.41 11.19
4/5/2021 11:00:00 PM 7.37 45.266 0.024 5.89 5.49 11.2
4/5/2021 11:15:00 PM 7.35 45.23 0.025 5.89 4.35 11.2
4/5/2021 11:30:00 PM 7.32 45.176 0.024 5.9 4.21 11.22
4/5/2021 11:45:00 PM 7.3 45.14 0.024 5.9 4.26 11.22
4/6/2021 12:00:00 AM 7.27 45.086 0.024 5.87 4.15 11.22
4/6/2021 12:15:00 AM 7.24 45.032 0.025 5.89 4.31 11.21
4/6/2021 12:30:00 AM 7.23 45.014 0.024 5.89 4.19 11.23
4/6/2021 12:45:00 AM 7.2 44.96 0.024 5.88 4.16 11.23
4/6/2021 1:00:00 AM 7.16 44.888 0.024 5.87 4.27 11.24
4/6/2021 1:15:00 AM 7.12 44.816 0.024 5.88 4.05 11.25
4/6/2021 1:30:00 AM 7.05 44.69 0.024 5.88 4.09 11.26
4/6/2021 1:45:00 AM 6.99 44.582 0.025 5.86 4.22 11.28
4/6/2021 2:00:00 AM 6.92 44.456 0.024 5.85 4.11 11.28
4/6/2021 2:15:00 AM 6.86 44.348 0.024 5.86 4.22 11.31
4/6/2021 2:30:00 AM 6.79 44.222 0.024 5.86 4.17 11.32
4/6/2021 2:45:00 AM 6.72 44.096 0.025 5.84 4.15 11.34
4/6/2021 3:00:00 AM 6.65 43.97 0.025 5.84 4.3 11.36
4/6/2021 3:15:00 AM 6.58 43.844 0.025 5.84 4.19 11.37
4/6/2021 3:30:00 AM 6.51 43.718 0.025 5.82 4.06 11.39
4/6/2021 3:45:00 AM 6.43 43.574 0.025 5.83 4.22 11.42
4/6/2021 4:00:00 AM 6.36 43.448 0.024 5.81 4.12 11.44
4/6/2021 4:15:00 AM 6.28 43.304 0.024 5.81 4.15 11.47
4/6/2021 4:30:00 AM 6.21 43.178 0.025 5.8 4.32 11.49
4/6/2021 4:45:00 AM 6.14 43.052 0.025 5.81 4.27 11.5
4/6/2021 5:00:00 AM 6.06 42.908 0.025 5.8 4.23 11.54
4/6/2021 5:15:00 AM 5.98 42.764 0.025 5.79 4.1 11.56
4/6/2021 5:30:00 AM 5.9 42.62 0.025 5.81 4.14 11.58
4/6/2021 5:45:00 AM 5.83 42.494 0.025 5.78 4.22 11.61
4/6/2021 6:00:00 AM 5.75 42.35 0.025 5.78 4.3 11.62
4/6/2021 6:15:00 AM 5.67 42.206 0.025 5.78 4.13 11.66
4/6/2021 6:30:00 AM 5.58 42.044 0.025 5.76 4.19 11.69
4/6/2021 6:45:00 AM 5.5 41.9 0.025 5.74 4.12 11.72
4/6/2021 7:00:00 AM 5.43 41.774 0.025 5.75 4.22 11.76
4/6/2021 7:15:00 AM 5.36 41.648 0.025 5.75 4.16 11.8
4/6/2021 7:30:00 AM 5.3 41.54 0.025 5.76 4.07 11.83
4/6/2021 7:45:00 AM 5.25 41.45 0.025 5.76 4.03 11.89
4/6/2021 8:00:00 AM 5.21 41.378 0.024 5.76 4.12 11.94
4/6/2021 8:15:00 AM 5.19 41.342 0.025 5.75 4 11.97
4/6/2021 8:30:00 AM 5.19 41.342 0.025 5.79 4.08 12.01
4/6/2021 8:45:00 AM 5.22 41.396 0.024 5.8 4.07 12.04
4/6/2021 9:00:00 AM 5.28 41.504 0.024 5.78 4.17 12.06
4/6/2021 9:15:00 AM 5.35 41.63 0.025 5.81 4.16 12.06
4/6/2021 9:30:00 AM 5.45 41.81 0.025 5.84 4.07 12.08
4/6/2021 9:45:00 AM 5.57 42.026 0.025 5.85 4.09 12.06
4/6/2021 10:00:00 AM 5.72 42.296 0.024 5.86 4.3 12.06
4/6/2021 10:15:00 AM 5.88 42.584 0.025 5.87 4.35 12.03
4/6/2021 10:30:00 AM 6.08 42.944 0.025 5.91 3.98 12.01
4/6/2021 10:45:00 AM 6.29 43.322 0.024 5.91 4.13 11.98
4/6/2021 11:00:00 AM 6.49 43.682 0.025 5.92 4.01 11.93
4/6/2021 11:15:00 AM 6.73 44.114 0.025 5.94 4.19 11.89
4/6/2021 11:30:00 AM 6.97 44.546 0.025 5.96 3.97 11.84
4/6/2021 11:45:00 AM 7.21 44.978 0.025 5.98 3.87 11.79
4/6/2021 12:00:00 PM 7.44 45.392 0.024 5.99 4.18 11.74
4/6/2021 12:15:00 PM 7.7 45.86 0.025 6.02 4.12 11.68
4/6/2021 12:30:00 PM 7.92 46.256 0.025 6.03 3.98 11.62
4/6/2021 12:45:00 PM 8.17 46.706 0.024 6.05 3.99 11.56
4/6/2021 1:00:00 PM 8.43 47.174 0.024 6.07 4 11.5
4/6/2021 1:15:00 PM 8.65 47.57 0.024 6.08 4.02 11.44
4/6/2021 1:30:00 PM 8.87 47.966 0.024 6.1 3.97 11.38
4/6/2021 1:45:00 PM 9.12 48.416 0.025 6.12 3.93 11.31
4/6/2021 2:00:00 PM 9.31 48.758 0.024 6.13 3.91 11.25
4/6/2021 2:15:00 PM 9.48 49.064 0.025 6.14 5.77 11.18
4/6/2021 2:30:00 PM 9.72 49.496 0.024 6.16 3.83 11.14
4/6/2021 2:45:00 PM 9.9 49.82 0.024 6.19 4.09 11.09
4/6/2021 3:00:00 PM 10.05 50.09 0.024 6.2 4.01 11.03
4/6/2021 3:15:00 PM 10.2 50.36 0.024 6.21 4 11
4/6/2021 3:30:00 PM 10.28 50.504 0.025 6.22 3.9 10.96
4/6/2021 3:45:00 PM 10.36 50.648 0.024 6.22 4.01 10.93
4/6/2021 4:00:00 PM 10.39 50.702 0.025 6.22 3.9 10.89
4/6/2021 4:15:00 PM 10.43 50.774 0.025 6.2 3.98 10.87
4/6/2021 4:30:00 PM 10.41 50.738 0.025 6.22 3.97 10.85
4/6/2021 4:45:00 PM 10.4 50.72 0.024 6.23 3.9 10.85
4/6/2021 5:00:00 PM 10.33 50.594 0.025 6.22 3.95 10.84
4/6/2021 5:15:00 PM 10.26 50.468 0.025 6.22 4.01 10.84
4/6/2021 5:30:00 PM 10.15 50.27 0.024 6.2 3.99 10.85
4/6/2021 5:45:00 PM 10 50 0.024 6.2 3.85 10.86
4/6/2021 6:00:00 PM 9.87 49.766 0.024 6.18 4.1 10.86
4/6/2021 6:15:00 PM 9.71 49.478 0.024 6.17 4.05 10.88
4/6/2021 6:30:00 PM 9.57 49.226 0.024 6.17 3.98 10.9
4/6/2021 6:45:00 PM 9.43 48.974 0.024 6.16 3.91 10.91
4/6/2021 7:00:00 PM 9.28 48.704 0.024 6.14 4.01 10.92
4/6/2021 7:15:00 PM 9.13 48.434 0.025 6.14 4.07 10.92
4/6/2021 7:30:00 PM 9 48.2 0.024 6.11 4.23 10.91
4/6/2021 7:45:00 PM 8.87 47.966 0.025 6.1 4.13 10.89
4/6/2021 8:00:00 PM 8.75 47.75 0.024 6.1 4.1 10.89
4/6/2021 8:15:00 PM 8.65 47.57 0.025 6.06 4.05 10.89
4/6/2021 8:30:00 PM 8.55 47.39 0.025 6.08 4.05 10.89
4/6/2021 8:45:00 PM 8.47 47.246 0.024 6.06 4.18 10.9
4/6/2021 9:00:00 PM 8.39 47.102 0.025 6.05 4.1 10.91
4/6/2021 9:15:00 PM 8.33 46.994 0.025 6.05 4.36 10.92
4/6/2021 9:30:00 PM 8.27 46.886 0.025 6.03 4.04 10.93
4/6/2021 9:45:00 PM 8.21 46.778 0.024 6.04 4.23 10.94
4/6/2021 10:00:00 PM 8.16 46.688 0.025 6.05 4.13 10.96
4/6/2021 10:15:00 PM 8.09 46.562 0.025 6.04 4.29 10.97
4/6/2021 10:30:00 PM 8.04 46.472 0.025 6.04 4.01 10.99
4/6/2021 10:45:00 PM 7.98 46.364 0.025 6.03 4.11 10.99
4/6/2021 11:00:00 PM 7.93 46.274 0.025 6.03 4.18 11
4/6/2021 11:15:00 PM 7.89 46.202 0.025 6.02 4.08 11.02
4/6/2021 11:30:00 PM 7.87 46.166 0.025 6.03 4.03 11.03
4/6/2021 11:45:00 PM 7.84 46.112 0.025 6.04 4.07 11.04
4/7/2021 12:00:00 AM 7.81 46.058 0.025 6 4.19 11.05
4/7/2021 12:15:00 AM 7.79 46.022 0.025 6 4.09 11.05
4/7/2021 12:30:00 AM 7.77 45.986 0.025 6.01 3.99 11.06
4/7/2021 12:45:00 AM 7.75 45.95 0.025 6.02 4.11 11.07
4/7/2021 1:00:00 AM 7.73 45.914 0.025 6.01 4.08 11.08
4/7/2021 1:15:00 AM 7.71 45.878 0.025 6 4.04 11.07
4/7/2021 1:30:00 AM 7.71 45.878 0.025 6.01 4.15 11.08
4/7/2021 1:45:00 AM 7.7 45.86 0.025 6.01 4.11 11.08
4/7/2021 2:00:00 AM 7.69 45.842 0.025 6 4.28 11.08
4/7/2021 2:15:00 AM 7.68 45.824 0.025 5.98 4.17 11.08
4/7/2021 2:30:00 AM 7.67 45.806 0.025 5.99 4.18 11.09
4/7/2021 2:45:00 AM 7.67 45.806 0.025 6 4.2 11.09
4/7/2021 3:00:00 AM 7.67 45.806 0.025 5.98 4.33 11.1
4/7/2021 3:15:00 AM 7.67 45.806 0.025 5.99 4.01 11.09
4/7/2021 3:30:00 AM 7.66 45.788 0.026 5.99 4.17 11.08
4/7/2021 3:45:00 AM 7.65 45.77 0.025 5.99 4.18 11.09
4/7/2021 4:00:00 AM 7.64 45.752 0.025 6 4.17 11.1
4/7/2021 4:15:00 AM 7.63 45.734 0.025 6.01 4.06 11.1
4/7/2021 4:30:00 AM 7.61 45.698 0.025 5.99 4.15 11.1
4/7/2021 4:45:00 AM 7.6 45.68 0.025 6 4.05 11.1
4/7/2021 5:00:00 AM 7.59 45.662 0.025 5.99 4.05 11.1
4/7/2021 5:15:00 AM 7.58 45.644 0.026 6 4.32 11.11
4/7/2021 5:30:00 AM 7.57 45.626 0.025 6.01 4.2 11.11
4/7/2021 5:45:00 AM 7.57 45.626 0.025 6.01 4.18 11.11
4/7/2021 6:00:00 AM 7.56 45.608 0.025 5.99 4.15 11.13
4/7/2021 6:15:00 AM 7.54 45.572 0.025 6 4.21 11.13
4/7/2021 6:30:00 AM 7.53 45.554 0.025 6.01 4.17 11.14
4/7/2021 6:45:00 AM 7.51 45.518 0.026 5.99 4.13 11.15
4/7/2021 7:00:00 AM 7.5 45.5 0.025 6 4.2 11.15
4/7/2021 7:15:00 AM 7.48 45.464 0.026 6 4.26 11.15
4/7/2021 7:30:00 AM 7.47 45.446 0.026 6.01 4.09 11.17
4/7/2021 7:45:00 AM 7.46 45.428 0.026 6 4.09 11.18
4/7/2021 8:00:00 AM 7.45 45.41 0.026 6.01 4.16 11.22
4/7/2021 8:15:00 AM 7.46 45.428 0.026 6.02 4.11 11.26
4/7/2021 8:30:00 AM 7.46 45.428 0.026 6.02 4.13 11.28
4/7/2021 8:45:00 AM 7.48 45.464 0.026 6.04 4.16 11.32
4/7/2021 9:00:00 AM 7.52 45.536 0.025 6.04 4.11 11.37
4/7/2021 9:15:00 AM 7.56 45.608 0.025 6.04 4.11 11.38
4/7/2021 9:30:00 AM 7.6 45.68 0.025 6.05 4.18 11.39
4/7/2021 9:45:00 AM 7.67 45.806 0.025 6.08 4.17 11.4
4/7/2021 10:00:00 AM 7.76 45.968 0.025 6.09 4.16 11.42
4/7/2021 10:15:00 AM 7.89 46.202 0.025 6.11 4.04 11.41
4/7/2021 10:30:00 AM 8.07 46.526 0.025 6.14 4.02 11.4
4/7/2021 10:45:00 AM 8.3 46.94 0.026 6.14 4.08 11.37
4/7/2021 11:00:00 AM 8.54 47.372 0.025 6.17 4.46 11.33
4/7/2021 11:15:00 AM 8.83 47.894 0.025 6.19 4.1 11.3
4/7/2021 11:30:00 AM 9.07 48.326 0.026 6.21 4.04 11.24
4/7/2021 11:45:00 AM 9.3 48.74 0.025 6.22 4.17 11.21
4/7/2021 12:00:00 PM 9.52 49.136 0.025 6.24 4.09 11.17
4/7/2021 12:15:00 PM 9.71 49.478 0.025 6.24 4 11.13
4/7/2021 12:30:00 PM 9.85 49.73 0.025 6.25 4.08 11.09
4/7/2021 12:45:00 PM 9.96 49.928 0.025 6.25 3.94 11.05
4/7/2021 1:00:00 PM 10.01 50.018 0.025 6.27 4.16 11.02
4/7/2021 1:15:00 PM 10.06 50.108 0.025 6.29 4.07 11.01
4/7/2021 1:30:00 PM 10.24 50.432 0.025 6.31 4.15 10.98
4/7/2021 1:45:00 PM 10.51 50.918 0.025 6.31 3.96 10.92
4/7/2021 2:00:00 PM 10.87 51.566 0.025 6.34 3.94 10.85
4/7/2021 2:15:00 PM 11.09 51.962 0.025 6.38 4.04 10.8
4/7/2021 2:30:00 PM 11.27 52.286 0.025 6.39 4.18 10.74
4/7/2021 2:45:00 PM 11.39 52.502 0.025 6.39 4.13 10.71
4/7/2021 3:00:00 PM 11.5 52.7 0.025 6.39 4 10.67
4/7/2021 3:15:00 PM 11.68 53.024 0.025 6.41 3.97 10.64
4/7/2021 3:30:00 PM 11.87 53.366 0.025 6.43 4.19 10.56
4/7/2021 3:45:00 PM 12.09 53.762 0.024 6.45 3.96 10.53
4/7/2021 4:00:00 PM 12.22 53.996 0.025 6.44 4.01 10.49
4/7/2021 4:15:00 PM 12.29 54.122 0.025 6.44 3.96 10.46
4/7/2021 4:30:00 PM 12.33 54.194 0.025 6.43 3.97 10.43
4/7/2021 4:45:00 PM 12.34 54.212 0.025 6.44 4.02 10.41
4/7/2021 5:00:00 PM 12.32 54.176 0.025 6.42 4.08 10.4
4/7/2021 5:15:00 PM 12.27 54.086 0.025 6.43 4.01 10.39
4/7/2021 5:30:00 PM 12.2 53.96 0.025 6.45 4.02 10.37
4/7/2021 5:45:00 PM 12.07 53.726 0.025 6.41 3.99 10.39
4/7/2021 6:00:00 PM 11.95 53.51 0.024 6.41 4.04 10.39
4/7/2021 6:15:00 PM 11.83 53.294 0.025 6.39 4.09 10.4
4/7/2021 6:30:00 PM 11.68 53.024 0.025 6.39 4.03 10.4
4/7/2021 6:45:00 PM 11.53 52.754 0.025 6.38 3.99 10.41
4/7/2021 7:00:00 PM 11.36 52.448 0.025 6.37 4.27 10.41
4/7/2021 7:15:00 PM 11.19 52.142 0.025 6.35 4.27 10.39
4/7/2021 7:30:00 PM 11.02 51.836 0.025 6.35 4.11 10.39
4/7/2021 7:45:00 PM 10.87 51.566 0.025 6.3 4.2 10.38
4/7/2021 8:00:00 PM 10.74 51.332 0.025 6.29 4.18 10.38
4/7/2021 8:15:00 PM 10.61 51.098 0.025 6.29 4.12 10.37
4/7/2021 8:30:00 PM 10.49 50.882 0.025 6.27 4.18 10.37
4/7/2021 8:45:00 PM 10.39 50.702 0.026 6.26 4.15 10.38
4/7/2021 9:00:00 PM 10.3 50.54 0.026 6.24 4.36 10.39
4/7/2021 9:15:00 PM 10.2 50.36 0.025 6.24 4.23 10.4
4/7/2021 9:30:00 PM 10.11 50.198 0.026 6.22 4.2 10.42
4/7/2021 9:45:00 PM 10.02 50.036 0.025 6.23 4.21 10.43
4/7/2021 10:00:00 PM 9.93 49.874 0.026 6.23 4.25 10.45
4/7/2021 10:15:00 PM 9.85 49.73 0.025 6.22 4.13 10.47
4/7/2021 10:30:00 PM 9.76 49.568 0.025 6.22 4.33 10.49
4/7/2021 10:45:00 PM 9.68 49.424 0.026 6.21 4.42 10.51
4/7/2021 11:00:00 PM 9.59 49.262 0.026 6.2 4.22 10.54
4/7/2021 11:15:00 PM 9.49 49.082 0.025 6.18 4.23 10.55
4/7/2021 11:30:00 PM 9.41 48.938 0.025 6.17 4.15 10.57
4/7/2021 11:45:00 PM 9.32 48.776 0.026 6.16 4.06 10.59
4/8/2021 12:00:00 AM 9.23 48.614 0.026 6.15 4.44 10.62
4/8/2021 12:15:00 AM 9.14 48.452 0.026 6.15 4.28 10.63
4/8/2021 12:30:00 AM 9.05 48.29 0.026 6.14 4.25 10.66
4/8/2021 12:45:00 AM 8.97 48.146 0.026 6.14 4.33 10.68
4/8/2021 1:00:00 AM 8.9 48.02 0.025 6.15 4.17 10.7
4/8/2021 1:15:00 AM 8.82 47.876 0.026 6.15 4.16 10.72
4/8/2021 1:30:00 AM 8.74 47.732 0.026 6.15 4.24 10.74
4/8/2021 1:45:00 AM 8.67 47.606 0.026 6.13 4.26 10.77
4/8/2021 2:00:00 AM 8.6 47.48 0.025 6.12 4.29 10.78
4/8/2021 2:15:00 AM 8.52 47.336 0.025 6.08 4.38 10.8
4/8/2021 2:30:00 AM 8.46 47.228 0.026 6.11 4.38 10.81
4/8/2021 2:45:00 AM 8.39 47.102 0.026 6.12 4.28 10.83
4/8/2021 3:00:00 AM 8.32 46.976 0.026 6.12 4.22 10.85
4/8/2021 3:15:00 AM 8.26 46.868 0.026 6.11 4.33 10.86
4/8/2021 3:30:00 AM 8.19 46.742 0.026 6.1 4.08 10.89
4/8/2021 3:45:00 AM 8.13 46.634 0.026 6.09 4.18 10.9
4/8/2021 4:00:00 AM 8.06 46.508 0.026 6.1 4.58 10.92
4/8/2021 4:15:00 AM 7.99 46.382 0.026 6.08 4.27 10.95
4/8/2021 4:30:00 AM 7.93 46.274 0.026 6.08 4.13 10.97
4/8/2021 4:45:00 AM 7.87 46.166 0.026 6.07 4.24 10.99
4/8/2021 5:00:00 AM 7.81 46.058 0.026 6.07 4.41 11.01
4/8/2021 5:15:00 AM 7.75 45.95 0.026 6.06 4.2 11.01
4/8/2021 5:30:00 AM 7.69 45.842 0.026 6.07 4.22 11.04
4/8/2021 5:45:00 AM 7.63 45.734 0.026 6.07 4.2 11.04
4/8/2021 6:00:00 AM 7.56 45.608 0.026 6.07 4.35 11.07
4/8/2021 6:15:00 AM 7.51 45.518 0.026 6.06 4.08 11.07
4/8/2021 6:30:00 AM 7.45 45.41 0.027 6.05 4.28 11.1
4/8/2021 6:45:00 AM 7.39 45.302 0.026 6.04 4.09 11.14
4/8/2021 7:00:00 AM 7.34 45.212 0.026 6.03 4.14 11.17
4/8/2021 7:15:00 AM 7.31 45.158 0.026 6.04 4.3 11.19
4/8/2021 7:30:00 AM 7.27 45.086 0.026 6.06 4.12 11.24
4/8/2021 7:45:00 AM 7.25 45.05 0.026 6.06 4.34 11.29
4/8/2021 8:00:00 AM 7.24 45.032 0.026 6.07 4.26 11.34
4/8/2021 8:15:00 AM 7.25 45.05 0.026 6.07 4.36 11.38
4/8/2021 8:30:00 AM 7.29 45.122 0.026 6.07 4.28 11.41
4/8/2021 8:45:00 AM 7.37 45.266 0.026 6.09 4.1 11.45
4/8/2021 9:00:00 AM 7.46 45.428 0.026 6.11 4.16 11.47
4/8/2021 9:15:00 AM 7.57 45.626 0.026 6.11 4.02 11.47
4/8/2021 9:30:00 AM 7.71 45.878 0.026 6.12 4.23 11.47
4/8/2021 9:45:00 AM 7.87 46.166 0.026 6.16 4.41 11.46
4/8/2021 10:00:00 AM 8.07 46.526 0.026 6.18 4.12 11.45
4/8/2021 10:15:00 AM 8.24 46.832 0.026 6.2 4.17 11.42
4/8/2021 10:30:00 AM 8.49 47.282 0.026 6.23 4.23 11.39
4/8/2021 10:45:00 AM 8.66 47.588 0.026 6.23 4.21 11.35
4/8/2021 11:00:00 AM 8.9 48.02 0.026 6.24 4.11 11.31
4/8/2021 11:15:00 AM 9.16 48.488 0.026 6.27 4.18 11.26
4/8/2021 11:30:00 AM 9.46 49.028 0.025 6.29 4.08 11.23
4/8/2021 11:45:00 AM 9.71 49.478 0.026 6.3 4.12 11.17
4/8/2021 12:00:00 PM 9.95 49.91 0.025 6.31 4.15 11.12
4/8/2021 12:15:00 PM 10.21 50.378 0.026 6.33 3.98 11.05
4/8/2021 12:30:00 PM 10.49 50.882 0.026 6.35 4.1 11.01
4/8/2021 12:45:00 PM 10.74 51.332 0.026 6.38 4.16 10.94
4/8/2021 1:00:00 PM 10.91 51.638 0.026 6.4 4 10.89
4/8/2021 1:15:00 PM 11.22 52.196 0.026 6.42 4.06 10.84
4/8/2021 1:30:00 PM 11.48 52.664 0.026 6.45 4.19 10.77
4/8/2021 1:45:00 PM 11.7 53.06 0.026 6.46 4.08 10.71
4/8/2021 2:00:00 PM 11.93 53.474 0.026 6.49 4.03 10.65
4/8/2021 2:15:00 PM 12.17 53.906 0.025 6.49 3.98 10.59
4/8/2021 2:30:00 PM 12.39 54.302 0.026 6.51 4.12 10.52
4/8/2021 2:45:00 PM 12.65 54.77 0.025 6.54 4.12 10.47
4/8/2021 3:00:00 PM 12.82 55.076 0.026 6.54 3.96 10.41
4/8/2021 3:15:00 PM 13 55.4 0.026 6.55 4.07 10.37
4/8/2021 3:30:00 PM 13.15 55.67 0.025 6.56 3.93 10.33
4/8/2021 3:45:00 PM 13.26 55.868 0.026 6.59 4.07 10.28
4/8/2021 4:00:00 PM 13.33 55.994 0.026 6.58 3.97 10.24
4/8/2021 4:15:00 PM 13.41 56.138 0.026 6.6 4.03 10.21
4/8/2021 4:30:00 PM 13.46 56.228 0.026 6.61 3.99 10.19
4/8/2021 4:45:00 PM 13.47 56.246 0.026 6.61 3.81 10.17
4/8/2021 5:00:00 PM 13.44 56.192 0.026 6.61 4.2 10.16
4/8/2021 5:15:00 PM 13.38 56.084 0.026 6.59 3.92 10.16
4/8/2021 5:30:00 PM 13.31 55.958 0.026 6.58 3.96 10.14
4/8/2021 5:45:00 PM 13.21 55.778 0.025 6.58 4.05 10.15
4/8/2021 6:00:00 PM 13.06 55.508 0.026 6.56 4.11 10.16
4/8/2021 6:15:00 PM 12.92 55.256 0.026 6.52 4.15 10.17
4/8/2021 6:30:00 PM 12.76 54.968 0.026 6.53 4.05 10.18
4/8/2021 6:45:00 PM 12.6 54.68 0.026 6.52 4.12 10.19
4/8/2021 7:00:00 PM 12.42 54.356 0.026 6.51 4.07 10.19
4/8/2021 7:15:00 PM 12.23 54.014 0.026 6.5 4.16 10.17
4/8/2021 7:30:00 PM 12.05 53.69 0.025 6.44 4.12 10.17
4/8/2021 7:45:00 PM 11.89 53.402 0.026 6.44 4.2 10.15
4/8/2021 8:00:00 PM 11.75 53.15 0.026 6.43 4.26 10.13
4/8/2021 8:15:00 PM 11.6 52.88 0.026 6.39 4.26 10.13
4/8/2021 8:30:00 PM 11.47 52.646 0.026 6.4 4.29 10.13
4/8/2021 8:45:00 PM 11.35 52.43 0.026 6.38 4.18 10.14
4/8/2021 9:00:00 PM 11.24 52.232 0.026 6.38 4.42 10.15
4/8/2021 9:15:00 PM 11.12 52.016 0.026 6.36 4.21 10.18
4/8/2021 9:30:00 PM 11.02 51.836 0.026 6.35 4.15 10.19
4/8/2021 9:45:00 PM 10.91 51.638 0.027 6.36 4.34 10.21
4/8/2021 10:00:00 PM 10.81 51.458 0.027 6.35 4.21 10.23
4/8/2021 10:15:00 PM 10.71 51.278 0.026 6.35 4.38 10.24
4/8/2021 10:30:00 PM 10.62 51.116 0.026 6.33 4.26 10.26
4/8/2021 10:45:00 PM 10.54 50.972 0.026 6.33 4.29 10.3
4/8/2021 11:00:00 PM 10.45 50.81 0.027 6.3 4.73 10.32
4/8/2021 11:15:00 PM 10.37 50.666 0.027 6.3 4.23 10.33
4/8/2021 11:30:00 PM 10.3 50.54 0.027 6.31 4.44 10.34
4/8/2021 11:45:00 PM 10.24 50.432 0.027 6.3 4.25 10.36
4/9/2021 12:00:00 AM 10.17 50.306 0.026 6.3 4.26 10.38
4/9/2021 12:15:00 AM 10.11 50.198 0.027 6.32 4.42 10.4
4/9/2021 12:30:00 AM 10.07 50.126 0.027 6.33 4.2 10.39
4/9/2021 12:45:00 AM 10.01 50.018 0.027 6.33 4.21 10.41
4/9/2021 1:00:00 AM 9.96 49.928 0.027 6.35 4.46 10.44
4/9/2021 1:15:00 AM 9.91 49.838 0.026 6.33 4.2 10.45
4/9/2021 1:30:00 AM 9.87 49.766 0.026 6.32 4.3 10.47
4/9/2021 1:45:00 AM 9.82 49.676 0.027 6.33 4.32 10.47
4/9/2021 2:00:00 AM 9.78 49.604 0.027 6.32 4.39 10.48
4/9/2021 2:15:00 AM 9.73 49.514 0.026 6.32 4.34 10.49
4/9/2021 2:30:00 AM 9.7 49.46 0.027 6.32 4.4 10.49
4/9/2021 2:45:00 AM 9.65 49.37 0.027 6.31 4.17 10.51
4/9/2021 3:00:00 AM 9.61 49.298 0.027 6.32 4.3 10.53
4/9/2021 3:15:00 AM 9.58 49.244 0.027 6.3 4.3 10.54
4/9/2021 3:30:00 AM 9.55 49.19 0.027 6.28 4.29 10.55
4/9/2021 3:45:00 AM 9.52 49.136 0.027 6.28 4.45 10.55
4/9/2021 4:00:00 AM 9.49 49.082 0.027 6.27 4.37 10.56
4/9/2021 4:15:00 AM 9.47 49.046 0.027 6.28 4.12 10.55
4/9/2021 4:30:00 AM 9.44 48.992 0.026 6.29 4.43 10.57
4/9/2021 4:45:00 AM 9.42 48.956 0.027 6.29 4.25 10.58
4/9/2021 5:00:00 AM 9.39 48.902 0.026 6.3 4.28 10.59
4/9/2021 5:15:00 AM 9.38 48.884 0.026 6.29 4.34 10.6
4/9/2021 5:30:00 AM 9.36 48.848 0.027 6.29 4.34 10.6
4/9/2021 5:45:00 AM 9.34 48.812 0.027 6.29 4.2 10.59
4/9/2021 6:00:00 AM 9.31 48.758 0.026 6.29 4.31 10.62
4/9/2021 6:15:00 AM 9.29 48.722 0.027 6.28 4.32 10.62
4/9/2021 6:30:00 AM 9.26 48.668 0.026 6.28 4.26 10.63
4/9/2021 6:45:00 AM 9.23 48.614 0.026 6.26 4.27 10.65
4/9/2021 7:00:00 AM 9.19 48.542 0.026 6.27 4.38 10.65
4/9/2021 7:15:00 AM 9.18 48.524 0.027 6.27 4.24 10.69
4/9/2021 7:30:00 AM 9.18 48.524 0.026 6.29 4.48 10.75
4/9/2021 7:45:00 AM 9.19 48.542 0.026 6.3 4.35 10.79
4/9/2021 8:00:00 AM 9.21 48.578 0.027 6.3 4.32 10.82
4/9/2021 8:15:00 AM 9.25 48.65 0.026 6.31 4.25 10.87
4/9/2021 8:30:00 AM 9.28 48.704 0.026 6.31 4.34 10.89
4/9/2021 8:45:00 AM 9.31 48.758 0.026 6.33 4.33 10.9
4/9/2021 9:00:00 AM 9.34 48.812 0.026 6.34 4.36 10.92
4/9/2021 9:15:00 AM 9.39 48.902 0.026 6.34 4.34 10.95
4/9/2021 9:30:00 AM 9.43 48.974 0.026 6.35 4.36 10.97
4/9/2021 9:45:00 AM 9.47 49.046 0.026 6.36 4.47 10.95
4/9/2021 10:00:00 AM 9.51 49.118 0.027 6.37 4.23 10.96
4/9/2021 10:15:00 AM 9.58 49.244 0.026 6.38 4.21 10.98
4/9/2021 10:30:00 AM 9.62 49.316 0.026 6.38 4.27 10.97
4/9/2021 10:45:00 AM 9.69 49.442 0.026 6.39 4.27 10.97
4/9/2021 11:00:00 AM 9.74 49.532 0.026 6.4 4.32 10.97
4/9/2021 11:15:00 AM 9.8 49.64 0.027 6.4 4.22 10.97
4/9/2021 11:30:00 AM 9.91 49.838 0.026 6.42 4.35 10.97
4/9/2021 11:45:00 AM 9.97 49.946 0.026 6.43 4.29 10.96
4/9/2021 12:00:00 PM 10.01 50.018 0.026 6.42 4.21 10.94
4/9/2021 12:15:00 PM 10.04 50.072 0.027 6.4 4.28 10.92
4/9/2021 12:30:00 PM 10.1 50.18 0.026 6.42 4.29 10.93
4/9/2021 12:45:00 PM 10.15 50.27 0.026 6.43 4.23 10.92
4/9/2021 1:00:00 PM 10.2 50.36 0.026 6.44 4.26 10.91
4/9/2021 1:15:00 PM 10.37 50.666 0.026 6.45 4.24 10.89
4/9/2021 1:30:00 PM 10.5 50.9 0.026 6.46 4.19 10.89
4/9/2021 1:45:00 PM 10.67 51.206 0.026 6.47 4.23 10.87
4/9/2021 2:00:00 PM 10.8 51.44 0.026 6.49 4.18 10.83
4/9/2021 2:15:00 PM 10.87 51.566 0.026 6.49 4.42 10.8
4/9/2021 2:30:00 PM 10.97 51.746 0.026 6.49 4.25 10.78
4/9/2021 2:45:00 PM 11.02 51.836 0.026 6.51 4.18 10.77
4/9/2021 3:00:00 PM 11.07 51.926 0.026 6.51 4.06 10.75
4/9/2021 3:15:00 PM 11.1 51.98 0.026 6.49 4.2 10.73
4/9/2021 3:30:00 PM 11.11 51.998 0.026 6.49 4.17 10.72
4/9/2021 3:45:00 PM 11.12 52.016 0.026 6.49 4.19 10.71
4/9/2021 4:00:00 PM 11.13 52.034 0.026 6.5 4.15 10.7
4/9/2021 4:15:00 PM 11.11 51.998 0.026 6.49 4.18 10.68
4/9/2021 4:30:00 PM 11.09 51.962 0.026 6.49 4.19 10.67
4/9/2021 4:45:00 PM 11.09 51.962 0.026 6.48 4.16 10.67
4/9/2021 5:00:00 PM 11.09 51.962 0.026 6.46 4.17 10.66
4/9/2021 5:15:00 PM 11.09 51.962 0.026 6.46 4.16 10.65
4/9/2021 5:30:00 PM 11.08 51.944 0.026 6.45 4.24 10.63
4/9/2021 5:45:00 PM 11.06 51.908 0.026 6.46 4.21 10.63
4/9/2021 6:00:00 PM 11.04 51.872 0.026 6.47 4.17 10.62
4/9/2021 6:15:00 PM 11.03 51.854 0.026 6.47 4.2 10.62
4/9/2021 6:30:00 PM 10.98 51.764 0.026 6.45 4.3 10.6
4/9/2021 6:45:00 PM 10.94 51.692 0.026 6.46 4.16 10.58
4/9/2021 7:00:00 PM 10.88 51.584 0.026 6.44 4.25 10.55
4/9/2021 7:15:00 PM 10.81 51.458 0.026 6.44 4.18 10.5
4/9/2021 7:30:00 PM 10.75 51.35 0.026 6.43 4.27 10.47
4/9/2021 7:45:00 PM 10.7 51.26 0.026 6.43 4.16 10.44
4/9/2021 8:00:00 PM 10.64 51.152 0.026 6.4 4.25 10.43
4/9/2021 8:15:00 PM 10.59 51.062 0.026 6.39 4.24 10.39
4/9/2021 8:30:00 PM 10.54 50.972 0.026 6.38 4.4 10.41
4/9/2021 8:45:00 PM 10.49 50.882 0.026 6.34 4.24 10.39
4/9/2021 9:00:00 PM 10.44 50.792 0.027 6.35 4.28 10.39
4/9/2021 9:15:00 PM 10.4 50.72 0.026 6.33 4.24 10.4
4/9/2021 9:30:00 PM 10.35 50.63 0.026 6.34 4.24 10.4
4/9/2021 9:45:00 PM 10.31 50.558 0.026 6.34 4.1 10.41
4/9/2021 10:00:00 PM 10.27 50.486 0.027 6.35 4.43 10.41
4/9/2021 10:15:00 PM 10.23 50.414 0.027 6.34 4.18 10.42
4/9/2021 10:30:00 PM 10.19 50.342 0.027 6.35 4.24 10.42
4/9/2021 10:45:00 PM 10.15 50.27 0.027 6.33 5.21 10.43
4/9/2021 11:00:00 PM 10.12 50.216 0.026 6.33 4.48 10.44
4/9/2021 11:15:00 PM 10.09 50.162 0.027 6.32 4.2 10.45
4/9/2021 11:30:00 PM 10.06 50.108 0.027 6.34 4.21 10.45
4/9/2021 11:45:00 PM 10.03 50.054 0.026 6.36 4.16 10.46
4/10/2021 12:00:00 AM 10 50 0.027 6.36 4.3 10.47
4/10/2021 12:15:00 AM 9.97 49.946 0.027 6.35 4.32 10.47
4/10/2021 12:30:00 AM 9.94 49.892 0.026 6.34 4.26 10.48
4/10/2021 12:45:00 AM 9.91 49.838 0.027 6.33 4.25 10.48
4/10/2021 1:00:00 AM 9.89 49.802 0.027 6.34 4.59 10.49
4/10/2021 1:15:00 AM 9.87 49.766 0.027 6.35 4.37 10.5
4/10/2021 1:30:00 AM 9.84 49.712 0.027 6.35 4.28 10.5
4/10/2021 1:45:00 AM 9.82 49.676 0.027 6.34 4.34 10.5
4/10/2021 2:00:00 AM 9.8 49.64 0.027 6.34 4.22 10.51
4/10/2021 2:15:00 AM 9.78 49.604 0.027 6.34 4.16 10.51
4/10/2021 2:30:00 AM 9.77 49.586 0.027 6.34 4.31 10.52
4/10/2021 2:45:00 AM 9.75 49.55 0.027 6.33 4.15 10.53
4/10/2021 3:00:00 AM 9.74 49.532 0.027 6.33 4.19 10.52
4/10/2021 3:15:00 AM 9.72 49.496 0.027 6.33 4.31 10.53
4/10/2021 3:30:00 AM 9.7 49.46 0.027 6.33 4.82 10.53
4/10/2021 3:45:00 AM 9.69 49.442 0.027 6.33 4.3 10.53
4/10/2021 4:00:00 AM 9.68 49.424 0.027 6.33 4.5 10.55
4/10/2021 4:15:00 AM 9.67 49.406 0.027 6.33 4.26 10.54
4/10/2021 4:30:00 AM 9.66 49.388 0.027 6.33 4.53 10.54
4/10/2021 4:45:00 AM 9.65 49.37 0.027 6.33 4.28 10.54
4/10/2021 5:00:00 AM 9.64 49.352 0.027 6.32 4.42 10.54
4/10/2021 5:15:00 AM 9.63 49.334 0.028 6.32 4.42 10.53
4/10/2021 5:30:00 AM 9.62 49.316 0.027 6.32 4.49 10.54
4/10/2021 5:45:00 AM 9.61 49.298 0.027 6.32 4.24 10.55
4/10/2021 6:00:00 AM 9.6 49.28 0.027 6.31 4.16 10.55
4/10/2021 6:15:00 AM 9.59 49.262 0.027 6.31 4.28 10.55
4/10/2021 6:30:00 AM 9.58 49.244 0.027 6.32 4.23 10.55
4/10/2021 6:45:00 AM 9.57 49.226 0.027 6.31 4.52 10.55
4/10/2021 7:00:00 AM 9.57 49.226 0.027 6.32 4.34 10.58
4/10/2021 7:15:00 AM 9.56 49.208 0.027 6.33 4.12 10.58
4/10/2021 7:30:00 AM 9.57 49.226 0.027 6.34 4.19 10.63
4/10/2021 7:45:00 AM 9.58 49.244 0.027 6.34 4.32 10.67
4/10/2021 8:00:00 AM 9.59 49.262 0.027 6.34 4.2 10.7
4/10/2021 8:15:00 AM 9.61 49.298 0.027 6.36 4.26 10.72
4/10/2021 8:30:00 AM 9.64 49.352 0.027 6.35 4.18 10.74
4/10/2021 8:45:00 AM 9.68 49.424 0.027 6.37 4.3 10.79
4/10/2021 9:00:00 AM 9.72 49.496 0.027 6.38 4.2 10.82
4/10/2021 9:15:00 AM 9.78 49.604 0.027 6.39 4.28 10.84
4/10/2021 9:30:00 AM 9.84 49.712 0.027 6.4 4.48 10.86
4/10/2021 9:45:00 AM 9.92 49.856 0.026 6.43 4.28 10.88
4/10/2021 10:00:00 AM 10 50 0.026 6.44 4.21 10.89
4/10/2021 10:15:00 AM 10.1 50.18 0.026 6.45 4.34 10.89
4/10/2021 10:30:00 AM 10.2 50.36 0.026 6.47 4.4 10.89
4/10/2021 10:45:00 AM 10.32 50.576 0.026 6.47 5.14 10.88
4/10/2021 11:00:00 AM 10.49 50.882 0.027 6.49 4.16 10.88
4/10/2021 11:15:00 AM 10.67 51.206 0.026 6.5 4.28 10.86
4/10/2021 11:30:00 AM 10.88 51.584 0.026 6.51 4.29 10.83
4/10/2021 11:45:00 AM 11.17 52.106 0.026 6.54 4.22 10.78
4/10/2021 12:00:00 PM 11.5 52.7 0.026 6.57 4.28 10.72
4/10/2021 12:15:00 PM 11.84 53.312 0.026 6.6 4.07 10.67
4/10/2021 12:30:00 PM 12.15 53.87 0.026 6.62 4.37 10.6
4/10/2021 12:45:00 PM 12.43 54.374 0.026 6.64 4.14 10.55
4/10/2021 1:00:00 PM 12.71 54.878 0.026 6.66 4.09 10.5
4/10/2021 1:15:00 PM 12.9 55.22 0.026 6.67 4.32 10.44
4/10/2021 1:30:00 PM 13.16 55.688 0.026 6.69 4.12 10.41
4/10/2021 1:45:00 PM 13.37 56.066 0.026 6.71 4.14 10.37
4/10/2021 2:00:00 PM 13.51 56.318 0.026 6.71 4.16 10.32
4/10/2021 2:15:00 PM 13.72 56.696 0.026 6.74 4.17 10.28
4/10/2021 2:30:00 PM 13.86 56.948 0.026 6.75 3.99 10.23
4/10/2021 2:45:00 PM 13.99 57.182 0.026 6.76 4.04 10.19
4/10/2021 3:00:00 PM 14.13 57.434 0.026 6.76 4.1 10.15
4/10/2021 3:15:00 PM 14.26 57.668 0.026 6.78 4.09 10.12
4/10/2021 3:30:00 PM 14.35 57.83 0.026 6.79 4.06 10.08
4/10/2021 3:45:00 PM 14.42 57.956 0.026 6.78 4.15 10.03
4/10/2021 4:00:00 PM 14.51 58.118 0.026 6.81 4.16 10.01
4/10/2021 4:15:00 PM 14.57 58.226 0.026 6.82 4.23 9.99
4/10/2021 4:30:00 PM 14.63 58.334 0.026 6.82 4.32 9.97
4/10/2021 4:45:00 PM 14.63 58.334 0.026 6.82 4.04 9.94
4/10/2021 5:00:00 PM 14.6 58.28 0.026 6.8 4.14 9.92
4/10/2021 5:15:00 PM 14.55 58.19 0.026 6.81 4.2 9.92
4/10/2021 5:30:00 PM 14.49 58.082 0.026 6.8 4.17 9.92
4/10/2021 5:45:00 PM 14.4 57.92 0.026 6.8 4.22 9.92
4/10/2021 6:00:00 PM 14.29 57.722 0.026 6.79 4.26 9.91
4/10/2021 6:15:00 PM 14.18 57.524 0.026 6.77 4.27 9.91
4/10/2021 6:30:00 PM 14.04 57.272 0.026 6.76 4.19 9.91
4/10/2021 6:45:00 PM 13.93 57.074 0.026 6.75 4.33 9.89
4/10/2021 7:00:00 PM 13.79 56.822 0.026 6.73 4.27 9.87
4/10/2021 7:15:00 PM 13.63 56.534 0.026 6.71 4.2 9.86
4/10/2021 7:30:00 PM 13.49 56.282 0.026 6.7 4.3 9.83
4/10/2021 7:45:00 PM 13.34 56.012 0.026 6.66 4.39 9.79
4/10/2021 8:00:00 PM 13.21 55.778 0.027 6.64 4.36 9.76
4/10/2021 8:15:00 PM 13.06 55.508 0.026 6.63 4.43 9.75
4/10/2021 8:30:00 PM 12.93 55.274 0.026 6.61 4.26 9.74
4/10/2021 8:45:00 PM 12.81 55.058 0.026 6.6 4.42 9.73
4/10/2021 9:00:00 PM 12.67 54.806 0.027 6.58 4.38 9.72
4/10/2021 9:15:00 PM 12.57 54.626 0.027 6.57 4.37 9.72
4/10/2021 9:30:00 PM 12.45 54.41 0.027 6.57 4.37 9.74
4/10/2021 9:45:00 PM 12.36 54.248 0.027 6.56 4.64 9.74
4/10/2021 10:00:00 PM 12.24 54.032 0.027 6.55 4.42 9.79
4/10/2021 10:15:00 PM 12.15 53.87 0.027 6.55 4.34 9.81
4/10/2021 10:30:00 PM 12.06 53.708 0.027 6.55 4.34 9.82
4/10/2021 10:45:00 PM 11.97 53.546 0.027 6.53 9.22 9.84
4/10/2021 11:00:00 PM 11.89 53.402 0.027 6.53 4.61 9.84
4/10/2021 11:15:00 PM 11.8 53.24 0.027 6.52 4.32 9.88
4/10/2021 11:30:00 PM 11.72 53.096 0.027 6.52 4.39 9.89
4/10/2021 11:45:00 PM 11.64 52.952 0.027 6.51 4.39 9.91
4/11/2021 12:00:00 AM 11.59 52.862 0.028 6.5 4.23 9.9
4/11/2021 12:15:00 AM 11.51 52.718 0.027 6.5 4.39 9.94
4/11/2021 12:30:00 AM 11.44 52.592 0.027 6.5 4.47 9.94
4/11/2021 12:45:00 AM 11.38 52.484 0.027 6.49 4.24 9.96
4/11/2021 1:00:00 AM 11.33 52.394 0.027 6.49 4.39 9.97
4/11/2021 1:15:00 AM 11.26 52.268 0.027 6.48 4.47 9.98
4/11/2021 1:30:00 AM 11.21 52.178 0.027 6.48 4.38 10
4/11/2021 1:45:00 AM 11.16 52.088 0.027 6.48 4.39 10
4/11/2021 2:00:00 AM 11.11 51.998 0.027 6.47 4.13 10.02
4/11/2021 2:15:00 AM 11.07 51.926 0.028 6.46 4.2 10.02
4/11/2021 2:30:00 AM 11.03 51.854 0.027 6.47 4.22 10.04
4/11/2021 2:45:00 AM 10.98 51.764 0.027 6.46 4.48 10.04
4/11/2021 3:00:00 AM 10.95 51.71 0.027 6.44 4.43 10.06
4/11/2021 3:15:00 AM 10.92 51.656 0.027 6.44 4.56 10.06
4/11/2021 3:30:00 AM 10.88 51.584 0.028 6.44 4.71 10.06
4/11/2021 3:45:00 AM 10.86 51.548 0.027 6.43 4.45 10.08
4/11/2021 4:00:00 AM 10.84 51.512 0.028 6.41 4.35 10.07
4/11/2021 4:15:00 AM 10.83 51.494 0.027 6.42 4.49 10.07
4/11/2021 4:30:00 AM 10.83 51.494 0.027 6.44 4.29 10.08
4/11/2021 4:45:00 AM 10.82 51.476 0.027 6.44 4.54 10.07
4/11/2021 5:00:00 AM 10.82 51.476 0.027 6.45 4.32 10.08
4/11/2021 5:15:00 AM 10.82 51.476 0.027 6.44 4.44 10.08
4/11/2021 5:30:00 AM 10.82 51.476 0.027 6.44 4.45 10.08
4/11/2021 5:45:00 AM 10.82 51.476 0.027 6.46 4.35 10.07
4/11/2021 6:00:00 AM 10.82 51.476 0.027 6.45 4.26 10.08
4/11/2021 6:15:00 AM 10.83 51.494 0.027 6.45 4.39 10.1
4/11/2021 6:30:00 AM 10.83 51.494 0.027 6.43 4.51 10.09
4/11/2021 6:45:00 AM 10.84 51.512 0.027 6.44 4.35 10.08
4/11/2021 7:00:00 AM 10.84 51.512 0.028 6.44 4.23 10.08
4/11/2021 7:15:00 AM 10.86 51.548 0.028 6.45 4.38 10.09
4/11/2021 7:30:00 AM 10.87 51.566 0.027 6.46 4.48 10.11
4/11/2021 7:45:00 AM 10.88 51.584 0.027 6.46 4.49 10.12
4/11/2021 8:00:00 AM 10.9 51.62 0.027 6.46 4.46 10.15
4/11/2021 8:15:00 AM 10.91 51.638 0.028 6.46 4.36 10.18
4/11/2021 8:30:00 AM 10.92 51.656 0.028 6.46 4.45 10.19
4/11/2021 8:45:00 AM 10.94 51.692 0.028 6.46 4.62 10.21
4/11/2021 9:00:00 AM 10.96 51.728 0.028 6.47 4.65 10.22
4/11/2021 9:15:00 AM 10.98 51.764 0.028 6.49 4.67 10.23
4/11/2021 9:30:00 AM 11 51.8 0.029 6.47 4.95 10.24
4/11/2021 9:45:00 AM 11.03 51.854 0.029 6.49 5.32 10.25
4/11/2021 10:00:00 AM 11.05 51.89 0.03 6.49 5.83 10.27
4/11/2021 10:15:00 AM 11.08 51.944 0.03 6.5 5.96 10.28
4/11/2021 10:30:00 AM 11.11 51.998 0.03 6.51 5.53 10.29
4/11/2021 10:45:00 AM 11.13 52.034 0.029 6.51 5.62 10.29
4/11/2021 11:00:00 AM 11.15 52.07 0.03 6.5 6.25 10.28
4/11/2021 11:15:00 AM 11.19 52.142 0.031 6.51 6.54 10.29
4/11/2021 11:30:00 AM 11.23 52.214 0.03 6.53 5.88 10.31
4/11/2021 11:45:00 AM 11.28 52.304 0.029 6.53 5.64 10.33
4/11/2021 12:00:00 PM 11.31 52.358 0.03 6.56 6.32 10.32
4/11/2021 12:15:00 PM 11.36 52.448 0.03 6.57 6.4 10.33
4/11/2021 12:30:00 PM 11.42 52.556 0.03 6.57 6.67 10.34
4/11/2021 12:45:00 PM 11.5 52.7 0.029 6.58 6.32 10.35
4/11/2021 1:00:00 PM 11.57 52.826 0.029 6.59 6.11 10.35
4/11/2021 1:15:00 PM 11.63 52.934 0.029 6.6 6.43 10.35
4/11/2021 1:30:00 PM 11.69 53.042 0.029 6.59 6.76 10.33
4/11/2021 1:45:00 PM 11.73 53.114 0.029 6.59 6.64 10.32
4/11/2021 2:00:00 PM 11.76 53.168 0.029 6.6 7.17 10.3
4/11/2021 2:15:00 PM 11.79 53.222 0.029 6.62 7.38 10.29
4/11/2021 2:30:00 PM 11.83 53.294 0.028 6.63 8.16 10.28
4/11/2021 2:45:00 PM 11.88 53.384 0.028 6.63 8.24 10.28
4/11/2021 3:00:00 PM 11.92 53.456 0.028 6.62 8.76 10.26
4/11/2021 3:15:00 PM 11.95 53.51 0.028 6.62 9.04 10.25
4/11/2021 3:30:00 PM 11.98 53.564 0.027 6.63 8.99 10.25
4/11/2021 3:45:00 PM 12 53.6 0.027 6.61 9.32 10.23
4/11/2021 4:00:00 PM 11.99 53.582 0.027 6.6 9.17 10.2
4/11/2021 4:15:00 PM 11.97 53.546 0.027 6.59 9.16 10.19
4/11/2021 4:30:00 PM 11.95 53.51 0.027 6.57 9.36 10.17
4/11/2021 4:45:00 PM 11.95 53.51 0.027 6.56 9.52 10.18
4/11/2021 5:00:00 PM 11.97 53.546 0.027 6.58 9.06 10.19
4/11/2021 5:15:00 PM 11.97 53.546 0.027 6.6 8.82 10.18
4/11/2021 5:30:00 PM 11.94 53.492 0.026 6.56 8.83 10.16
4/11/2021 5:45:00 PM 11.91 53.438 0.026 6.56 8.44 10.15
4/11/2021 6:00:00 PM 11.86 53.348 0.026 6.53 8.13 10.12
4/11/2021 6:15:00 PM 11.81 53.258 0.026 6.54 8.15 10.11
4/11/2021 6:30:00 PM 11.76 53.168 0.026 6.52 8.11 10.09
4/11/2021 6:45:00 PM 11.71 53.078 0.026 6.49 7.48 10.08
4/11/2021 7:00:00 PM 11.66 52.988 0.026 6.49 7.45 10.07
4/11/2021 7:15:00 PM 11.62 52.916 0.026 6.48 7.42 10.05
4/11/2021 7:30:00 PM 11.58 52.844 0.026 6.46 7.32 10.04
4/11/2021 7:45:00 PM 11.54 52.772 0.025 6.47 7.71 10.04
4/11/2021 8:00:00 PM 11.5 52.7 0.025 6.44 7.7 10.03
4/11/2021 8:15:00 PM 11.47 52.646 0.025 6.44 7.8 10.04
4/11/2021 8:30:00 PM 11.44 52.592 0.025 6.44 7.69 10.03
4/11/2021 8:45:00 PM 11.42 52.556 0.025 6.43 8.17 10.03
4/11/2021 9:00:00 PM 11.4 52.52 0.025 6.43 7.91 10.04
4/11/2021 9:15:00 PM 11.38 52.484 0.025 6.42 8.56 10.04
4/11/2021 9:30:00 PM 11.36 52.448 0.025 6.41 9.43 10.05
4/11/2021 9:45:00 PM 11.35 52.43 0.025 6.42 9.52 10.05
4/11/2021 10:00:00 PM 11.34 52.412 0.025 6.42 9.71 10.06
4/11/2021 10:15:00 PM 11.33 52.394 0.025 6.43 9.91 10.06
4/11/2021 10:30:00 PM 11.31 52.358 0.025 6.4 9.9 10.07
4/11/2021 10:45:00 PM 11.29 52.322 0.025 6.4 10.52 10.07
4/11/2021 11:00:00 PM 11.27 52.286 0.024 6.42 10.8 10.08
4/11/2021 11:15:00 PM 11.26 52.268 0.024 6.4 10.92 10.09
4/11/2021 11:30:00 PM 11.24 52.232 0.024 6.35 12 10.09
4/11/2021 11:45:00 PM 11.22 52.196 0.024 6.33 12.05 10.1
4/12/2021 12:00:00 AM 11.2 52.16 0.024 6.31 12.24 10.11
4/12/2021 12:15:00 AM 11.17 52.106 0.024 6.32 11.6 10.12
4/12/2021 12:30:00 AM 11.15 52.07 0.023 6.33 12.28 10.13
4/12/2021 12:45:00 AM 11.12 52.016 0.023 6.29 11.84 10.13
4/12/2021 1:00:00 AM 11.09 51.962 0.023 6.27 11.58 10.15
4/12/2021 1:15:00 AM 11.06 51.908 0.023 6.31 11.19 10.15
4/12/2021 1:30:00 AM 11.03 51.854 0.023 6.26 10.78 10.17
4/12/2021 1:45:00 AM 11 51.8 0.023 6.24 10.84 10.17
4/12/2021 2:00:00 AM 10.97 51.746 0.023 6.25 10.14 10.19
4/12/2021 2:15:00 AM 10.93 51.674 0.023 6.24 10.14 10.2
4/12/2021 2:30:00 AM 10.9 51.62 0.023 6.26 9.86 10.21
4/12/2021 2:45:00 AM 10.86 51.548 0.022 6.22 9.83 10.21
4/12/2021 3:00:00 AM 10.83 51.494 0.022 6.2 9.62 10.21
4/12/2021 3:15:00 AM 10.8 51.44 0.022 6.23 9.21 10.22
4/12/2021 3:30:00 AM 10.77 51.386 0.022 6.22 9.41 10.23
4/12/2021 3:45:00 AM 10.74 51.332 0.022 6.22 9.83 10.24
4/12/2021 4:00:00 AM 10.72 51.296 0.022 6.21 9.86 10.25
4/12/2021 4:15:00 AM 10.69 51.242 0.022 6.19 10.37 10.25
4/12/2021 4:30:00 AM 10.67 51.206 0.022 6.2 9.57 10.26
4/12/2021 4:45:00 AM 10.65 51.17 0.022 6.21 9.28 10.25
4/12/2021 5:00:00 AM 10.63 51.134 0.022 6.2 9.15 10.26
4/12/2021 5:15:00 AM 10.61 51.098 0.022 6.2 9.35 10.26
4/12/2021 5:30:00 AM 10.59 51.062 0.022 6.19 8.77 10.27
4/12/2021 5:45:00 AM 10.57 51.026 0.022 6.17 8.78 10.27
4/12/2021 6:00:00 AM 10.55 50.99 0.022 6.18 8.47 10.29
4/12/2021 6:15:00 AM 10.53 50.954 0.021 6.18 8.5 10.29
4/12/2021 6:30:00 AM 10.51 50.918 0.022 6.14 8.2 10.3
4/12/2021 6:45:00 AM 10.49 50.882 0.022 6.16 7.7 10.29
4/12/2021 7:00:00 AM 10.47 50.846 0.022 6.15 7.69 10.31
4/12/2021 7:15:00 AM 10.45 50.81 0.022 6.14 7.5 10.32
4/12/2021 7:30:00 AM 10.42 50.756 0.022 6.17 7.22 10.33
4/12/2021 7:45:00 AM 10.39 50.702 0.022 6.16 7.17 10.35
4/12/2021 8:00:00 AM 10.37 50.666 0.022 6.16 7.14 10.36
4/12/2021 8:15:00 AM 10.35 50.63 0.021 6.15 6.91 10.38
4/12/2021 8:30:00 AM 10.33 50.594 0.021 6.14 6.88 10.39
4/12/2021 8:45:00 AM 10.32 50.576 0.021 6.15 6.68 10.42
4/12/2021 9:00:00 AM 10.32 50.576 0.021 6.16 6.52 10.45
4/12/2021 9:15:00 AM 10.31 50.558 0.021 6.13 6.45 10.47
4/12/2021 9:30:00 AM 10.31 50.558 0.021 6.15 6.49 10.49
4/12/2021 9:45:00 AM 10.31 50.558 0.021 6.14 6.45 10.51
4/12/2021 10:00:00 AM 10.31 50.558 0.021 6.15 6.26 10.51
4/12/2021 10:15:00 AM 10.29 50.522 0.021 6.16 6.42 10.52
4/12/2021 10:30:00 AM 10.27 50.486 0.021 6.16 6 10.53
4/12/2021 10:45:00 AM 10.25 50.45 0.021 6.16 5.97 10.54
4/12/2021 11:00:00 AM 10.24 50.432 0.021 6.15 5.97 10.55
4/12/2021 11:15:00 AM 10.25 50.45 0.021 6.17 5.89 10.57
4/12/2021 11:30:00 AM 10.26 50.468 0.021 6.17 5.92 10.58
4/12/2021 11:45:00 AM 10.28 50.504 0.021 6.17 5.98 10.6
4/12/2021 12:00:00 PM 10.29 50.522 0.021 6.18 5.9 10.6
4/12/2021 12:15:00 PM 10.3 50.54 0.021 6.18 5.72 10.6
4/12/2021 12:30:00 PM 10.33 50.594 0.021 6.21 5.76 10.61
4/12/2021 12:45:00 PM 10.36 50.648 0.021 6.19 5.81 10.61
4/12/2021 1:00:00 PM 10.35 50.63 0.021 6.2 5.63 10.61
4/12/2021 1:15:00 PM 10.32 50.576 0.021 6.17 5.61 10.6
4/12/2021 1:30:00 PM 10.3 50.54 0.021 6.18 5.73 10.6
4/12/2021 1:45:00 PM 10.28 50.504 0.021 6.16 5.71 10.59
4/12/2021 2:00:00 PM 10.26 50.468 0.021 6.17 5.45 10.6
4/12/2021 2:15:00 PM 10.25 50.45 0.021 6.19 5.56 10.6
4/12/2021 2:30:00 PM 10.24 50.432 0.021 6.18 5.62 10.6
4/12/2021 2:45:00 PM 10.22 50.396 0.021 6.18 5.29 10.6
4/12/2021 3:00:00 PM 10.21 50.378 0.021 6.17 5.75 10.6
4/12/2021 3:15:00 PM 10.18 50.324 0.021 6.18 6.07 10.6
4/12/2021 3:30:00 PM 10.16 50.288 0.021 6.19 6.08 10.59
4/12/2021 3:45:00 PM 10.14 50.252 0.021 6.16 5.62 10.59
4/12/2021 4:00:00 PM 10.13 50.234 0.021 6.15 5.39 10.58
4/12/2021 4:15:00 PM 10.12 50.216 0.021 6.13 5.44 10.58
4/12/2021 4:30:00 PM 10.1 50.18 0.021 6.16 5.55 10.58
4/12/2021 4:45:00 PM 10.09 50.162 0.021 6.16 5.31 10.58
4/12/2021 5:00:00 PM 10.08 50.144 0.021 6.17 5.19 10.59
4/12/2021 5:15:00 PM 10.07 50.126 0.021 6.17 5.2 10.58
4/12/2021 5:30:00 PM 10.05 50.09 0.021 6.14 5.34 10.57
4/12/2021 5:45:00 PM 10.02 50.036 0.021 6.17 5.12 10.56
4/12/2021 6:00:00 PM 10 50 0.021 6.14 5.22 10.55
4/12/2021 6:15:00 PM 9.97 49.946 0.021 6.14 5.23 10.54
4/12/2021 6:30:00 PM 9.94 49.892 0.021 6.12 4.9 10.55
4/12/2021 6:45:00 PM 9.92 49.856 0.021 6.13 5.15 10.56
4/12/2021 7:00:00 PM 9.89 49.802 0.021 6.12 5.05 10.56
4/12/2021 7:15:00 PM 9.87 49.766 0.021 6.11 5.11 10.57
4/12/2021 7:30:00 PM 9.84 49.712 0.021 6.11 5.14 10.56
4/12/2021 7:45:00 PM 9.81 49.658 0.021 6.13 5.09 10.56
4/12/2021 8:00:00 PM 9.78 49.604 0.021 6.11 5.07 10.56
4/12/2021 8:15:00 PM 9.75 49.55 0.021 6.11 5.23 10.56
4/12/2021 8:30:00 PM 9.72 49.496 0.021 6.1 5.15 10.57
4/12/2021 8:45:00 PM 9.69 49.442 0.021 6.08 5.2 10.57
4/12/2021 9:00:00 PM 9.67 49.406 0.021 6.08 5.26 10.57
4/12/2021 9:15:00 PM 9.64 49.352 0.021 6.1 5.12 10.59
4/12/2021 9:30:00 PM 9.61 49.298 0.021 6.1 5.03 10.6
4/12/2021 9:45:00 PM 9.58 49.244 0.021 6.09 5.06 10.61
4/12/2021 10:00:00 PM 9.54 49.172 0.021 6.09 5.1 10.62
4/12/2021 10:15:00 PM 9.51 49.118 0.021 6.09 5.07 10.62
4/12/2021 10:30:00 PM 9.48 49.064 0.021 6.08 5.19 10.64
4/12/2021 10:45:00 PM 9.45 49.01 0.021 6.08 5.23 10.64
4/12/2021 11:00:00 PM 9.42 48.956 0.021 6.08 4.98 10.65
4/12/2021 11:15:00 PM 9.39 48.902 0.021 6.09 5.13 10.66
4/12/2021 11:30:00 PM 9.35 48.83 0.021 6.08 5.06 10.67
4/12/2021 11:45:00 PM 9.32 48.776 0.021 6.08 4.99 10.68
4/13/2021 12:00:00 AM 9.29 48.722 0.021 6.05 5.05 10.69
4/13/2021 12:15:00 AM 9.26 48.668 0.021 6.07 5.04 10.69
4/13/2021 12:30:00 AM 9.23 48.614 0.021 6.08 5.02 10.71
4/13/2021 12:45:00 AM 9.2 48.56 0.021 6.08 4.99 10.71
4/13/2021 1:00:00 AM 9.18 48.524 0.021 6.07 4.79 10.72
4/13/2021 1:15:00 AM 9.15 48.47 0.021 6.09 4.94 10.74
4/13/2021 1:30:00 AM 9.12 48.416 0.022 6.06 4.88 10.74
4/13/2021 1:45:00 AM 9.1 48.38 0.021 6.07 4.76 10.74
4/13/2021 2:00:00 AM 9.07 48.326 0.021 6.06 4.94 10.75
4/13/2021 2:15:00 AM 9.04 48.272 0.021 6.08 4.86 10.76
4/13/2021 2:30:00 AM 9.02 48.236 0.022 6.08 4.94 10.76
4/13/2021 2:45:00 AM 9 48.2 0.022 6.07 4.96 10.77
4/13/2021 3:00:00 AM 8.97 48.146 0.022 6.07 4.84 10.78
4/13/2021 3:15:00 AM 8.95 48.11 0.022 6.08 4.79 10.79
4/13/2021 3:30:00 AM 8.93 48.074 0.022 6.07 5.12 10.79
4/13/2021 3:45:00 AM 8.91 48.038 0.022 6.08 4.93 10.8
4/13/2021 4:00:00 AM 8.89 48.002 0.022 6.05 4.9 10.8
4/13/2021 4:15:00 AM 8.87 47.966 0.022 6.06 4.85 10.81
4/13/2021 4:30:00 AM 8.84 47.912 0.022 6.08 4.93 10.82
4/13/2021 4:45:00 AM 8.82 47.876 0.021 6.07 4.91 10.82
4/13/2021 5:00:00 AM 8.8 47.84 0.022 6.06 4.99 10.83
4/13/2021 5:15:00 AM 8.78 47.804 0.022 6.06 4.87 10.84
4/13/2021 5:30:00 AM 8.76 47.768 0.022 6.07 4.85 10.84
4/13/2021 5:45:00 AM 8.74 47.732 0.022 6.07 4.9 10.85
4/13/2021 6:00:00 AM 8.72 47.696 0.022 6.07 4.72 10.86
4/13/2021 6:15:00 AM 8.69 47.642 0.022 6.06 6.62 10.87
4/13/2021 6:30:00 AM 8.67 47.606 0.022 6.07 4.92 10.87
4/13/2021 6:45:00 AM 8.66 47.588 0.022 6.05 4.65 10.89
4/13/2021 7:00:00 AM 8.64 47.552 0.022 6.05 4.82 10.91
4/13/2021 7:15:00 AM 8.63 47.534 0.022 6.05 4.55 10.93
4/13/2021 7:30:00 AM 8.62 47.516 0.022 6.06 4.98 10.96
4/13/2021 7:45:00 AM 8.61 47.498 0.022 6.06 4.59 10.99
4/13/2021 8:00:00 AM 8.6 47.48 0.022 6.07 4.8 11.02
4/13/2021 8:15:00 AM 8.62 47.516 0.022 6.08 4.71 11.05
4/13/2021 8:30:00 AM 8.65 47.57 0.022 6.1 4.99 11.07
4/13/2021 8:45:00 AM 8.7 47.66 0.022 6.12 4.76 11.07
4/13/2021 9:00:00 AM 8.75 47.75 0.022 6.12 4.64 11.09
4/13/2021 9:15:00 AM 8.82 47.876 0.022 6.11 4.64 11.11
4/13/2021 9:30:00 AM 8.94 48.092 0.022 6.14 4.64 11.11
4/13/2021 9:45:00 AM 9.07 48.326 0.022 6.16 4.62 11.1
4/13/2021 10:00:00 AM 9.13 48.434 0.022 6.15 4.47 11.1
4/13/2021 10:15:00 AM 9.27 48.686 0.022 6.16 4.58 11.09
4/13/2021 10:30:00 AM 9.38 48.884 0.022 6.17 4.48 11.06
4/13/2021 10:45:00 AM 9.5 49.1 0.022 6.19 4.5 11.04
4/13/2021 11:00:00 AM 9.54 49.172 0.022 6.15 4.51 11.03
4/13/2021 11:15:00 AM 9.6 49.28 0.022 6.17 4.5 11.02
4/13/2021 11:30:00 AM 9.76 49.568 0.022 6.19 4.61 11.01
4/13/2021 11:45:00 AM 9.95 49.91 0.022 6.22 4.5 10.97
4/13/2021 12:00:00 PM 10.13 50.234 0.022 6.22 4.53 10.94
4/13/2021 12:15:00 PM 10.25 50.45 0.022 6.22 4.47 10.91
4/13/2021 12:30:00 PM 10.43 50.774 0.022 6.25 4.43 10.87
4/13/2021 12:45:00 PM 10.63 51.134 0.022 6.25 4.44 10.83
4/13/2021 1:00:00 PM 10.78 51.404 0.022 6.27 4.37 10.79
4/13/2021 1:15:00 PM 10.95 51.71 0.022 6.28 4.59 10.78
4/13/2021 1:30:00 PM 11.12 52.016 0.022 6.27 4.41 10.73
4/13/2021 1:45:00 PM 11.3 52.34 0.022 6.3 4.4 10.69
4/13/2021 2:00:00 PM 11.37 52.466 0.022 6.31 4.36 10.64
4/13/2021 2:15:00 PM 11.34 52.412 0.022 6.3 4.45 10.63
4/13/2021 2:30:00 PM 11.43 52.574 0.022 6.32 4.41 10.6
4/13/2021 2:45:00 PM 11.58 52.844 0.022 6.33 4.47 10.57
4/13/2021 3:00:00 PM 11.64 52.952 0.022 6.34 4.26 10.55
4/13/2021 3:15:00 PM 11.7 53.06 0.022 6.32 4.42 10.54
4/13/2021 3:30:00 PM 11.83 53.294 0.022 6.36 4.33 10.53
4/13/2021 3:45:00 PM 11.84 53.312 0.022 6.34 4.46 10.49
4/13/2021 4:00:00 PM 11.71 53.078 0.022 6.33 4.48 10.49
4/13/2021 4:15:00 PM 11.72 53.096 0.022 6.32 4.44 10.48
4/13/2021 4:30:00 PM 11.65 52.97 0.022 6.32 4.25 10.48
4/13/2021 4:45:00 PM 11.59 52.862 0.022 6.31 4.33 10.48
4/13/2021 5:00:00 PM 11.6 52.88 0.022 6.33 4.35 10.47
4/13/2021 5:15:00 PM 11.68 53.024 0.022 6.35 4.48 10.46
4/13/2021 5:30:00 PM 11.69 53.042 0.022 6.34 4.47 10.44
4/13/2021 5:45:00 PM 11.65 52.97 0.022 6.33 4.45 10.42
4/13/2021 6:00:00 PM 11.64 52.952 0.022 6.34 4.47 10.4
4/13/2021 6:15:00 PM 11.63 52.934 0.022 6.34 4.44 10.39
4/13/2021 6:30:00 PM 11.6 52.88 0.022 6.33 4.37 10.36
4/13/2021 6:45:00 PM 11.55 52.79 0.022 6.3 4.27 10.34
4/13/2021 7:00:00 PM 11.52 52.736 0.022 6.3 4.36 10.32
4/13/2021 7:15:00 PM 11.49 52.682 0.022 6.28 4.54 10.28
4/13/2021 7:30:00 PM 11.48 52.664 0.022 6.29 4.49 10.25
4/13/2021 7:45:00 PM 11.47 52.646 0.022 6.29 4.41 10.23
4/13/2021 8:00:00 PM 11.47 52.646 0.022 6.28 4.52 10.2
4/13/2021 8:15:00 PM 11.46 52.628 0.022 6.28 4.45 10.18
4/13/2021 8:30:00 PM 11.46 52.628 0.022 6.25 4.4 10.17
4/13/2021 8:45:00 PM 11.44 52.592 0.022 6.24 4.47 10.16
4/13/2021 9:00:00 PM 11.41 52.538 0.023 6.23 4.47 10.16
4/13/2021 9:15:00 PM 11.37 52.466 0.022 6.23 4.55 10.17
4/13/2021 9:30:00 PM 11.31 52.358 0.022 6.22 4.49 10.17
4/13/2021 9:45:00 PM 11.26 52.268 0.022 6.21 4.49 10.18
4/13/2021 10:00:00 PM 11.2 52.16 0.022 6.22 4.41 10.19
4/13/2021 10:15:00 PM 11.15 52.07 0.022 6.23 4.69 10.2
4/13/2021 10:30:00 PM 11.09 51.962 0.022 6.21 4.31 10.21
4/13/2021 10:45:00 PM 11.04 51.872 0.023 6.2 4.45 10.22
4/13/2021 11:00:00 PM 10.97 51.746 0.022 6.21 4.42 10.23
4/13/2021 11:15:00 PM 10.91 51.638 0.022 6.2 4.52 10.25
4/13/2021 11:30:00 PM 10.84 51.512 0.022 6.17 4.55 10.27
4/13/2021 11:45:00 PM 10.76 51.368 0.022 6.15 4.64 10.29
4/14/2021 12:00:00 AM 10.68 51.224 0.022 6.18 4.64 10.31
4/14/2021 12:15:00 AM 10.6 51.08 0.022 6.17 4.42 10.33
4/14/2021 12:30:00 AM 10.51 50.918 0.023 6.16 4.55 10.34
4/14/2021 12:45:00 AM 10.42 50.756 0.023 6.15 5.18 10.37
4/14/2021 1:00:00 AM 10.33 50.594 0.023 6.13 4.52 10.39
4/14/2021 1:15:00 AM 10.24 50.432 0.022 6.14 4.45 10.41
4/14/2021 1:30:00 AM 10.15 50.27 0.022 6.13 4.73 10.44
4/14/2021 1:45:00 AM 10.06 50.108 0.022 6.12 4.63 10.47
4/14/2021 2:00:00 AM 9.99 49.982 0.022 6.12 4.49 10.49
4/14/2021 2:15:00 AM 9.91 49.838 0.022 6.13 4.6 10.51
4/14/2021 2:30:00 AM 9.85 49.73 0.022 6.1 4.55 10.53
4/14/2021 2:45:00 AM 9.79 49.622 0.022 6.11 4.5 10.55
4/14/2021 3:00:00 AM 9.74 49.532 0.022 6.12 4.64 10.57
4/14/2021 3:15:00 AM 9.68 49.424 0.022 6.11 4.54 10.58
4/14/2021 3:30:00 AM 9.61 49.298 0.022 6.1 4.51 10.59
4/14/2021 3:45:00 AM 9.54 49.172 0.022 6.11 4.57 10.61
4/14/2021 4:00:00 AM 9.47 49.046 0.022 6.11 4.49 10.63
4/14/2021 4:15:00 AM 9.4 48.92 0.022 6.08 4.54 10.65
4/14/2021 4:30:00 AM 9.33 48.794 0.023 6.1 4.6 10.66
4/14/2021 4:45:00 AM 9.26 48.668 0.022 6.07 4.56 10.68
4/14/2021 5:00:00 AM 9.19 48.542 0.022 6.09 4.66 10.69
4/14/2021 5:15:00 AM 9.12 48.416 0.023 6.08 4.57 10.71
4/14/2021 5:30:00 AM 9.05 48.29 0.023 6.07 4.6 10.72
4/14/2021 5:45:00 AM 8.98 48.164 0.023 6.07 4.53 10.75
4/14/2021 6:00:00 AM 8.91 48.038 0.023 6.06 4.66 10.76
4/14/2021 6:15:00 AM 8.85 47.93 0.023 6.05 4.49 10.78
4/14/2021 6:30:00 AM 8.78 47.804 0.023 6.05 4.57 10.8
4/14/2021 6:45:00 AM 8.71 47.678 0.023 6.05 4.47 10.83
4/14/2021 7:00:00 AM 8.65 47.57 0.023 6.05 4.63 10.86
4/14/2021 7:15:00 AM 8.6 47.48 0.023 6.05 4.7 10.92
4/14/2021 7:30:00 AM 8.56 47.408 0.023 6.06 4.42 10.96
4/14/2021 7:45:00 AM 8.54 47.372 0.023 6.06 4.47 11.01
4/14/2021 8:00:00 AM 8.52 47.336 0.023 6.07 4.45 11.05
4/14/2021 8:15:00 AM 8.55 47.39 0.022 6.09 4.53 11.09
4/14/2021 8:30:00 AM 8.59 47.462 0.022 6.1 4.46 11.11
4/14/2021 8:45:00 AM 8.65 47.57 0.023 6.14 4.47 11.13
4/14/2021 9:00:00 AM 8.7 47.66 0.023 6.13 4.55 11.14
4/14/2021 9:15:00 AM 8.76 47.768 0.023 6.14 4.28 11.14
4/14/2021 9:30:00 AM 8.82 47.876 0.023 6.14 4.28 11.15
4/14/2021 9:45:00 AM 8.88 47.984 0.023 6.15 4.47 11.14
4/14/2021 10:00:00 AM 8.96 48.128 0.023 6.17 4.47 11.13
4/14/2021 10:15:00 AM 9.07 48.326 0.023 6.2 4.39 11.13
4/14/2021 10:30:00 AM 9.2 48.56 0.023 6.21 4.38 11.12
4/14/2021 10:45:00 AM 9.38 48.884 0.022 6.21 4.46 11.09
4/14/2021 11:00:00 AM 9.56 49.208 0.023 6.24 4.54 11.07
4/14/2021 11:15:00 AM 9.73 49.514 0.023 6.25 4.35 11.03
4/14/2021 11:30:00 AM 9.92 49.856 0.023 6.27 4.41 11.01
4/14/2021 11:45:00 AM 10.09 50.162 0.022 6.28 4.28 10.98
4/14/2021 12:00:00 PM 10.25 50.45 0.023 6.28 4.28 10.94
4/14/2021 12:15:00 PM 10.4 50.72 0.023 6.3 4.3 10.9
4/14/2021 12:30:00 PM 10.52 50.936 0.023 6.3 4.38 10.86
4/14/2021 12:45:00 PM 10.67 51.206 0.023 6.3 4.39 10.85
4/14/2021 1:00:00 PM 10.85 51.53 0.023 6.32 4.27 10.79
4/14/2021 1:15:00 PM 10.92 51.656 0.023 6.31 4.37 10.74
4/14/2021 1:30:00 PM 11.01 51.818 0.023 6.33 4.34 10.72
4/14/2021 1:45:00 PM 11.1 51.98 0.023 6.33 4.28 10.69
4/14/2021 2:00:00 PM 11.17 52.106 0.023 6.33 4.33 10.68
4/14/2021 2:15:00 PM 11.28 52.304 0.023 6.35 4.36 10.65
4/14/2021 2:30:00 PM 11.33 52.394 0.023 6.35 4.3 10.62
4/14/2021 2:45:00 PM 11.43 52.574 0.023 6.37 4.22 10.61
4/14/2021 3:00:00 PM 11.57 52.826 0.023 6.38 4.22 10.58
4/14/2021 3:15:00 PM 11.72 53.096 0.023 6.39 4.28 10.56
4/14/2021 3:30:00 PM 11.91 53.438 0.023 6.4 4.32 10.53
4/14/2021 3:45:00 PM 12.04 53.672 0.023 6.43 4.21 10.5
4/14/2021 4:00:00 PM 12.07 53.726 0.023 6.41 4.31 10.46
4/14/2021 4:15:00 PM 12.04 53.672 0.023 6.39 4.2 10.45
4/14/2021 4:30:00 PM 12.07 53.726 0.023 6.41 4.14 10.44
4/14/2021 4:45:00 PM 12.09 53.762 0.023 6.41 4.17 10.41
4/14/2021 5:00:00 PM 12.1 53.78 0.023 6.39 4.29 10.39
4/14/2021 5:15:00 PM 12.03 53.654 0.023 6.39 4.1 10.38
4/14/2021 5:30:00 PM 12 53.6 0.023 6.4 4.33 10.37
4/14/2021 5:45:00 PM 12.01 53.618 0.023 6.41 4.12 10.37
4/14/2021 6:00:00 PM 12.01 53.618 0.023 6.41 4.2 10.35
4/14/2021 6:15:00 PM 11.91 53.438 0.023 6.4 4.12 10.33
4/14/2021 6:30:00 PM 11.85 53.33 0.023 6.39 4.14 10.34
4/14/2021 6:45:00 PM 11.79 53.222 0.023 6.38 4.54 10.34
4/14/2021 7:00:00 PM 11.69 53.042 0.023 6.35 4.23 10.31
4/14/2021 7:15:00 PM 11.58 52.844 0.023 6.35 4.21 10.27
4/14/2021 7:30:00 PM 11.5 52.7 0.023 6.32 4.12 10.24
4/14/2021 7:45:00 PM 11.42 52.556 0.023 6.32 4.22 10.21
4/14/2021 8:00:00 PM 11.35 52.43 0.023 6.29 4.21 10.19
4/14/2021 8:15:00 PM 11.28 52.304 0.023 6.28 4.06 10.17
4/14/2021 8:30:00 PM 11.21 52.178 0.023 6.25 4.31 10.16
4/14/2021 8:45:00 PM 11.14 52.052 0.024 6.26 4.29 10.15
4/14/2021 9:00:00 PM 11.07 51.926 0.023 6.28 4.33 10.16
4/14/2021 9:15:00 PM 11.01 51.818 0.023 6.26 4.32 10.17
4/14/2021 9:30:00 PM 10.95 51.71 0.023 6.23 4.37 10.17
4/14/2021 9:45:00 PM 10.89 51.602 0.024 6.25 4.44 10.19
4/14/2021 10:00:00 PM 10.82 51.476 0.024 6.26 4.34 10.2
4/14/2021 10:15:00 PM 10.76 51.368 0.023 6.24 4.4 10.2
4/14/2021 10:30:00 PM 10.7 51.26 0.023 6.23 4.29 10.21
4/14/2021 10:45:00 PM 10.64 51.152 0.024 6.22 4.32 10.22
4/14/2021 11:00:00 PM 10.59 51.062 0.023 6.21 4.29 10.23
4/14/2021 11:15:00 PM 10.53 50.954 0.024 6.21 4.32 10.25
4/14/2021 11:30:00 PM 10.47 50.846 0.024 6.22 4.22 10.26
4/14/2021 11:45:00 PM 10.42 50.756 0.024 6.22 4.29 10.27
4/15/2021 12:00:00 AM 10.39 50.702 0.024 6.21 4.25 10.28
4/15/2021 12:15:00 AM 10.37 50.666 0.024 6.22 4.16 10.29
4/15/2021 12:30:00 AM 10.34 50.612 0.024 6.21 4.33 10.3
4/15/2021 12:45:00 AM 10.32 50.576 0.024 6.2 4.33 10.31
4/15/2021 1:00:00 AM 10.28 50.504 0.024 6.2 4.36 10.32
4/15/2021 1:15:00 AM 10.24 50.432 0.024 6.21 4.19 10.33
4/15/2021 1:30:00 AM 10.19 50.342 0.023 6.19 4.27 10.34
4/15/2021 1:45:00 AM 10.14 50.252 0.024 6.19 4.4 10.35
4/15/2021 2:00:00 AM 10.08 50.144 0.024 6.2 4.45 10.35
4/15/2021 2:15:00 AM 10.02 50.036 0.024 6.17 4.33 10.37
4/15/2021 2:30:00 AM 9.95 49.91 0.024 6.19 4.51 10.38
4/15/2021 2:45:00 AM 9.88 49.784 0.024 6.2 4.44 10.4
4/15/2021 3:00:00 AM 9.81 49.658 0.023 6.16 4.31 10.41
4/15/2021 3:15:00 AM 9.74 49.532 0.024 6.17 4.31 10.42
4/15/2021 3:30:00 AM 9.68 49.424 0.024 6.16 4.32 10.44
4/15/2021 3:45:00 AM 9.61 49.298 0.024 6.15 4.21 10.45
4/15/2021 4:00:00 AM 9.56 49.208 0.024 6.14 4.21 10.47
4/15/2021 4:15:00 AM 9.51 49.118 0.024 6.14 4.38 10.48
4/15/2021 4:30:00 AM 9.47 49.046 0.024 6.16 4.29 10.5
4/15/2021 4:45:00 AM 9.42 48.956 0.024 6.14 4.26 10.52
4/15/2021 5:00:00 AM 9.37 48.866 0.024 6.15 4.27 10.53
4/15/2021 5:15:00 AM 9.32 48.776 0.023 6.15 4.4 10.54
4/15/2021 5:30:00 AM 9.27 48.686 0.024 6.13 4.38 10.56
4/15/2021 5:45:00 AM 9.22 48.596 0.023 6.14 4.44 10.56
4/15/2021 6:00:00 AM 9.17 48.506 0.024 6.14 4.36 10.58
4/15/2021 6:15:00 AM 9.13 48.434 0.024 6.13 4.36 10.58
4/15/2021 6:30:00 AM 9.09 48.362 0.024 6.14 4.27 10.6
4/15/2021 6:45:00 AM 9.05 48.29 0.024 6.13 4.35 10.62
4/15/2021 7:00:00 AM 9.01 48.218 0.024 6.13 4.07 10.65
4/15/2021 7:15:00 AM 8.98 48.164 0.024 6.13 4.42 10.7
4/15/2021 7:30:00 AM 8.96 48.128 0.024 6.15 4.31 10.74
4/15/2021 7:45:00 AM 8.95 48.11 0.024 6.16 4.35 10.79
4/15/2021 8:00:00 AM 8.94 48.092 0.024 6.16 4.23 10.82
4/15/2021 8:15:00 AM 8.94 48.092 0.024 6.15 4.29 10.85
4/15/2021 8:30:00 AM 8.94 48.092 0.024 6.17 4.38 10.87
4/15/2021 8:45:00 AM 8.93 48.074 0.024 6.18 4.2 10.88
4/15/2021 9:00:00 AM 8.93 48.074 0.024 6.17 4.27 10.88
4/15/2021 9:15:00 AM 8.93 48.074 0.024 6.19 4.24 10.91
4/15/2021 9:30:00 AM 8.94 48.092 0.024 6.19 4.21 10.91
4/15/2021 9:45:00 AM 8.95 48.11 0.024 6.18 4.2 10.93
4/15/2021 10:00:00 AM 8.97 48.146 0.024 6.2 4.34 10.94
4/15/2021 10:15:00 AM 8.99 48.182 0.024 6.21 4.24 10.95
4/15/2021 10:30:00 AM 9.02 48.236 0.024 6.2 4.11 10.96
4/15/2021 10:45:00 AM 9.05 48.29 0.024 6.22 4.2 10.97
4/15/2021 11:00:00 AM 9.07 48.326 0.024 6.22 4.35 10.96
4/15/2021 11:15:00 AM 9.08 48.344 0.024 6.23 4.29 10.96
4/15/2021 11:30:00 AM 9.09 48.362 0.023 6.22 4.19 10.95
4/15/2021 11:45:00 AM 9.07 48.326 0.024 6.22 4.23 10.93
4/15/2021 12:00:00 PM 9.07 48.326 0.024 6.22 4.29 10.93
4/15/2021 12:15:00 PM 9.07 48.326 0.024 6.21 4.36 10.93
4/15/2021 12:30:00 PM 9.08 48.344 0.024 6.22 4.32 10.94
4/15/2021 12:45:00 PM 9.1 48.38 0.024 6.24 4.32 10.94
4/15/2021 1:00:00 PM 9.12 48.416 0.024 6.22 4.29 10.95
4/15/2021 1:15:00 PM 9.14 48.452 0.023 6.23 4.24 10.96
4/15/2021 1:30:00 PM 9.17 48.506 0.024 6.25 4.21 10.97
4/15/2021 1:45:00 PM 9.22 48.596 0.024 6.24 4.36 10.97
4/15/2021 2:00:00 PM 9.27 48.686 0.024 6.25 4.18 10.97
4/15/2021 2:15:00 PM 9.4 48.92 0.023 6.27 4.12 10.97
4/15/2021 2:30:00 PM 9.55 49.19 0.024 6.28 4.09 10.95
4/15/2021 2:45:00 PM 9.68 49.424 0.024 6.28 4.15 10.93
4/15/2021 3:00:00 PM 9.76 49.568 0.024 6.3 4.18 10.91
4/15/2021 3:15:00 PM 9.81 49.658 0.024 6.28 4.24 10.9
4/15/2021 3:30:00 PM 9.85 49.73 0.024 6.28 4.19 10.89
4/15/2021 3:45:00 PM 9.9 49.82 0.024 6.3 4.26 10.87
4/15/2021 4:00:00 PM 9.85 49.73 0.023 6.26 4.19 10.83
4/15/2021 4:15:00 PM 9.74 49.532 0.024 6.24 4.23 10.79
4/15/2021 4:30:00 PM 9.65 49.37 0.024 6.25 4.22 10.78
4/15/2021 4:45:00 PM 9.54 49.172 0.024 6.22 4.26 10.77
4/15/2021 5:00:00 PM 9.45 49.01 0.024 6.22 4.26 10.76
4/15/2021 5:15:00 PM 9.36 48.848 0.024 6.22 4.22 10.77
4/15/2021 5:30:00 PM 9.28 48.704 0.023 6.21 4.28 10.78
4/15/2021 5:45:00 PM 9.2 48.56 0.024 6.2 4.13 10.78
4/15/2021 6:00:00 PM 9.13 48.434 0.024 6.19 4.18 10.78
4/15/2021 6:15:00 PM 9.06 48.308 0.024 6.2 4.1 10.78
4/15/2021 6:30:00 PM 8.99 48.182 0.024 6.2 4.22 10.79
4/15/2021 6:45:00 PM 8.94 48.092 0.024 6.18 4.09 10.79
4/15/2021 7:00:00 PM 8.88 47.984 0.024 6.17 4.2 10.8
4/15/2021 7:15:00 PM 8.84 47.912 0.024 6.17 4.15 10.8
4/15/2021 7:30:00 PM 8.78 47.804 0.024 6.17 4.09 10.79
4/15/2021 7:45:00 PM 8.72 47.696 0.024 6.17 4.2 10.78
4/15/2021 8:00:00 PM 8.66 47.588 0.024 6.16 4.04 10.78
4/15/2021 8:15:00 PM 8.6 47.48 0.024 6.14 4.15 10.77
4/15/2021 8:30:00 PM 8.54 47.372 0.024 6.13 4.2 10.78
4/15/2021 8:45:00 PM 8.48 47.264 0.024 6.13 4.25 10.78
4/15/2021 9:00:00 PM 8.42 47.156 0.024 6.14 4.29 10.79
4/15/2021 9:15:00 PM 8.36 47.048 0.024 6.13 4.21 10.8
4/15/2021 9:30:00 PM 8.31 46.958 0.024 6.1 4.36 10.82
4/15/2021 9:45:00 PM 8.25 46.85 0.024 6.11 4.65 10.82
4/15/2021 10:00:00 PM 8.18 46.724 0.024 6.1 4.24 10.84
4/15/2021 10:15:00 PM 8.12 46.616 0.025 6.09 4.26 10.85
4/15/2021 10:30:00 PM 8.06 46.508 0.024 6.09 4.21 10.87
4/15/2021 10:45:00 PM 8 46.4 0.024 6.1 4.25 10.88
4/15/2021 11:00:00 PM 7.93 46.274 0.024 6.08 4.28 10.89
4/15/2021 11:15:00 PM 7.86 46.148 0.024 6.1 4.18 10.91
4/15/2021 11:30:00 PM 7.81 46.058 0.024 6.09 4.33 10.92
4/15/2021 11:45:00 PM 7.78 46.004 0.024 6.09 4.11 10.93
4/16/2021 12:00:00 AM 7.74 45.932 0.025 6.09 4.26 10.93
4/16/2021 12:15:00 AM 7.7 45.86 0.024 6.08 4.46 10.96
4/16/2021 12:30:00 AM 7.65 45.77 0.024 6.07 4.13 10.97
4/16/2021 12:45:00 AM 7.52 45.536 0.024 6.07 4.19 10.98
4/16/2021 1:00:00 AM 7.41 45.338 0.024 6.05 4.23 11
4/16/2021 1:15:00 AM 7.34 45.212 0.025 6.05 4.25 11.01
4/16/2021 1:30:00 AM 7.32 45.176 0.025 6.06 4.19 11.03
4/16/2021 1:45:00 AM 7.29 45.122 0.024 6.06 4.28 11.04
4/16/2021 2:00:00 AM 7.27 45.086 0.024 6.06 4.23 11.06
4/16/2021 2:15:00 AM 7.23 45.014 0.025 6.06 4.28 11.07
4/16/2021 2:30:00 AM 7.19 44.942 0.024 6.07 4.2 11.09
4/16/2021 2:45:00 AM 7.15 44.87 0.024 6.05 4.2 11.1
4/16/2021 3:00:00 AM 7.12 44.816 0.024 6.06 4.28 11.12
4/16/2021 3:15:00 AM 7.1 44.78 0.025 6.04 4.36 11.13
4/16/2021 3:30:00 AM 7.07 44.726 0.024 6.05 4.2 11.13
4/16/2021 3:45:00 AM 7.04 44.672 0.024 6.04 4.24 11.14
4/16/2021 4:00:00 AM 7.01 44.618 0.025 6.06 4.2 11.14
4/16/2021 4:15:00 AM 6.97 44.546 0.025 6.06 4.19 11.16
4/16/2021 4:30:00 AM 6.92 44.456 0.024 6.04 4.26 11.17
4/16/2021 4:45:00 AM 6.88 44.384 0.024 6.03 4.2 11.19
4/16/2021 5:00:00 AM 6.85 44.33 0.024 6.06 4.15 11.19
4/16/2021 5:15:00 AM 6.81 44.258 0.024 6.05 4.19 11.2
4/16/2021 5:30:00 AM 6.77 44.186 0.025 6.03 4.19 11.21
4/16/2021 5:45:00 AM 6.73 44.114 0.025 6.03 4.26 11.22
4/16/2021 6:00:00 AM 6.69 44.042 0.025 6.02 4.14 11.22
4/16/2021 6:15:00 AM 6.66 43.988 0.025 6.04 4.28 11.24
4/16/2021 6:30:00 AM 6.63 43.934 0.025 6.05 4.08 11.25
4/16/2021 6:45:00 AM 6.6 43.88 0.024 6.05 4.05 11.27
4/16/2021 7:00:00 AM 6.57 43.826 0.024 6.03 4.21 11.29
4/16/2021 7:15:00 AM 6.54 43.772 0.024 6.04 4.19 11.32
4/16/2021 7:30:00 AM 6.51 43.718 0.025 6.03 4.17 11.35
4/16/2021 7:45:00 AM 6.46 43.628 0.025 6.03 4.12 11.38
4/16/2021 8:00:00 AM 6.42 43.556 0.025 6.07 4.11 11.42
4/16/2021 8:15:00 AM 6.38 43.484 0.025 6.06 4.12 11.46
4/16/2021 8:30:00 AM 6.33 43.394 0.025 6.05 4.2 11.49
4/16/2021 8:45:00 AM 6.27 43.286 0.025 6.06 4.23 11.52
4/16/2021 9:00:00 AM 6.23 43.214 0.025 6.05 4.19 11.55
4/16/2021 9:15:00 AM 6.2 43.16 0.025 6.08 4.11 11.57
4/16/2021 9:30:00 AM 6.18 43.124 0.025 6.07 4.24 11.6
4/16/2021 9:45:00 AM 6.19 43.142 0.025 6.08 4.29 11.64
4/16/2021 10:00:00 AM 6.22 43.196 0.025 6.08 4.14 11.66
4/16/2021 10:15:00 AM 6.24 43.232 0.025 6.08 4.15 11.68
4/16/2021 10:30:00 AM 6.28 43.304 0.025 6.09 4.06 11.7
4/16/2021 10:45:00 AM